Provisional Data: Tuscarora Creek near Woodhull, NY


Please select a monitoring station.
Please select start date.
Please select start date.

Toggle Unit: C/F Toggle Unit: C/F
Sample Time Temperature (C) Temperature (F) Specific Conductivity (mS/cm) pH   Turbidity (NTU+) DO (mg/L)
1/12/2021 12:00:00 AM 0.02 32.036 0.37 7.76 3.59 13.9
1/12/2021 12:15:00 AM 0.01 32.018 0.37 7.76 3.77 13.9
1/12/2021 12:30:00 AM 0.01 32.018 0.37 7.76 3.96 13.9
1/12/2021 12:45:00 AM 0.01 32.018 0.371 7.76 3.29 13.91
1/12/2021 1:00:00 AM 0.02 32.036 0.371 7.75 3.26 13.9
1/12/2021 1:15:00 AM 0.03 32.054 0.372 7.75 3.38 13.89
1/12/2021 1:30:00 AM 0.03 32.054 0.372 7.75 3.49 13.92
1/12/2021 1:45:00 AM 0.04 32.072 0.372 7.75 3.32 13.9
1/12/2021 2:00:00 AM 0.04 32.072 0.372 7.76 3.26 13.9
1/12/2021 2:15:00 AM 0.04 32.072 0.373 7.75 3.61 13.89
1/12/2021 2:30:00 AM 0.04 32.072 0.374 7.75 3.47 13.9
1/12/2021 2:45:00 AM 0.03 32.054 0.374 7.75 3.38 13.9
1/12/2021 3:00:00 AM 0.04 32.072 0.374 7.76 3.18 13.9
1/12/2021 3:15:00 AM 0.04 32.072 0.374 7.75 3.9 13.89
1/12/2021 3:30:00 AM 0.04 32.072 0.374 7.75 3.23 13.9
1/12/2021 3:45:00 AM 0.05 32.09 0.375 7.75 3.35 13.89
1/12/2021 4:00:00 AM 0.05 32.09 0.374 7.76 4.05 13.9
1/12/2021 4:15:00 AM 0.05 32.09 0.375 7.75 3.24 13.9
1/12/2021 4:30:00 AM 0.05 32.09 0.374 7.75 3.28 13.89
1/12/2021 4:45:00 AM 0.06 32.108 0.375 7.74 3.16 13.88
1/12/2021 5:00:00 AM 0.05 32.09 0.375 7.75 3.11 13.89
1/12/2021 5:15:00 AM 0.05 32.09 0.375 7.75 3.13 13.9
1/12/2021 5:30:00 AM 0.05 32.09 0.375 7.75 3.11 13.88
1/12/2021 5:45:00 AM 0.04 32.072 0.375 7.74 3.07 13.89
1/12/2021 6:00:00 AM 0.03 32.054 0.374 7.75 3.09 13.9
1/12/2021 6:15:00 AM 0.02 32.036 0.375 7.75 2.95 13.89
1/12/2021 6:30:00 AM 0 32 0.375 7.74 3.03 13.89
1/12/2021 6:45:00 AM 0 32 0.375 7.74 3.19 13.91
1/12/2021 7:00:00 AM 0 32 0.375 7.74 3.02 13.9
1/12/2021 7:15:00 AM 0.01 32.018 0.375 7.74 3.27 13.92
1/12/2021 7:30:00 AM 0.01 32.018 0.374 7.75 3.16 13.93
1/12/2021 7:45:00 AM 0.01 32.018 0.374 7.75 3.11 13.94
1/12/2021 8:00:00 AM 0.02 32.036 0.374 7.75 3.07 13.97
1/12/2021 8:15:00 AM 0.02 32.036 0.373 7.76 2.87 13.99
1/12/2021 8:30:00 AM 0.03 32.054 0.373 7.77 2.96 14
1/12/2021 8:45:00 AM 0.04 32.072 0.372 7.77 3.07 14.05
1/12/2021 9:00:00 AM 0.04 32.072 0.372 7.79 2.97 14.11
1/12/2021 9:15:00 AM 0.05 32.09 0.371 7.79 2.96 14.17
1/12/2021 9:30:00 AM 0.06 32.108 0.371 7.8 2.82 14.19
1/12/2021 9:45:00 AM 0.07 32.126 0.371 7.82 2.77 14.23
1/12/2021 10:00:00 AM 0.1 32.18 0.37 7.82 2.67 14.28
1/12/2021 10:15:00 AM 0.13 32.234 0.37 7.83 2.85 14.3
1/12/2021 10:30:00 AM 0.18 32.324 0.37 7.84 2.89 14.31
1/12/2021 10:45:00 AM 0.25 32.45 0.37 7.85 3.08 14.33
1/12/2021 11:00:00 AM 0.3 32.54 0.369 7.85 2.8 14.34
1/12/2021 11:15:00 AM 0.32 32.576 0.368 7.86 2.73 14.34
1/12/2021 11:30:00 AM 0.35 32.63 0.368 7.85 2.72 14.34
1/12/2021 11:45:00 AM 0.38 32.684 0.367 7.86 2.89 14.35
1/12/2021 12:00:00 PM 0.44 32.792 0.366 7.87 2.69 14.34
1/12/2021 12:15:00 PM 0.5 32.9 0.366 7.88 2.93 14.34
1/12/2021 12:30:00 PM 0.55 32.99 0.365 7.89 2.81 14.32
1/12/2021 12:45:00 PM 0.59 33.062 0.364 7.89 2.75 14.31
1/12/2021 1:00:00 PM 0.64 33.152 0.363 7.89 2.68 14.3
1/12/2021 1:15:00 PM 0.68 33.224 0.363 7.9 2.81 14.28
1/12/2021 1:30:00 PM 0.7 33.26 0.362 7.9 2.78 14.27
1/12/2021 1:45:00 PM 0.73 33.314 0.362 7.9 2.65 14.25
1/12/2021 2:00:00 PM 0.73 33.314 0.361 7.9 2.73 14.23
1/12/2021 2:15:00 PM 0.72 33.296 0.361 7.91 2.73 14.22
1/12/2021 2:30:00 PM 0.71 33.278 0.361 7.9 2.63 14.19
1/12/2021 2:45:00 PM 0.69 33.242 0.36 7.9 2.68 14.18
1/12/2021 3:00:00 PM 0.67 33.206 0.361 7.89 2.84 14.17
1/12/2021 3:15:00 PM 0.65 33.17 0.36 7.9 2.83 14.15
1/12/2021 3:30:00 PM 0.62 33.116 0.36 7.9 2.71 14.13
1/12/2021 3:45:00 PM 0.59 33.062 0.359 7.89 2.65 14.11
1/12/2021 4:00:00 PM 0.56 33.008 0.359 7.89 2.65 14.08
1/12/2021 4:15:00 PM 0.53 32.954 0.36 7.88 2.78 14.04
1/12/2021 4:30:00 PM 0.48 32.864 0.36 7.88 2.87 14.02
1/12/2021 4:45:00 PM 0.46 32.828 0.361 7.86 2.81 13.98
1/12/2021 5:00:00 PM 0.43 32.774 0.361 7.85 2.98 13.95
1/12/2021 5:15:00 PM 0.41 32.738 0.361 7.85 2.83 13.92
1/12/2021 5:30:00 PM 0.39 32.702 0.362 7.83 2.87 13.89
1/12/2021 5:45:00 PM 0.37 32.666 0.362 7.83 2.99 13.86
1/12/2021 6:00:00 PM 0.36 32.648 0.362 7.82 2.82 13.85
1/12/2021 6:15:00 PM 0.34 32.612 0.363 7.82 3.17 13.83
1/12/2021 6:30:00 PM 0.33 32.594 0.363 7.81 2.9 13.81
1/12/2021 6:45:00 PM 0.31 32.558 0.363 7.8 3.22 13.78
1/12/2021 7:00:00 PM 0.3 32.54 0.363 7.8 2.88 13.79
1/12/2021 7:15:00 PM 0.3 32.54 0.363 7.79 2.78 13.78
1/12/2021 7:30:00 PM 0.28 32.504 0.362 7.79 3.06 13.78
1/12/2021 7:45:00 PM 0.28 32.504 0.363 7.79 2.77 13.78
1/12/2021 8:00:00 PM 0.27 32.486 0.362 7.79 2.8 13.78
1/12/2021 8:15:00 PM 0.26 32.468 0.362 7.78 2.78 13.78
1/12/2021 8:30:00 PM 0.26 32.468 0.362 7.78 2.68 13.79
1/12/2021 8:45:00 PM 0.25 32.45 0.362 7.78 2.93 13.78
1/12/2021 9:00:00 PM 0.25 32.45 0.362 7.78 2.68 13.77
1/12/2021 9:15:00 PM 0.24 32.432 0.362 7.78 2.79 13.78
1/12/2021 9:30:00 PM 0.23 32.414 0.362 7.77 2.78 13.78
1/12/2021 9:45:00 PM 0.23 32.414 0.363 7.77 2.98 13.78
1/12/2021 10:00:00 PM 0.22 32.396 0.362 7.77 3.02 13.78
1/12/2021 10:15:00 PM 0.22 32.396 0.362 7.77 2.91 13.79
1/12/2021 10:30:00 PM 0.21 32.378 0.363 7.77 3.68 13.79
1/12/2021 10:45:00 PM 0.21 32.378 0.362 7.77 2.86 13.8
1/12/2021 11:00:00 PM 0.2 32.36 0.362 7.76 2.79 13.79
1/12/2021 11:15:00 PM 0.2 32.36 0.363 7.77 2.98 13.79
1/12/2021 11:30:00 PM 0.19 32.342 0.362 7.77 2.84 13.79
1/12/2021 11:45:00 PM 0.19 32.342 0.362 7.76 3.09 13.81
1/13/2021 12:00:00 AM 0.19 32.342 0.363 7.76 2.89 13.79
1/13/2021 12:15:00 AM 0.18 32.324 0.363 7.76 2.95 13.78
1/13/2021 12:30:00 AM 0.18 32.324 0.363 7.76 2.88 13.8
1/13/2021 12:45:00 AM 0.18 32.324 0.362 7.76 3.3 13.77
1/13/2021 1:00:00 AM 0.17 32.306 0.362 7.77 2.99 13.8
1/13/2021 1:15:00 AM 0.17 32.306 0.362 7.76 2.97 13.78
1/13/2021 1:30:00 AM 0.16 32.288 0.362 7.76 3.48 13.8
1/13/2021 1:45:00 AM 0.16 32.288 0.362 7.76 2.86 13.8
1/13/2021 2:00:00 AM 0.15 32.27 0.362 7.76 2.93 13.81
1/13/2021 2:15:00 AM 0.15 32.27 0.362 7.76 2.85 13.82
1/13/2021 2:30:00 AM 0.14 32.252 0.361 7.76 3 13.82
1/13/2021 2:45:00 AM 0.14 32.252 0.362 7.76 2.94 13.83
1/13/2021 3:00:00 AM 0.14 32.252 0.362 7.76 2.83 13.81
1/13/2021 3:15:00 AM 0.13 32.234 0.362 7.77 3.01 13.82
1/13/2021 3:30:00 AM 0.13 32.234 0.362 7.76 3.2 13.82
1/13/2021 3:45:00 AM 0.12 32.216 0.362 7.76 2.99 13.82
1/13/2021 4:00:00 AM 0.12 32.216 0.363 7.76 2.89 13.83
1/13/2021 4:15:00 AM 0.12 32.216 0.363 7.76 3.03 13.83
1/13/2021 4:30:00 AM 0.12 32.216 0.363 7.76 2.89 13.83
1/13/2021 4:45:00 AM 0.11 32.198 0.363 7.76 2.79 13.83
1/13/2021 5:00:00 AM 0.11 32.198 0.363 7.76 2.88 13.83
1/13/2021 5:15:00 AM 0.1 32.18 0.363 7.76 2.77 13.83
1/13/2021 5:30:00 AM 0.1 32.18 0.363 7.76 2.84 13.83
1/13/2021 5:45:00 AM 0.09 32.162 0.363 7.76 3.01 13.83
1/13/2021 6:00:00 AM 0.09 32.162 0.363 7.76 2.98 13.83
1/13/2021 6:15:00 AM 0.08 32.144 0.363 7.76 2.83 13.84
1/13/2021 6:30:00 AM 0.08 32.144 0.363 7.76 2.88 13.84
1/13/2021 6:45:00 AM 0.07 32.126 0.363 7.76 2.97 13.85
1/13/2021 7:00:00 AM 0.05 32.09 0.362 7.78 2.71 13.87
1/13/2021 7:15:00 AM 0.06 32.108 0.363 7.76 3.14 13.87
1/13/2021 7:30:00 AM 0.07 32.126 0.363 7.76 2.99 13.85
1/13/2021 7:45:00 AM 0.07 32.126 0.363 7.76 2.74 13.84
1/13/2021 8:00:00 AM 0.07 32.126 0.363 7.76 2.59 13.85
1/13/2021 8:15:00 AM 0.08 32.144 0.363 7.77 2.72 13.88
1/13/2021 8:30:00 AM 0.08 32.144 0.363 7.77 2.76 13.87
1/13/2021 8:45:00 AM 0.09 32.162 0.363 7.77 2.74 13.89
1/13/2021 9:00:00 AM 0.1 32.18 0.364 7.76 2.8 13.9
1/13/2021 9:15:00 AM 0.1 32.18 0.363 7.78 2.78 13.96
1/13/2021 9:30:00 AM 0.12 32.216 0.363 7.79 2.73 13.98
1/13/2021 9:45:00 AM 0.14 32.252 0.363 7.79 2.7 14.04
1/13/2021 10:00:00 AM 0.17 32.306 0.363 7.81 2.68 14.07
1/13/2021 10:15:00 AM 0.19 32.342 0.363 7.82 2.69 14.11
1/13/2021 10:30:00 AM 0.22 32.396 0.363 7.82 2.62 14.14
1/13/2021 10:45:00 AM 0.25 32.45 0.363 7.83 2.7 14.17
1/13/2021 11:00:00 AM 0.29 32.522 0.362 7.85 2.64 14.19
1/13/2021 11:15:00 AM 0.32 32.576 0.362 7.85 2.56 14.22
1/13/2021 11:30:00 AM 0.37 32.666 0.362 7.87 2.72 14.25
1/13/2021 11:45:00 AM 0.43 32.774 0.362 7.87 2.68 14.25
1/13/2021 12:00:00 PM 0.49 32.882 0.362 7.89 2.57 14.27
1/13/2021 12:15:00 PM 0.56 33.008 0.362 7.89 2.71 14.25
1/13/2021 12:30:00 PM 0.62 33.116 0.363 7.89 2.74 14.23
1/13/2021 12:45:00 PM 0.69 33.242 0.364 7.88 2.86 14.22
1/13/2021 1:00:00 PM 0.78 33.404 0.364 7.89 2.84 14.2
1/13/2021 1:15:00 PM 0.88 33.584 0.365 7.88 2.85 14.17
1/13/2021 1:30:00 PM 1 33.8 0.364 7.89 3.01 14.14
1/13/2021 1:45:00 PM 1.07 33.926 0.364 7.89 2.92 14.11
1/13/2021 2:00:00 PM 1.11 33.998 0.364 7.9 2.9 14.07
1/13/2021 2:15:00 PM 1.12 34.016 0.363 7.89 2.73 14.04
1/13/2021 2:30:00 PM 1.14 34.052 0.363 7.9 3.87 14.01
1/13/2021 2:45:00 PM 1.15 34.07 0.362 7.9 2.56 13.98
1/13/2021 3:00:00 PM 1.16 34.088 0.362 7.91 2.67 13.95
1/13/2021 3:15:00 PM 1.16 34.088 0.362 7.92 2.7 13.93
1/13/2021 3:30:00 PM 1.14 34.052 0.361 7.91 2.49 13.92
1/13/2021 3:45:00 PM 1.11 33.998 0.361 7.92 2.55 13.92
1/13/2021 4:00:00 PM 1.06 33.908 0.361 7.92 2.61 13.91
1/13/2021 4:15:00 PM 1.01 33.818 0.361 7.9 2.67 13.88
1/13/2021 4:30:00 PM 0.95 33.71 0.36 7.91 2.63 13.87
1/13/2021 4:45:00 PM 0.9 33.62 0.36 7.9 2.47 13.84
1/13/2021 5:00:00 PM 0.86 33.548 0.36 7.89 2.51 13.81
1/13/2021 5:15:00 PM 0.82 33.476 0.36 7.88 2.54 13.78
1/13/2021 5:30:00 PM 0.79 33.422 0.36 7.88 2.6 13.73
1/13/2021 5:45:00 PM 0.76 33.368 0.36 7.86 2.68 13.68
1/13/2021 6:00:00 PM 0.72 33.296 0.36 7.85 3.09 13.66
1/13/2021 6:15:00 PM 0.7 33.26 0.361 7.85 2.79 13.62
1/13/2021 6:30:00 PM 0.67 33.206 0.361 7.84 2.73 13.61
1/13/2021 6:45:00 PM 0.65 33.17 0.361 7.83 2.8 13.59
1/13/2021 7:00:00 PM 0.63 33.134 0.361 7.82 2.73 13.57
1/13/2021 7:15:00 PM 0.62 33.116 0.361 7.82 2.66 13.56
1/13/2021 7:30:00 PM 0.6 33.08 0.361 7.81 2.59 13.55
1/13/2021 7:45:00 PM 0.59 33.062 0.361 7.81 2.8 13.55
1/13/2021 8:00:00 PM 0.57 33.026 0.361 7.8 2.88 13.54
1/13/2021 8:15:00 PM 0.56 33.008 0.361 7.8 3.29 13.54
1/13/2021 8:30:00 PM 0.54 32.972 0.361 7.8 2.93 13.54
1/13/2021 8:45:00 PM 0.53 32.954 0.362 7.79 2.82 13.54
1/13/2021 9:00:00 PM 0.51 32.918 0.362 7.79 2.82 13.54
1/13/2021 9:15:00 PM 0.49 32.882 0.362 7.78 2.75 13.53
1/13/2021 9:30:00 PM 0.47 32.846 0.362 7.78 2.73 13.54
1/13/2021 9:45:00 PM 0.44 32.792 0.362 7.78 2.81 13.55
1/13/2021 10:00:00 PM 0.42 32.756 0.362 7.79 2.81 13.56
1/13/2021 10:15:00 PM 0.39 32.702 0.362 7.78 2.66 13.57
1/13/2021 10:30:00 PM 0.37 32.666 0.362 7.78 2.98 13.57
1/13/2021 10:45:00 PM 0.34 32.612 0.362 7.78 2.72 13.59
1/13/2021 11:00:00 PM 0.32 32.576 0.362 7.78 2.79 13.6
1/13/2021 11:15:00 PM 0.31 32.558 0.362 7.78 2.75 13.61
1/13/2021 11:30:00 PM 0.31 32.558 0.362 7.77 3.32 13.6
1/13/2021 11:45:00 PM 0.31 32.558 0.361 7.78 2.92 13.61
1/14/2021 12:00:00 AM 0.31 32.558 0.362 7.78 2.73 13.62
1/14/2021 12:15:00 AM 0.3 32.54 0.362 7.77 2.96 13.61
1/14/2021 12:30:00 AM 0.29 32.522 0.362 7.78 2.74 13.62
1/14/2021 12:45:00 AM 0.29 32.522 0.362 7.76 2.7 13.62
1/14/2021 1:00:00 AM 0.3 32.54 0.362 7.77 2.7 13.61
1/14/2021 1:15:00 AM 0.32 32.576 0.362 7.77 2.61 13.61
1/14/2021 1:30:00 AM 0.33 32.594 0.361 7.78 3.33 13.62
1/14/2021 1:45:00 AM 0.35 32.63 0.361 7.78 2.74 13.61
1/14/2021 2:00:00 AM 0.36 32.648 0.362 7.78 2.72 13.61
1/14/2021 2:15:00 AM 0.37 32.666 0.362 7.77 2.73 13.6
1/14/2021 2:30:00 AM 0.38 32.684 0.362 7.77 2.85 13.6
1/14/2021 2:45:00 AM 0.4 32.72 0.362 7.77 2.77 13.59
1/14/2021 3:00:00 AM 0.4 32.72 0.362 7.77 2.7 13.59
1/14/2021 3:15:00 AM 0.41 32.738 0.362 7.78 2.7 13.59
1/14/2021 3:30:00 AM 0.41 32.738 0.362 7.77 3.53 13.59
1/14/2021 3:45:00 AM 0.42 32.756 0.361 7.78 2.75 13.59
1/14/2021 4:00:00 AM 0.42 32.756 0.361 7.77 2.84 13.58
1/14/2021 4:15:00 AM 0.42 32.756 0.361 7.77 2.76 13.58
1/14/2021 4:30:00 AM 0.42 32.756 0.361 7.77 2.72 13.58
1/14/2021 4:45:00 AM 0.42 32.756 0.361 7.77 2.85 13.58
1/14/2021 5:00:00 AM 0.42 32.756 0.361 7.77 2.74 13.59
1/14/2021 5:15:00 AM 0.42 32.756 0.361 7.77 2.73 13.58
1/14/2021 5:30:00 AM 0.42 32.756 0.361 7.77 2.87 13.58
1/14/2021 5:45:00 AM 0.42 32.756 0.361 7.77 2.7 13.58
1/14/2021 6:00:00 AM 0.42 32.756 0.361 7.77 2.67 13.58
1/14/2021 6:15:00 AM 0.42 32.756 0.361 7.77 2.79 13.59
1/14/2021 6:30:00 AM 0.43 32.774 0.361 7.77 2.67 13.58
1/14/2021 6:45:00 AM 0.43 32.774 0.361 7.77 2.67 13.59
1/14/2021 7:00:00 AM 0.43 32.774 0.36 7.77 2.79 13.58
1/14/2021 7:15:00 AM 0.44 32.792 0.361 7.76 2.73 13.57
1/14/2021 7:30:00 AM 0.44 32.792 0.361 7.77 2.88 13.59
1/14/2021 7:45:00 AM 0.44 32.792 0.361 7.76 2.72 13.57
1/14/2021 8:00:00 AM 0.45 32.81 0.361 7.77 2.85 13.58
1/14/2021 8:15:00 AM 0.45 32.81 0.361 7.74 2.62 13.59
1/14/2021 8:30:00 AM 0.46 32.828 0.361 7.77 2.67 13.61
1/14/2021 8:45:00 AM 0.48 32.864 0.361 7.77 2.66 13.64
1/14/2021 9:00:00 AM 0.5 32.9 0.361 7.78 2.65 13.68
1/14/2021 9:15:00 AM 0.53 32.954 0.361 7.78 2.63 13.72
1/14/2021 9:30:00 AM 0.56 33.008 0.36 7.81 2.55 13.78
1/14/2021 9:45:00 AM 0.6 33.08 0.36 7.82 2.66 13.84
1/14/2021 10:00:00 AM 0.64 33.152 0.36 7.83 2.65 13.88
1/14/2021 10:15:00 AM 0.69 33.242 0.36 7.84 2.6 13.91
1/14/2021 10:30:00 AM 0.75 33.35 0.36 7.85 2.67 13.96
1/14/2021 10:45:00 AM 0.83 33.494 0.36 7.87 2.63 14
1/14/2021 11:00:00 AM 0.93 33.674 0.359 7.88 2.62 14.03
1/14/2021 11:15:00 AM 1.01 33.818 0.359 7.89 2.59 14.04
1/14/2021 11:30:00 AM 1.08 33.944 0.359 7.9 2.55 14.05
1/14/2021 11:45:00 AM 1.12 34.016 0.359 7.92 2.46 14.05
1/14/2021 12:00:00 PM 1.16 34.088 0.359 7.92 2.45 14.04
1/14/2021 12:15:00 PM 1.2 34.16 0.359 7.92 2.56 14.01
1/14/2021 12:30:00 PM 1.26 34.268 0.359 7.93 2.6 14
1/14/2021 12:45:00 PM 1.33 34.394 0.358 7.94 2.71 14.01
1/14/2021 1:00:00 PM 1.4 34.52 0.358 7.94 2.64 13.99
1/14/2021 1:15:00 PM 1.46 34.628 0.359 7.95 2.72 13.98
1/14/2021 1:30:00 PM 1.51 34.718 0.358 7.95 2.65 13.94
1/14/2021 1:45:00 PM 1.54 34.772 0.357 7.96 2.59 13.95
1/14/2021 2:00:00 PM 1.57 34.826 0.358 7.96 2.54 13.93
1/14/2021 2:15:00 PM 1.6 34.88 0.358 7.97 2.53 13.91
1/14/2021 2:30:00 PM 1.62 34.916 0.358 7.96 2.6 13.88
1/14/2021 2:45:00 PM 1.65 34.97 0.358 7.96 2.59 13.87
1/14/2021 3:00:00 PM 1.67 35.006 0.357 7.98 2.59 13.85
1/14/2021 3:15:00 PM 1.7 35.06 0.357 7.98 2.57 13.83
1/14/2021 3:30:00 PM 1.72 35.096 0.357 7.97 2.51 13.8
1/14/2021 3:45:00 PM 1.74 35.132 0.357 7.97 2.45 13.78
1/14/2021 4:00:00 PM 1.75 35.15 0.357 7.97 2.51 13.75
1/14/2021 4:15:00 PM 1.75 35.15 0.356 7.96 2.56 13.7
1/14/2021 4:30:00 PM 1.74 35.132 0.356 7.95 2.52 13.66
1/14/2021 4:45:00 PM 1.73 35.114 0.356 7.95 2.57 13.61
1/14/2021 5:00:00 PM 1.72 35.096 0.356 7.94 2.51 13.57
1/14/2021 5:15:00 PM 1.71 35.078 0.356 7.93 2.69 13.51
1/14/2021 5:30:00 PM 1.7 35.06 0.357 7.91 2.58 13.45
1/14/2021 5:45:00 PM 1.69 35.042 0.357 7.89 2.56 13.39
1/14/2021 6:00:00 PM 1.68 35.024 0.357 7.89 2.57 13.35
1/14/2021 6:15:00 PM 1.67 35.006 0.357 7.87 2.66 13.32
1/14/2021 6:30:00 PM 1.67 35.006 0.357 7.86 2.66 13.28
1/14/2021 6:45:00 PM 1.68 35.024 0.358 7.86 2.7 13.25
1/14/2021 7:00:00 PM 1.68 35.024 0.358 7.85 2.69 13.24
1/14/2021 7:15:00 PM 1.68 35.024 0.358 7.85 2.67 13.23
1/14/2021 7:30:00 PM 1.68 35.024 0.358 7.84 2.87 13.21
1/14/2021 7:45:00 PM 1.67 35.006 0.357 7.84 2.72 13.22
1/14/2021 8:00:00 PM 1.67 35.006 0.357 7.84 2.84 13.21
1/14/2021 8:15:00 PM 1.67 35.006 0.358 7.83 2.84 13.2
1/14/2021 8:30:00 PM 1.66 34.988 0.358 7.83 2.91 13.2
1/14/2021 8:45:00 PM 1.66 34.988 0.358 7.83 3.06 13.2
1/14/2021 9:00:00 PM 1.66 34.988 0.359 7.82 2.98 13.19
1/14/2021 9:15:00 PM 1.66 34.988 0.359 7.82 3.09 13.18
1/14/2021 9:30:00 PM 1.65 34.97 0.359 7.82 3.01 13.19
1/14/2021 9:45:00 PM 1.65 34.97 0.358 7.82 3.06 13.2
1/14/2021 10:00:00 PM 1.64 34.952 0.358 7.82 2.98 13.19
1/14/2021 10:15:00 PM 1.64 34.952 0.358 7.82 2.84 13.19
1/14/2021 10:30:00 PM 1.63 34.934 0.358 7.81 3.11 13.19
1/14/2021 10:45:00 PM 1.63 34.934 0.358 7.8 2.93 13.19
1/14/2021 11:00:00 PM 1.62 34.916 0.357 7.8 18.34 13.18
1/14/2021 11:15:00 PM 1.62 34.916 0.357 7.8 3.24 13.19
1/14/2021 11:30:00 PM 1.61 34.898 0.357 7.81 2.98 13.21
1/14/2021 11:45:00 PM 1.6 34.88 0.357 7.81 2.85 13.2
1/15/2021 12:00:00 AM 1.6 34.88 0.357 7.81 3.09 13.21
1/15/2021 12:15:00 AM 1.59 34.862 0.356 7.8 3.12 13.2
1/15/2021 12:30:00 AM 1.58 34.844 0.356 7.8 2.99 13.2
1/15/2021 12:45:00 AM 1.57 34.826 0.356 7.8 3.64 13.2
1/15/2021 1:00:00 AM 1.57 34.826 0.355 7.8 3.09 13.2
1/15/2021 1:15:00 AM 1.57 34.826 0.355 7.8 3.24 13.21
1/15/2021 1:30:00 AM 1.56 34.808 0.353 7.81 3.06 13.23
1/15/2021 1:45:00 AM 1.56 34.808 0.354 7.8 7.76 13.21
1/15/2021 2:00:00 AM 1.55 34.79 0.353 7.8 3.13 13.22
1/15/2021 2:15:00 AM 1.54 34.772 0.353 7.8 2.91 13.23
1/15/2021 2:30:00 AM 1.54 34.772 0.353 7.8 3.19 13.23
1/15/2021 2:45:00 AM 1.53 34.754 0.353 7.8 2.92 13.25
1/15/2021 3:00:00 AM 1.5 34.7 0.353 7.81 3.1 13.26
1/15/2021 3:15:00 AM 1.47 34.646 0.353 7.8 3.12 13.26
1/15/2021 3:30:00 AM 1.43 34.574 0.353 7.79 2.97 13.24
1/15/2021 3:45:00 AM 1.37 34.466 0.353 7.81 3.14 13.27
1/15/2021 4:00:00 AM 1.32 34.376 0.353 7.8 3.05 13.29
1/15/2021 4:15:00 AM 1.29 34.322 0.353 7.8 2.98 13.29
1/15/2021 4:30:00 AM 1.24 34.232 0.353 7.8 3.14 13.31
1/15/2021 4:45:00 AM 1.19 34.142 0.352 7.8 3.16 13.32
1/15/2021 5:00:00 AM 1.16 34.088 0.353 7.8 3.41 13.33
1/15/2021 5:15:00 AM 1.13 34.034 0.352 7.8 3.18 13.35
1/15/2021 5:30:00 AM 1.11 33.998 0.352 7.8 3.32 13.36
1/15/2021 5:45:00 AM 1.08 33.944 0.352 7.8 3.46 13.38
1/15/2021 6:00:00 AM 1.04 33.872 0.351 7.79 3.12 13.39
1/15/2021 6:15:00 AM 1.03 33.854 0.351 7.81 3.17 13.4
1/15/2021 6:30:00 AM 1.02 33.836 0.351 7.81 6.41 13.41
1/15/2021 6:45:00 AM 1.03 33.854 0.351 7.81 12.06 13.4
1/15/2021 7:00:00 AM 1.03 33.854 0.35 7.81 3.06 13.42
1/15/2021 7:15:00 AM 1.03 33.854 0.351 7.81 3.17 13.41
1/15/2021 7:30:00 AM 1.02 33.836 0.351 7.81 2.77 13.41
1/15/2021 7:45:00 AM 1.01 33.818 0.351 7.81 2.96 13.42
1/15/2021 8:00:00 AM 1 33.8 0.351 7.82 2.9 13.43
1/15/2021 8:15:00 AM 1 33.8 0.351 7.82 2.82 13.46
1/15/2021 8:30:00 AM 1 33.8 0.352 7.91 3.93 13.45
1/15/2021 8:45:00 AM 1 33.8 0.351 7.84 2.99 13.52
1/15/2021 9:00:00 AM 1.01 33.818 0.351 7.84 3.36 13.57
1/15/2021 9:15:00 AM 1.02 33.836 0.351 7.86 2.91 13.64
1/15/2021 9:30:00 AM 1.05 33.89 0.35 7.86 3.08 13.7
1/15/2021 9:45:00 AM 1.08 33.944 0.351 7.88 2.99 13.76
1/15/2021 10:00:00 AM 1.13 34.034 0.35 7.89 2.94 13.83
1/15/2021 10:15:00 AM 1.18 34.124 0.35 7.91 2.9 13.89
1/15/2021 10:30:00 AM 1.26 34.268 0.35 7.93 2.87 13.93
1/15/2021 10:45:00 AM 1.35 34.43 0.349 7.93 2.84 13.95
1/15/2021 11:00:00 AM 1.43 34.574 0.349 7.96 2.92 13.98
1/15/2021 11:15:00 AM 1.52 34.736 0.349 7.97 3.4 13.99
1/15/2021 11:30:00 AM 1.61 34.898 0.349 7.99 2.87 14
1/15/2021 11:45:00 AM 1.69 35.042 0.35 7.99 2.84 14
1/15/2021 12:00:00 PM 1.77 35.186 0.35 8.01 2.99 13.98
1/15/2021 12:15:00 PM 1.82 35.276 0.35 8.01 2.89 13.95
1/15/2021 12:30:00 PM 1.85 35.33 0.35 8 2.91 13.92
1/15/2021 12:45:00 PM 1.9 35.42 0.351 8.01 2.8 13.9
1/15/2021 1:00:00 PM 1.95 35.51 0.351 8.01 2.76 13.88
1/15/2021 1:15:00 PM 2.02 35.636 0.35 8.03 2.71 13.88
1/15/2021 1:30:00 PM 2.09 35.762 0.35 8.04 2.79 13.86
1/15/2021 1:45:00 PM 2.13 35.834 0.35 8.04 2.77 13.85
1/15/2021 2:00:00 PM 2.16 35.888 0.35 8.04 2.83 13.83
1/15/2021 2:15:00 PM 2.18 35.924 0.35 8.05 2.77 13.8
1/15/2021 2:30:00 PM 2.25 36.05 0.35 8.04 2.77 13.79
1/15/2021 2:45:00 PM 2.32 36.176 0.349 8.06 2.76 13.78
1/15/2021 3:00:00 PM 2.38 36.284 0.349 8.07 2.82 13.78
1/15/2021 3:15:00 PM 2.41 36.338 0.349 8.07 2.76 13.74
1/15/2021 3:30:00 PM 2.41 36.338 0.348 8.07 2.74 13.71
1/15/2021 3:45:00 PM 2.42 36.356 0.348 8.05 2.89 13.69
1/15/2021 4:00:00 PM 2.44 36.392 0.348 8.06 2.8 13.64
1/15/2021 4:15:00 PM 2.45 36.41 0.348 8.05 2.73 13.58
1/15/2021 4:30:00 PM 2.44 36.392 0.347 8.04 2.86 13.48
1/15/2021 4:45:00 PM 2.43 36.374 0.347 8.03 2.76 13.44
1/15/2021 5:00:00 PM 2.42 36.356 0.347 8.01 2.74 13.38
1/15/2021 5:15:00 PM 2.42 36.356 0.347 7.99 2.84 13.31
1/15/2021 5:30:00 PM 2.42 36.356 0.347 7.98 2.88 13.24
1/15/2021 5:45:00 PM 2.41 36.338 0.347 7.96 3 13.18
1/15/2021 6:00:00 PM 2.41 36.338 0.348 7.95 2.87 13.13
1/15/2021 6:15:00 PM 2.41 36.338 0.348 7.93 2.86 13.08
1/15/2021 6:30:00 PM 2.41 36.338 0.349 7.92 2.84 13.04
1/15/2021 6:45:00 PM 2.41 36.338 0.348 7.91 2.92 13
1/15/2021 7:00:00 PM 2.42 36.356 0.349 7.9 3.17 12.98
1/15/2021 7:15:00 PM 2.43 36.374 0.349 7.9 3 12.97
1/15/2021 7:30:00 PM 2.44 36.392 0.349 7.87 2.91 12.94
1/15/2021 7:45:00 PM 2.45 36.41 0.348 7.88 2.93 12.93
1/15/2021 8:00:00 PM 2.46 36.428 0.348 7.88 3.16 12.9
1/15/2021 8:15:00 PM 2.47 36.446 0.349 7.88 3.61 12.89
1/15/2021 8:30:00 PM 2.48 36.464 0.349 7.87 3.71 12.87
1/15/2021 8:45:00 PM 2.48 36.464 0.347 7.87 3.53 12.88
1/15/2021 9:00:00 PM 2.48 36.464 0.347 7.85 3.7 12.88
1/15/2021 9:15:00 PM 2.48 36.464 0.346 7.85 3.46 12.86
1/15/2021 9:30:00 PM 2.47 36.446 0.346 7.85 3.44 12.86
1/15/2021 9:45:00 PM 2.46 36.428 0.347 7.84 3.47 12.85
1/15/2021 10:00:00 PM 2.46 36.428 0.346 7.84 3.57 12.85
1/15/2021 10:15:00 PM 2.45 36.41 0.345 7.84 3.79 12.87
1/15/2021 10:30:00 PM 2.44 36.392 0.345 7.84 3.71 12.86
1/15/2021 10:45:00 PM 2.44 36.392 0.345 7.83 3.41 12.87
1/15/2021 11:00:00 PM 2.43 36.374 0.345 7.84 3.43 12.86
1/15/2021 11:15:00 PM 2.42 36.356 0.344 7.84 3.84 12.86
1/15/2021 11:30:00 PM 2.41 36.338 0.343 7.84 3.96 12.86
1/15/2021 11:45:00 PM 2.4 36.32 0.343 7.84 3.8 12.87
1/16/2021 12:00:00 AM 2.37 36.266 0.342 7.84 3.81 12.87
1/16/2021 12:15:00 AM 2.35 36.23 0.342 7.84 4.16 12.89
1/16/2021 12:30:00 AM 2.33 36.194 0.344 7.84 4.15 12.9
1/16/2021 12:45:00 AM 2.31 36.158 0.348 7.84 5.14 12.9
1/16/2021 1:00:00 AM 2.29 36.122 0.352 7.84 5.62 12.92
1/16/2021 1:15:00 AM 2.26 36.068 0.357 7.84 5.92 12.92
1/16/2021 1:30:00 AM 2.25 36.05 0.359 7.84 5.9 12.93
1/16/2021 1:45:00 AM 2.23 36.014 0.362 7.84 6.49 12.94
1/16/2021 2:00:00 AM 2.2 35.96 0.364 7.84 10.75 12.96
1/16/2021 2:15:00 AM 2.19 35.942 0.365 7.84 6.19 12.97
1/16/2021 2:30:00 AM 2.17 35.906 0.365 7.84 6.22 12.97
1/16/2021 2:45:00 AM 2.16 35.888 0.365 7.83 8.33 12.99
1/16/2021 3:00:00 AM 2.14 35.852 0.364 7.84 6.41 13
1/16/2021 3:15:00 AM 2.13 35.834 0.363 7.84 7 13
1/16/2021 3:30:00 AM 2.11 35.798 0.361 7.84 5.96 13.02
1/16/2021 3:45:00 AM 2.09 35.762 0.358 7.84 6.52 13.03
1/16/2021 4:00:00 AM 2.06 35.708 0.355 7.84 6.66 13.04
1/16/2021 4:15:00 AM 2.04 35.672 0.351 7.84 6.58 13.05
1/16/2021 4:30:00 AM 2.01 35.618 0.347 7.84 6.34 13.07
1/16/2021 4:45:00 AM 1.99 35.582 0.344 7.84 8.44 13.08
1/16/2021 5:00:00 AM 1.96 35.528 0.341 7.84 8.02 13.09
1/16/2021 5:15:00 AM 1.94 35.492 0.338 7.85 7.47 13.1
1/16/2021 5:30:00 AM 1.91 35.438 0.336 7.85 8.14 13.11
1/16/2021 5:45:00 AM 1.89 35.402 0.334 7.85 7.83 13.12
1/16/2021 6:00:00 AM 1.86 35.348 0.332 7.84 8.44 13.14
1/16/2021 6:15:00 AM 1.84 35.312 0.331 7.84 8.34 13.15
1/16/2021 6:30:00 AM 1.82 35.276 0.331 7.84 8.15 13.15
1/16/2021 6:45:00 AM 1.8 35.24 0.33 7.85 8.29 13.16
1/16/2021 7:00:00 AM 1.77 35.186 0.33 7.85 10.31 13.17
1/16/2021 7:15:00 AM 1.74 35.132 0.33 7.83 9.85 13.18
1/16/2021 7:30:00 AM 1.68 35.024 0.33 7.84 8.64 13.19
1/16/2021 7:45:00 AM 1.66 34.988 0.33 7.85 8.65 13.2
1/16/2021 8:00:00 AM 1.65 34.97 0.331 7.85 9.57 13.21
1/16/2021 8:15:00 AM 1.65 34.97 0.332 7.85 8.24 13.23
1/16/2021 8:30:00 AM 1.66 34.988 0.332 7.86 8.35 13.26
1/16/2021 8:45:00 AM 1.66 34.988 0.333 7.87 8.82 13.3
1/16/2021 9:00:00 AM 1.66 34.988 0.333 7.88 9.1 13.34
1/16/2021 9:15:00 AM 1.65 34.97 0.333 7.87 9 13.38
1/16/2021 9:30:00 AM 1.67 35.006 0.334 7.9 7.91 13.44
1/16/2021 9:45:00 AM 1.69 35.042 0.335 7.92 9.15 13.48
1/16/2021 10:00:00 AM 1.71 35.078 0.337 7.93 7.77 13.53
1/16/2021 10:15:00 AM 1.74 35.132 0.341 7.94 8.08 13.55
1/16/2021 10:30:00 AM 1.78 35.204 0.344 7.94 7.63 13.58
1/16/2021 10:45:00 AM 1.82 35.276 0.347 7.96 8.01 13.59
1/16/2021 11:00:00 AM 1.88 35.384 0.35 7.96 7.18 13.61
1/16/2021 11:15:00 AM 1.94 35.492 0.351 7.99 7.77 13.63
1/16/2021 11:30:00 AM 2.01 35.618 0.351 8 7.95 13.63
1/16/2021 11:45:00 AM 2.08 35.744 0.35 8.01 7.76 13.64
1/16/2021 12:00:00 PM 2.15 35.87 0.349 8.02 7.8 13.64
1/16/2021 12:15:00 PM 2.2 35.96 0.347 8.02 7.95 13.63
1/16/2021 12:30:00 PM 2.24 36.032 0.346 8.03 7.38 13.63
1/16/2021 12:45:00 PM 2.3 36.14 0.344 8.04 7.51 13.63
1/16/2021 1:00:00 PM 2.35 36.23 0.343 8.04 7.15 13.62
1/16/2021 1:15:00 PM 2.4 36.32 0.341 8.05 7.57 13.6
1/16/2021 1:30:00 PM 2.45 36.41 0.339 8.06 7.25 13.59
1/16/2021 1:45:00 PM 2.5 36.5 0.338 8.07 8.23 13.56
1/16/2021 2:00:00 PM 2.51 36.518 0.337 8.07 6.97 13.55
1/16/2021 2:15:00 PM 2.52 36.536 0.336 8.06 6.29 13.53
1/16/2021 2:30:00 PM 2.53 36.554 0.335 8.07 7.34 13.5
1/16/2021 2:45:00 PM 2.54 36.572 0.334 8.05 6.7 13.47
1/16/2021 3:00:00 PM 2.56 36.608 0.334 8.07 7.19 13.46
1/16/2021 3:15:00 PM 2.58 36.644 0.333 8.06 6.14 13.44
1/16/2021 3:30:00 PM 2.6 36.68 0.333 8.07 7.25 13.44
1/16/2021 3:45:00 PM 2.61 36.698 0.334 8.06 6.01 13.41
1/16/2021 4:00:00 PM 2.61 36.698 0.334 8.06 6.03 13.39
1/16/2021 4:15:00 PM 2.61 36.698 0.334 8.05 6.93 13.35
1/16/2021 4:30:00 PM 2.6 36.68 0.334 8.04 6.54 13.3
1/16/2021 4:45:00 PM 2.57 36.626 0.333 8.01 6.81 13.25
1/16/2021 5:00:00 PM 2.53 36.554 0.332 8.01 6.23 13.21
1/16/2021 5:15:00 PM 2.49 36.482 0.332 7.99 6.73 13.15
1/16/2021 5:30:00 PM 2.45 36.41 0.332 7.96 5.88 13.1
1/16/2021 5:45:00 PM 2.4 36.32 0.331 7.95 6.43 13.06
1/16/2021 6:00:00 PM 2.37 36.266 0.331 7.93 5.72 13.04
1/16/2021 6:15:00 PM 2.35 36.23 0.33 7.91 6.07 13.01
1/16/2021 6:30:00 PM 2.32 36.176 0.33 7.91 6.6 13
1/16/2021 6:45:00 PM 2.29 36.122 0.329 7.9 5.97 12.99
1/16/2021 7:00:00 PM 2.26 36.068 0.329 7.87 6.07 12.98
1/16/2021 7:15:00 PM 2.22 35.996 0.328 7.88 5.42 12.99
1/16/2021 7:30:00 PM 2.19 35.942 0.329 7.88 6.55 12.99
1/16/2021 7:45:00 PM 2.16 35.888 0.329 7.86 5.85 12.98
1/16/2021 8:00:00 PM 2.12 35.816 0.328 7.86 6.39 12.99
1/16/2021 8:15:00 PM 2.06 35.708 0.329 7.85 6.6 13
1/16/2021 8:30:00 PM 2.01 35.618 0.329 7.85 5.62 13.01
1/16/2021 8:45:00 PM 1.96 35.528 0.329 7.84 5.91 13.01
1/16/2021 9:00:00 PM 1.89 35.402 0.329 7.83 5.87 13.03
1/16/2021 9:15:00 PM 1.83 35.294 0.33 7.82 6.26 13.04
1/16/2021 9:30:00 PM 1.76 35.168 0.329 7.82 6.05 13.06
1/16/2021 9:45:00 PM 1.72 35.096 0.329 7.82 6.38 13.09
1/16/2021 10:00:00 PM 1.7 35.06 0.329 7.82 5.65 13.1
1/16/2021 10:15:00 PM 1.67 35.006 0.329 7.82 5.59 13.11
1/16/2021 10:30:00 PM 1.63 34.934 0.329 7.81 8.65 13.13
1/16/2021 10:45:00 PM 1.6 34.88 0.329 7.81 5.98 13.13
1/16/2021 11:00:00 PM 1.55 34.79 0.329 7.81 5.68 13.15
1/16/2021 11:15:00 PM 1.52 34.736 0.329 7.81 5.75 13.17
1/16/2021 11:30:00 PM 1.49 34.682 0.329 7.81 5.47 13.17
1/16/2021 11:45:00 PM 1.45 34.61 0.329 7.81 5.62 13.2
1/17/2021 12:00:00 AM 1.42 34.556 0.328 7.81 5.38 13.2
1/17/2021 12:15:00 AM 1.39 34.502 0.329 7.81 5.09 13.22
1/17/2021 12:30:00 AM 1.36 34.448 0.329 7.8 5.81 13.23
1/17/2021 12:45:00 AM 1.33 34.394 0.33 7.8 5.43 13.24
1/17/2021 1:00:00 AM 1.29 34.322 0.33 7.79 5.1 13.26
1/17/2021 1:15:00 AM 1.26 34.268 0.33 7.8 5.73 13.27
1/17/2021 1:30:00 AM 1.23 34.214 0.33 7.8 5.01 13.28
1/17/2021 1:45:00 AM 1.19 34.142 0.331 7.8 5.65 13.3
1/17/2021 2:00:00 AM 1.17 34.106 0.331 7.8 5.29 13.31
1/17/2021 2:15:00 AM 1.14 34.052 0.331 7.8 5.57 13.31
1/17/2021 2:30:00 AM 1.11 33.998 0.331 7.8 5.21 13.32
1/17/2021 2:45:00 AM 1.08 33.944 0.331 7.8 5.71 13.34
1/17/2021 3:00:00 AM 1.05 33.89 0.331 7.8 4.89 13.35
1/17/2021 3:15:00 AM 1.03 33.854 0.332 7.78 5.15 13.36
1/17/2021 3:30:00 AM 1.01 33.818 0.332 7.8 5.07 13.37
1/17/2021 3:45:00 AM 0.98 33.764 0.332 7.8 5.16 13.38
1/17/2021 4:00:00 AM 0.96 33.728 0.332 7.8 4.95 13.39
1/17/2021 4:15:00 AM 0.94 33.692 0.333 7.79 5.25 13.4
1/17/2021 4:30:00 AM 0.93 33.674 0.333 7.8 4.8 13.41
1/17/2021 4:45:00 AM 0.91 33.638 0.332 7.78 4.97 13.43
1/17/2021 5:00:00 AM 0.89 33.602 0.333 7.79 4.63 13.43
1/17/2021 5:15:00 AM 0.87 33.566 0.333 7.79 5.04 13.43
1/17/2021 5:30:00 AM 0.85 33.53 0.333 7.79 5.11 13.45
1/17/2021 5:45:00 AM 0.84 33.512 0.333 7.79 4.83 13.45
1/17/2021 6:00:00 AM 0.82 33.476 0.333 7.8 4.9 13.46
1/17/2021 6:15:00 AM 0.81 33.458 0.334 7.79 4.63 13.46
1/17/2021 6:30:00 AM 0.8 33.44 0.333 7.78 5.13 13.46
1/17/2021 6:45:00 AM 0.78 33.404 0.334 7.77 5.86 13.47
1/17/2021 7:00:00 AM 0.77 33.386 0.334 7.79 4.8 13.48
1/17/2021 7:15:00 AM 0.75 33.35 0.333 7.77 4.71 13.49
1/17/2021 7:30:00 AM 0.74 33.332 0.334 7.79 4.49 13.5
1/17/2021 7:45:00 AM 0.73 33.314 0.334 7.79 4.66 13.5
1/17/2021 8:00:00 AM 0.73 33.314 0.334 7.78 4.54 13.51
1/17/2021 8:15:00 AM 0.72 33.296 0.333 7.8 4.71 13.55
1/17/2021 8:30:00 AM 0.73 33.314 0.334 7.79 4.76 13.56
1/17/2021 8:45:00 AM 0.74 33.332 0.334 7.81 4.59 13.62
1/17/2021 9:00:00 AM 0.75 33.35 0.334 7.81 4.74 13.68
1/17/2021 9:15:00 AM 0.76 33.368 0.333 7.83 4.3 13.72
1/17/2021 9:30:00 AM 0.79 33.422 0.333 7.82 4.73 13.76
1/17/2021 9:45:00 AM 0.81 33.458 0.333 7.84 4.58 13.8
1/17/2021 10:00:00 AM 0.86 33.548 0.333 7.86 4.41 13.84
1/17/2021 10:15:00 AM 0.93 33.674 0.333 7.87 4.73 13.88
1/17/2021 10:30:00 AM 0.97 33.746 0.333 7.87 4.25 13.92
1/17/2021 10:45:00 AM 1.02 33.836 0.332 7.91 4.12 13.95
1/17/2021 11:00:00 AM 1.12 34.016 0.332 7.91 4.47 13.97
1/17/2021 11:15:00 AM 1.3 34.34 0.332 7.94 4.45 13.98
1/17/2021 11:30:00 AM 1.39 34.502 0.331 7.93 4.36 13.98
1/17/2021 11:45:00 AM 1.42 34.556 0.331 7.95 4.17 13.97
1/17/2021 12:00:00 PM 1.51 34.718 0.331 7.95 3.95 13.98
1/17/2021 12:15:00 PM 1.65 34.97 0.331 7.97 4.1 13.96
1/17/2021 12:30:00 PM 1.75 35.15 0.33 7.99 4.44 13.95
1/17/2021 12:45:00 PM 1.89 35.402 0.33 7.99 4.24 13.93
1/17/2021 1:00:00 PM 2.01 35.618 0.33 8.01 3.98 13.91
1/17/2021 1:15:00 PM 2.08 35.744 0.331 8 4.2 13.88
1/17/2021 1:30:00 PM 2.09 35.762 0.33 7.99 3.75 13.85
1/17/2021 1:45:00 PM 2.12 35.816 0.33 8.01 5.12 13.83
1/17/2021 2:00:00 PM 2.13 35.834 0.33 8 3.8 13.8
1/17/2021 2:15:00 PM 2.11 35.798 0.33 8.02 4.07 13.77
1/17/2021 2:30:00 PM 2.1 35.78 0.33 8.01 4 13.73
1/17/2021 2:45:00 PM 2.09 35.762 0.33 8.01 3.88 13.72
1/17/2021 3:00:00 PM 2.07 35.726 0.33 7.99 4.1 13.69
1/17/2021 3:15:00 PM 2.05 35.69 0.33 8 3.59 13.65
1/17/2021 3:30:00 PM 2.04 35.672 0.33 7.99 3.78 13.6
1/17/2021 3:45:00 PM 2.04 35.672 0.33 7.99 3.95 13.54
1/17/2021 4:00:00 PM 2.04 35.672 0.33 7.96 3.88 13.49
1/17/2021 4:15:00 PM 2.04 35.672 0.33 7.96 3.64 13.45
1/17/2021 4:30:00 PM 2.05 35.69 0.33 7.94 4.13 13.39
1/17/2021 4:45:00 PM 2.04 35.672 0.331 7.93 3.85 13.36
1/17/2021 5:00:00 PM 2.04 35.672 0.331 7.92 3.96 13.31
1/17/2021 5:15:00 PM 2.03 35.654 0.33 7.91 3.76 13.28
1/17/2021 5:30:00 PM 2.02 35.636 0.33 7.9 3.96 13.24
1/17/2021 5:45:00 PM 2.01 35.618 0.331 7.88 4.04 13.21
1/17/2021 6:00:00 PM 2 35.6 0.331 7.87 3.96 13.18
1/17/2021 6:15:00 PM 1.99 35.582 0.331 7.86 3.65 13.16
1/17/2021 6:30:00 PM 1.97 35.546 0.331 7.85 3.88 13.14
1/17/2021 6:45:00 PM 1.94 35.492 0.331 7.85 3.73 13.14
1/17/2021 7:00:00 PM 1.91 35.438 0.331 7.83 4.77 13.11
1/17/2021 7:15:00 PM 1.88 35.384 0.331 7.84 3.83 13.13
1/17/2021 7:30:00 PM 1.87 35.366 0.332 7.82 3.78 13.11
1/17/2021 7:45:00 PM 1.85 35.33 0.332 7.82 4.23 13.11
1/17/2021 8:00:00 PM 1.83 35.294 0.332 7.81 4.27 13.11
1/17/2021 8:15:00 PM 1.81 35.258 0.332 7.82 4.07 13.13
1/17/2021 8:30:00 PM 1.8 35.24 0.332 7.81 4.19 13.12
1/17/2021 8:45:00 PM 1.78 35.204 0.332 7.81 4.13 13.12
1/17/2021 9:00:00 PM 1.76 35.168 0.333 7.8 4.06 13.12
1/17/2021 9:15:00 PM 1.74 35.132 0.332 7.8 3.76 13.13
1/17/2021 9:30:00 PM 1.73 35.114 0.332 7.8 4.07 13.14
1/17/2021 9:45:00 PM 1.72 35.096 0.333 7.79 4.25 13.12
1/17/2021 10:00:00 PM 1.7 35.06 0.332 7.79 4.5 13.13
1/17/2021 10:15:00 PM 1.68 35.024 0.332 7.79 3.72 13.14
1/17/2021 10:30:00 PM 1.65 34.97 0.332 7.79 3.87 13.16
1/17/2021 10:45:00 PM 1.63 34.934 0.332 7.79 3.84 13.15
1/17/2021 11:00:00 PM 1.62 34.916 0.332 7.79 4.36 13.17
1/17/2021 11:15:00 PM 1.61 34.898 0.331 7.78 3.65 13.16
1/17/2021 11:30:00 PM 1.58 34.844 0.331 7.79 4 13.18
1/17/2021 11:45:00 PM 1.57 34.826 0.332 7.78 3.71 13.18
1/18/2021 12:00:00 AM 1.55 34.79 0.331 7.79 4.49 13.19
1/18/2021 12:15:00 AM 1.53 34.754 0.331 7.79 3.99 13.2
1/18/2021 12:30:00 AM 1.51 34.718 0.332 7.78 3.64 13.2
1/18/2021 12:45:00 AM 1.49 34.682 0.332 7.78 3.63 13.21
1/18/2021 1:00:00 AM 1.46 34.628 0.332 7.78 3.96 13.22
1/18/2021 1:15:00 AM 1.42 34.556 0.332 7.78 3.83 13.24
1/18/2021 1:30:00 AM 1.39 34.502 0.332 7.77 3.57 13.24
1/18/2021 1:45:00 AM 1.35 34.43 0.332 7.78 3.59 13.25
1/18/2021 2:00:00 AM 1.33 34.394 0.332 7.78 3.56 13.25
1/18/2021 2:15:00 AM 1.31 34.358 0.332 7.78 3.67 13.27
1/18/2021 2:30:00 AM 1.28 34.304 0.332 7.78 4.29 13.28
1/18/2021 2:45:00 AM 1.24 34.232 0.333 7.76 3.79 13.29
1/18/2021 3:00:00 AM 1.18 34.124 0.332 7.78 3.52 13.31
1/18/2021 3:15:00 AM 1.15 34.07 0.333 7.77 3.76 13.31
1/18/2021 3:30:00 AM 1.09 33.962 0.333 7.78 3.53 13.34
1/18/2021 3:45:00 AM 1.05 33.89 0.333 7.75 3.55 13.35
1/18/2021 4:00:00 AM 1 33.8 0.333 7.77 3.68 13.36
1/18/2021 4:15:00 AM 0.95 33.71 0.333 7.77 3.5 13.38
1/18/2021 4:30:00 AM 0.92 33.656 0.332 7.77 3.43 13.4
1/18/2021 4:45:00 AM 0.9 33.62 0.333 7.74 3.62 13.4
1/18/2021 5:00:00 AM 0.88 33.584 0.333 7.77 3.53 13.42
1/18/2021 5:15:00 AM 0.85 33.53 0.333 7.77 3.44 13.44
1/18/2021 5:30:00 AM 0.83 33.494 0.333 7.77 4.02 13.44
1/18/2021 5:45:00 AM 0.81 33.458 0.333 7.77 3.49 13.45
1/18/2021 6:00:00 AM 0.79 33.422 0.333 7.77 3.86 13.47
1/18/2021 6:15:00 AM 0.79 33.422 0.334 7.76 3.91 13.47
1/18/2021 6:30:00 AM 0.76 33.368 0.333 7.76 3.45 13.49
1/18/2021 6:45:00 AM 0.75 33.35 0.333 7.77 3.53 13.5
1/18/2021 7:00:00 AM 0.73 33.314 0.333 7.77 3.67 13.51
1/18/2021 7:15:00 AM 0.7 33.26 0.333 7.77 3.45 13.52
1/18/2021 7:30:00 AM 0.67 33.206 0.333 7.77 3.51 13.54
1/18/2021 7:45:00 AM 0.66 33.188 0.334 7.76 3.48 13.54
1/18/2021 8:00:00 AM 0.64 33.152 0.335 7.76 3.37 13.56
1/18/2021 8:15:00 AM 0.61 33.098 0.334 7.77 3.37 13.62
1/18/2021 8:30:00 AM 0.6 33.08 0.334 7.78 3.64 13.68
1/18/2021 8:45:00 AM 0.58 33.044 0.334 7.79 3.53 13.76
1/18/2021 9:00:00 AM 0.59 33.062 0.334 7.81 3.54 13.84
1/18/2021 9:15:00 AM 0.63 33.134 0.334 7.83 3.41 13.93
1/18/2021 9:30:00 AM 0.68 33.224 0.334 7.85 3.38 13.99
1/18/2021 9:45:00 AM 0.74 33.332 0.334 7.87 3.38 14.06
1/18/2021 10:00:00 AM 0.78 33.404 0.334 7.89 3.46 14.1
1/18/2021 10:15:00 AM 0.82 33.476 0.334 7.9 3.32 14.12
1/18/2021 10:30:00 AM 0.85 33.53 0.334 7.91 3.42 14.13
1/18/2021 10:45:00 AM 0.88 33.584 0.333 7.92 3.35 14.14
1/18/2021 11:00:00 AM 0.89 33.602 0.333 7.92 3.28 14.14
1/18/2021 11:15:00 AM 0.92 33.656 0.333 7.94 3.36 14.15
1/18/2021 11:30:00 AM 1 33.8 0.333 7.95 3.27 14.16
1/18/2021 11:45:00 AM 1.1 33.98 0.333 7.97 3.33 14.18
1/18/2021 12:00:00 PM 1.21 34.178 0.333 7.98 3.45 14.19
1/18/2021 12:15:00 PM 1.3 34.34 0.333 7.99 3.21 14.18
1/18/2021 12:30:00 PM 1.36 34.448 0.333 8 3.19 14.18
1/18/2021 12:45:00 PM 1.43 34.574 0.333 8.01 3.25 14.18
1/18/2021 1:00:00 PM 1.49 34.682 0.333 8.03 3.14 14.16
1/18/2021 1:15:00 PM 1.54 34.772 0.333 8.02 3.15 14.15
1/18/2021 1:30:00 PM 1.6 34.88 0.332 8.04 3.16 14.13
1/18/2021 1:45:00 PM 1.66 34.988 0.332 8.05 3.07 14.11
1/18/2021 2:00:00 PM 1.69 35.042 0.332 8.05 3.15 14.07
1/18/2021 2:15:00 PM 1.68 35.024 0.332 8.04 3.15 14.02
1/18/2021 2:30:00 PM 1.68 35.024 0.332 8.05 3.2 14
1/18/2021 2:45:00 PM 1.7 35.06 0.331 8.04 3.17 13.98
1/18/2021 3:00:00 PM 1.73 35.114 0.332 8.05 3.19 13.97
1/18/2021 3:15:00 PM 1.78 35.204 0.332 8.05 3.22 13.96
1/18/2021 3:30:00 PM 1.81 35.258 0.332 8.05 3.43 13.95
1/18/2021 3:45:00 PM 1.81 35.258 0.332 8.05 3.27 13.9
1/18/2021 4:00:00 PM 1.79 35.222 0.332 8.04 3.2 13.84
1/18/2021 4:15:00 PM 1.79 35.222 0.332 8.01 3.32 13.79
1/18/2021 4:30:00 PM 1.78 35.204 0.333 8.01 3.11 13.73
1/18/2021 4:45:00 PM 1.75 35.15 0.333 7.99 3.15 13.64
1/18/2021 5:00:00 PM 1.73 35.114 0.333 7.97 3.39 13.58
1/18/2021 5:15:00 PM 1.73 35.114 0.334 7.95 3.27 13.51
1/18/2021 5:30:00 PM 1.73 35.114 0.334 7.94 3.28 13.46
1/18/2021 5:45:00 PM 1.71 35.078 0.334 7.92 3.21 13.41
1/18/2021 6:00:00 PM 1.69 35.042 0.334 7.9 3.22 13.37
1/18/2021 6:15:00 PM 1.69 35.042 0.335 7.89 3.43 13.35
1/18/2021 6:30:00 PM 1.69 35.042 0.335 7.88 3.29 13.32
1/18/2021 6:45:00 PM 1.69 35.042 0.334 7.87 3.29 13.3
1/18/2021 7:00:00 PM 1.68 35.024 0.335 7.86 3.26 13.27
1/18/2021 7:15:00 PM 1.67 35.006 0.334 7.84 3.33 13.28
1/18/2021 7:30:00 PM 1.66 34.988 0.335 7.84 3.18 13.26
1/18/2021 7:45:00 PM 1.64 34.952 0.335 7.84 3.28 13.28
1/18/2021 8:00:00 PM 1.62 34.916 0.335 7.83 3.35 13.26
1/18/2021 8:15:00 PM 1.6 34.88 0.335 7.82 3.35 13.26
1/18/2021 8:30:00 PM 1.57 34.826 0.335 7.82 3.43 13.28
1/18/2021 8:45:00 PM 1.56 34.808 0.335 7.82 3.25 13.28
1/18/2021 9:00:00 PM 1.53 34.754 0.336 7.81 3.49 13.28
1/18/2021 9:15:00 PM 1.51 34.718 0.335 7.81 3.28 13.29
1/18/2021 9:30:00 PM 1.49 34.682 0.336 7.8 3.23 13.29
1/18/2021 9:45:00 PM 1.47 34.646 0.336 7.8 3.3 13.3
1/18/2021 10:00:00 PM 1.44 34.592 0.336 7.8 3.35 13.31
1/18/2021 10:15:00 PM 1.42 34.556 0.336 7.79 3.2 13.32
1/18/2021 10:30:00 PM 1.4 34.52 0.336 7.79 3.2 13.32
1/18/2021 10:45:00 PM 1.37 34.466 0.337 7.78 3.3 13.33
1/18/2021 11:00:00 PM 1.35 34.43 0.337 7.78 3.23 13.35
1/18/2021 11:15:00 PM 1.33 34.394 0.336 7.79 3.41 13.36
1/18/2021 11:30:00 PM 1.31 34.358 0.337 7.78 3.39 13.36
1/18/2021 11:45:00 PM 1.28 34.304 0.336 7.78 3.28 13.37
1/19/2021 12:00:00 AM 1.26 34.268 0.337 7.78 3.58 13.39
1/19/2021 12:15:00 AM 1.24 34.232 0.337 7.78 3.43 13.4
1/19/2021 12:30:00 AM 1.21 34.178 0.337 7.78 3.41 13.41
1/19/2021 12:45:00 AM 1.19 34.142 0.337 7.78 3.16 13.42
1/19/2021 1:00:00 AM 1.16 34.088 0.337 7.78 3.28 13.44
1/19/2021 1:15:00 AM 1.14 34.052 0.337 7.76 3.26 13.43
1/19/2021 1:30:00 AM 1.12 34.016 0.338 7.78 3.16 13.45
1/19/2021 1:45:00 AM 1.11 33.998 0.338 7.77 3.11 13.45
1/19/2021 2:00:00 AM 1.09 33.962 0.338 7.77 3.04 13.46
1/19/2021 2:15:00 AM 1.06 33.908 0.337 7.78 3.35 13.47
1/19/2021 2:30:00 AM 1.04 33.872 0.337 7.77 3.41 13.48
1/19/2021 2:45:00 AM 1.03 33.854 0.338 7.76 3.3 13.48
1/19/2021 3:00:00 AM 0.99 33.782 0.338 7.76 3.39 13.49
1/19/2021 3:15:00 AM 0.95 33.71 0.338 7.77 3.39 13.51
1/19/2021 3:30:00 AM 0.92 33.656 0.337 7.77 3.14 13.53
1/19/2021 3:45:00 AM 0.88 33.584 0.338 7.75 3.29 13.53
1/19/2021 4:00:00 AM 0.84 33.512 0.339 7.76 3.22 13.54
1/19/2021 4:15:00 AM 0.81 33.458 0.339 7.76 3.25 13.55
1/19/2021 4:30:00 AM 0.76 33.368 0.339 7.76 3.17 13.58
1/19/2021 4:45:00 AM 0.72 33.296 0.34 7.76 3.25 13.59
1/19/2021 5:00:00 AM 0.68 33.224 0.34 7.77 3.18 13.61
1/19/2021 5:15:00 AM 0.67 33.206 0.341 7.75 3.11 13.62
1/19/2021 5:30:00 AM 0.65 33.17 0.341 7.77 3.21 13.62
1/19/2021 5:45:00 AM 0.62 33.116 0.341 7.77 3.15 13.64
1/19/2021 6:00:00 AM 0.6 33.08 0.342 7.78 3.39 13.66
1/19/2021 6:15:00 AM 0.59 33.062 0.342 7.77 3.29 13.66
1/19/2021 6:30:00 AM 0.57 33.026 0.343 7.76 3.13 13.67
1/19/2021 6:45:00 AM 0.56 33.008 0.344 7.76 3.18 13.67
1/19/2021 7:00:00 AM 0.53 32.954 0.344 7.76 3.12 13.69
1/19/2021 7:15:00 AM 0.5 32.9 0.344 7.77 3.25 13.7
1/19/2021 7:30:00 AM 0.49 32.882 0.345 7.76 3.16 13.7
1/19/2021 7:45:00 AM 0.45 32.81 0.345 7.77 3.2 13.73
1/19/2021 8:00:00 AM 0.42 32.756 0.345 7.77 3.15 13.75
1/19/2021 8:15:00 AM 0.41 32.738 0.344 7.78 3.18 13.81
1/19/2021 8:30:00 AM 0.4 32.72 0.345 7.79 3.08 13.87
1/19/2021 8:45:00 AM 0.41 32.738 0.345 7.8 3.04 13.94
1/19/2021 9:00:00 AM 0.42 32.756 0.345 7.82 3.13 14.03
1/19/2021 9:15:00 AM 0.44 32.792 0.344 7.84 2.99 14.11
1/19/2021 9:30:00 AM 0.47 32.846 0.344 7.85 2.99 14.18
1/19/2021 9:45:00 AM 0.51 32.918 0.344 7.86 3.07 14.26
1/19/2021 10:00:00 AM 0.57 33.026 0.343 7.89 3.09 14.31
1/19/2021 10:15:00 AM 0.64 33.152 0.343 7.9 3.08 14.37
1/19/2021 10:30:00 AM 0.71 33.278 0.343 7.93 3.04 14.41
1/19/2021 10:45:00 AM 0.8 33.44 0.343 7.95 2.91 14.45
1/19/2021 11:00:00 AM 0.9 33.62 0.343 7.96 2.96 14.46
1/19/2021 11:15:00 AM 1.01 33.818 0.342 7.98 2.94 14.47
1/19/2021 11:30:00 AM 1.07 33.926 0.342 7.98 2.93 14.46
1/19/2021 11:45:00 AM 1.11 33.998 0.342 7.99 3.01 14.45
1/19/2021 12:00:00 PM 1.16 34.088 0.342 8 3.41 14.44
1/19/2021 12:15:00 PM 1.22 34.196 0.342 7.99 2.89 14.42
1/19/2021 12:30:00 PM 1.34 34.412 0.341 8.01 3.08 14.42
1/19/2021 12:45:00 PM 1.5 34.7 0.341 8.04 2.95 14.4
1/19/2021 1:00:00 PM 1.59 34.862 0.341 8.03 2.97 14.37
1/19/2021 1:15:00 PM 1.61 34.898 0.341 8.04 2.93 14.34
1/19/2021 1:30:00 PM 1.61 34.898 0.341 8.05 3.06 14.33
1/19/2021 1:45:00 PM 1.66 34.988 0.341 8.06 2.88 14.33
1/19/2021 2:00:00 PM 1.68 35.024 0.341 8.06 2.86 14.3
1/19/2021 2:15:00 PM 1.71 35.078 0.341 8.07 2.88 14.27
1/19/2021 2:30:00 PM 1.75 35.15 0.342 8.08 2.87 14.27
1/19/2021 2:45:00 PM 1.79 35.222 0.341 8.09 3.04 14.24
1/19/2021 3:00:00 PM 1.8 35.24 0.342 8.1 3.08 14.23
1/19/2021 3:15:00 PM 1.81 35.258 0.342 8.08 2.94 14.22
1/19/2021 3:30:00 PM 1.82 35.276 0.342 8.1 3 14.2
1/19/2021 3:45:00 PM 1.81 35.258 0.342 8.1 2.98 14.18
1/19/2021 4:00:00 PM 1.78 35.204 0.343 8.09 3.31 14.15
1/19/2021 4:15:00 PM 1.76 35.168 0.343 8.1 2.98 14.12
1/19/2021 4:30:00 PM 1.74 35.132 0.343 8.09 2.99 14.07
1/19/2021 4:45:00 PM 1.72 35.096 0.343 8.06 3.16 14
1/19/2021 5:00:00 PM 1.7 35.06 0.344 8.05 3.18 13.92
1/19/2021 5:15:00 PM 1.67 35.006 0.345 8.03 3.38 13.83
1/19/2021 5:30:00 PM 1.63 34.934 0.345 7.98 3.26 13.75
1/19/2021 5:45:00 PM 1.6 34.88 0.345 7.98 3.19 13.68
1/19/2021 6:00:00 PM 1.55 34.79 0.345 7.95 3.34 13.62
1/19/2021 6:15:00 PM 1.51 34.718 0.346 7.92 3.25 13.58
1/19/2021 6:30:00 PM 1.48 34.664 0.346 7.92 3.34 13.54
1/19/2021 6:45:00 PM 1.46 34.628 0.346 7.9 3.37 13.51
1/19/2021 7:00:00 PM 1.44 34.592 0.346 7.89 3.24 13.49
1/19/2021 7:15:00 PM 1.42 34.556 0.345 7.88 3.25 13.47
1/19/2021 7:30:00 PM 1.4 34.52 0.345 7.87 3.04 13.46
1/19/2021 7:45:00 PM 1.39 34.502 0.345 7.86 3.03 13.45
1/19/2021 8:00:00 PM 1.38 34.484 0.345 7.85 3.11 13.44
1/19/2021 8:15:00 PM 1.36 34.448 0.345 7.85 3.24 13.44
1/19/2021 8:30:00 PM 1.34 34.412 0.345 7.84 3.28 13.44
1/19/2021 8:45:00 PM 1.3 34.34 0.345 7.83 3.21 13.44
1/19/2021 9:00:00 PM 1.27 34.286 0.346 7.82 3.24 13.43
1/19/2021 9:15:00 PM 1.23 34.214 0.346 7.82 3.58 13.44
1/19/2021 9:30:00 PM 1.2 34.16 0.346 7.81 3.5 13.44
1/19/2021 9:45:00 PM 1.17 34.106 0.346 7.81 3.77 13.44
1/19/2021 10:00:00 PM 1.13 34.034 0.347 7.8 3.32 13.44
1/19/2021 10:15:00 PM 1.09 33.962 0.346 7.8 3.74 13.47
1/19/2021 10:30:00 PM 1.06 33.908 0.347 7.8 3.53 13.47
1/19/2021 10:45:00 PM 1.02 33.836 0.347 7.77 3.79 13.49
1/19/2021 11:00:00 PM 0.99 33.782 0.347 7.79 3.45 13.48
1/19/2021 11:15:00 PM 0.96 33.728 0.348 7.78 3.19 13.5
1/19/2021 11:30:00 PM 0.91 33.638 0.348 7.79 3.15 13.51
1/19/2021 11:45:00 PM 0.89 33.602 0.348 7.78 3.22 13.51
1/20/2021 12:00:00 AM 0.86 33.548 0.348 7.78 3.2 13.52
1/20/2021 12:15:00 AM 0.83 33.494 0.348 7.78 3.13 13.54
1/20/2021 12:30:00 AM 0.79 33.422 0.348 7.78 2.99 13.56
1/20/2021 12:45:00 AM 0.75 33.35 0.347 7.76 3.06 13.56
1/20/2021 1:00:00 AM 0.73 33.314 0.347 7.78 3.33 13.57
1/20/2021 1:15:00 AM 0.69 33.242 0.347 7.78 3.08 13.59
1/20/2021 1:30:00 AM 0.65 33.17 0.347 7.78 2.99 13.6
1/20/2021 1:45:00 AM 0.61 33.098 0.346 7.76 3.07 13.6
1/20/2021 2:00:00 AM 0.59 33.062 0.347 7.78 3.07 13.62
1/20/2021 2:15:00 AM 0.57 33.026 0.347 7.76 3.09 13.63
1/20/2021 2:30:00 AM 0.55 32.99 0.347 7.77 2.98 13.64
1/20/2021 2:45:00 AM 0.52 32.936 0.346 7.77 3.01 13.66
1/20/2021 3:00:00 AM 0.49 32.882 0.347 7.77 3.2 13.66
1/20/2021 3:15:00 AM 0.45 32.81 0.347 7.77 3.07 13.67
1/20/2021 3:30:00 AM 0.43 32.774 0.347 7.77 3.01 13.68
1/20/2021 3:45:00 AM 0.42 32.756 0.348 7.76 2.89 13.67
1/20/2021 4:00:00 AM 0.38 32.684 0.347 7.77 2.89 13.7
1/20/2021 4:15:00 AM 0.36 32.648 0.347 7.77 2.9 13.7
1/20/2021 4:30:00 AM 0.34 32.612 0.347 7.77 2.95 13.71
1/20/2021 4:45:00 AM 0.32 32.576 0.346 7.77 2.84 13.72
1/20/2021 5:00:00 AM 0.31 32.558 0.347 7.74 2.87 13.72
1/20/2021 5:15:00 AM 0.28 32.504 0.347 7.77 2.88 13.74
1/20/2021 5:30:00 AM 0.22 32.396 0.346 7.77 3.04 13.74
1/20/2021 5:45:00 AM 0.15 32.27 0.347 7.76 3.46 13.74
1/20/2021 6:00:00 AM 0.12 32.216 0.348 7.76 2.99 13.73
1/20/2021 6:15:00 AM 0.11 32.198 0.347 7.77 3.2 13.76
1/20/2021 6:30:00 AM 0.1 32.18 0.348 7.74 3.04 13.77
1/20/2021 6:45:00 AM 0.09 32.162 0.349 7.76 3.05 13.78
1/20/2021 7:00:00 AM 0.07 32.126 0.348 7.76 3.05 13.79
1/20/2021 7:15:00 AM 0.04 32.072 0.349 7.76 2.92 13.81
1/20/2021 7:30:00 AM 0.02 32.036 0.349 7.76 2.91 13.83
1/20/2021 7:45:00 AM 0.02 32.036 0.349 7.76 2.81 13.84
1/20/2021 8:00:00 AM 0.01 32.018 0.35 7.76 2.89 13.87
1/20/2021 8:15:00 AM -0.01 31.982 0.35 7.77 2.93 13.9
1/20/2021 8:30:00 AM 0 32 0.35 7.77 2.93 13.96
1/20/2021 8:45:00 AM 0.01 32.018 0.351 7.78 2.9 14.04
1/20/2021 9:00:00 AM 0.02 32.036 0.35 7.8 2.88 14.13
1/20/2021 9:15:00 AM 0.03 32.054 0.351 7.8 2.99 14.21
1/20/2021 9:30:00 AM 0.04 32.072 0.351 7.82 2.97 14.29
1/20/2021 9:45:00 AM 0.07 32.126 0.352 7.84 3.08 14.38
1/20/2021 10:00:00 AM 0.1 32.18 0.352 7.84 2.95 14.46
1/20/2021 10:15:00 AM 0.15 32.27 0.352 7.88 3.06 14.53
1/20/2021 10:30:00 AM 0.18 32.324 0.351 7.91 3.02 14.58
1/20/2021 10:45:00 AM 0.29 32.522 0.352 7.92 2.97 14.61
1/20/2021 11:00:00 AM 0.45 32.81 0.352 7.94 3.1 14.65
1/20/2021 11:15:00 AM 0.53 32.954 0.351 7.96 2.96 14.67
1/20/2021 11:30:00 AM 0.5 32.9 0.351 7.95 3.02 14.66
1/20/2021 11:45:00 AM 0.49 32.882 0.351 7.95 2.96 14.67
1/20/2021 12:00:00 PM 0.54 32.972 0.35 7.97 2.99 14.68
1/20/2021 12:15:00 PM 0.58 33.044 0.35 7.98 2.85 14.68
1/20/2021 12:30:00 PM 0.56 33.008 0.349 7.98 2.84 14.69
1/20/2021 12:45:00 PM 0.56 33.008 0.35 7.98 2.94 14.7
1/20/2021 1:00:00 PM 0.56 33.008 0.349 8 3.03 14.71
1/20/2021 1:15:00 PM 0.58 33.044 0.349 8.01 2.97 14.71
1/20/2021 1:30:00 PM 0.6 33.08 0.349 8.03 2.9 14.71
1/20/2021 1:45:00 PM 0.64 33.152 0.349 8.02 3.24 14.72
1/20/2021 2:00:00 PM 0.65 33.17 0.349 8.04 2.79 14.71
1/20/2021 2:15:00 PM 0.68 33.224 0.349 8.04 2.81 14.72
1/20/2021 2:30:00 PM 0.73 33.314 0.349 8.06 2.87 14.72
1/20/2021 2:45:00 PM 0.79 33.422 0.348 8.08 2.84 14.71
1/20/2021 3:00:00 PM 0.82 33.476 0.348 8.08 2.82 14.69
1/20/2021 3:15:00 PM 0.83 33.494 0.348 8.08 2.93 14.68
1/20/2021 3:30:00 PM 0.84 33.512 0.348 8.08 2.87 14.66
1/20/2021 3:45:00 PM 0.83 33.494 0.347 8.09 3.01 14.63
1/20/2021 4:00:00 PM 0.77 33.386 0.348 8.08 2.97 14.6
1/20/2021 4:15:00 PM 0.71 33.278 0.349 8.07 3.15 14.56
1/20/2021 4:30:00 PM 0.64 33.152 0.35 8.06 3.08 14.53
1/20/2021 4:45:00 PM 0.58 33.044 0.35 8.04 3.33 14.47
1/20/2021 5:00:00 PM 0.53 32.954 0.351 8.03 3.1 14.42
1/20/2021 5:15:00 PM 0.49 32.882 0.352 8.01 3.13 14.36
1/20/2021 5:30:00 PM 0.42 32.756 0.351 7.99 3.11 14.29
1/20/2021 5:45:00 PM 0.36 32.648 0.352 7.97 3.14 14.23
1/20/2021 6:00:00 PM 0.32 32.576 0.352 7.94 3.2 14.18
1/20/2021 6:15:00 PM 0.27 32.486 0.352 7.93 3.17 14.12
1/20/2021 6:30:00 PM 0.24 32.432 0.352 7.92 3.02 14.08
1/20/2021 6:45:00 PM 0.23 32.414 0.353 7.9 2.92 14.04
1/20/2021 7:00:00 PM 0.21 32.378 0.352 7.89 2.89 14.01
1/20/2021 7:15:00 PM 0.21 32.378 0.352 7.88 3.24 13.99
1/20/2021 7:30:00 PM 0.2 32.36 0.353 7.85 3.13 13.96
1/20/2021 7:45:00 PM 0.18 32.324 0.353 7.86 2.97 13.94
1/20/2021 8:00:00 PM 0.17 32.306 0.353 7.84 3.13 13.93
1/20/2021 8:15:00 PM 0.15 32.27 0.353 7.84 3.09 13.92
1/20/2021 8:30:00 PM 0.12 32.216 0.353 7.83 2.9 13.91
1/20/2021 8:45:00 PM 0.09 32.162 0.352 7.82 2.96 13.92
1/20/2021 9:00:00 PM 0.07 32.126 0.351 7.82 3.05 13.91
1/20/2021 9:15:00 PM 0.04 32.072 0.351 7.81 2.87 13.93
1/20/2021 9:30:00 PM 0.01 32.018 0.35 7.8 3.04 13.92
1/20/2021 9:45:00 PM -0.02 31.964 0.351 7.8 2.99 13.92
1/20/2021 10:00:00 PM -0.02 31.964 0.351 7.79 3.05 13.93
1/20/2021 10:15:00 PM -0.02 31.964 0.351 7.79 3.47 13.95
1/20/2021 10:30:00 PM -0.02 31.964 0.351 7.78 3.17 13.96
1/20/2021 10:45:00 PM -0.02 31.964 0.352 7.78 3.36 13.98
1/20/2021 11:00:00 PM -0.02 31.964 0.352 7.79 3.47 14
1/20/2021 11:15:00 PM -0.02 31.964 0.353 7.78 3.16 14
1/20/2021 11:30:00 PM -0.02 31.964 0.354 7.77 3.53 13.99
1/20/2021 11:45:00 PM -0.01 31.982 0.355 7.76 3.47 13.98
1/21/2021 12:00:00 AM 0 32 0.356 7.73 3.06 13.96
1/21/2021 12:15:00 AM 0 32 0.356 7.75 3.12 13.95
1/21/2021 12:30:00 AM 0 32 0.357 7.73 3.08 13.93
1/21/2021 12:45:00 AM 0.01 32.018 0.358 7.74 3.19 13.92
1/21/2021 1:00:00 AM 0 32 0.357 7.74 2.97 13.91
1/21/2021 1:15:00 AM 0.01 32.018 0.358 7.73 2.88 13.9
1/21/2021 1:30:00 AM 0 32 0.359 7.73 3.01 13.89
1/21/2021 1:45:00 AM 0 32 0.359 7.72 2.91 13.88
1/21/2021 2:00:00 AM 0.01 32.018 0.359 7.72 2.96 13.89
1/21/2021 2:15:00 AM 0.01 32.018 0.36 7.71 3.02 13.86
1/21/2021 2:30:00 AM 0.01 32.018 0.36 7.71 3.12 13.86
1/21/2021 2:45:00 AM 0.01 32.018 0.362 7.69 2.88 13.84
1/21/2021 3:00:00 AM 0.01 32.018 0.362 7.69 2.79 13.82
1/21/2021 3:15:00 AM 0.01 32.018 0.362 7.7 2.74 13.82
1/21/2021 3:30:00 AM 0.01 32.018 0.363 7.69 2.76 13.8
1/21/2021 3:45:00 AM 0.02 32.036 0.364 7.69 2.95 13.79
1/21/2021 4:00:00 AM 0.02 32.036 0.365 7.68 3.2 13.79
1/21/2021 4:15:00 AM 0.02 32.036 0.365 7.68 3.43 13.76
1/21/2021 4:30:00 AM 0.02 32.036 0.366 7.68 3.18 13.75
1/21/2021 4:45:00 AM 0.03 32.054 0.366 7.67 3.08 13.74
1/21/2021 5:00:00 AM 0.03 32.054 0.367 7.65 2.87 13.73
1/21/2021 5:15:00 AM 0.03 32.054 0.367 7.66 2.79 13.71
1/21/2021 5:30:00 AM 0.03 32.054 0.366 7.67 2.77 13.69
1/21/2021 5:45:00 AM 0.03 32.054 0.367 7.66 2.82 13.67
1/21/2021 6:00:00 AM 0.03 32.054 0.368 7.66 2.76 13.66
1/21/2021 6:15:00 AM 0.03 32.054 0.368 7.66 2.8 13.67
1/21/2021 6:30:00 AM 0.03 32.054 0.369 7.66 2.79 13.66
1/21/2021 6:45:00 AM 0.03 32.054 0.369 7.66 2.66 13.63
1/21/2021 7:00:00 AM 0.03 32.054 0.368 7.66 2.72 13.63
1/21/2021 7:15:00 AM 0.03 32.054 0.369 7.66 2.72 13.62
1/21/2021 7:30:00 AM 0.03 32.054 0.369 7.65 2.84 13.61
1/21/2021 7:45:00 AM 0.03 32.054 0.37 7.66 2.75 13.61
1/21/2021 8:00:00 AM 0.03 32.054 0.37 7.66 2.76 13.63
1/21/2021 8:15:00 AM 0.04 32.072 0.369 7.68 2.67 13.66
1/21/2021 8:30:00 AM 0.04 32.072 0.369 7.69 2.66 13.74
1/21/2021 8:45:00 AM 0.04 32.072 0.368 7.71 2.7 13.85
1/21/2021 9:00:00 AM 0.05 32.09 0.367 7.73 2.67 13.96
1/21/2021 9:15:00 AM 0.06 32.108 0.366 7.76 2.88 14.08
1/21/2021 9:30:00 AM 0.06 32.108 0.365 7.78 2.68 14.2
1/21/2021 9:45:00 AM 0.06 32.108 0.364 7.81 2.66 14.26
1/21/2021 10:00:00 AM 0.05 32.09 0.364 7.83 2.76 14.34
1/21/2021 10:15:00 AM 0.04 32.072 0.363 7.86 2.67 14.39
1/21/2021 10:30:00 AM 0.04 32.072 0.363 7.88 2.71 14.44
1/21/2021 10:45:00 AM 0.03 32.054 0.362 7.91 2.76 14.49
1/21/2021 11:00:00 AM 0.02 32.036 0.362 7.94 2.78 14.55
1/21/2021 11:15:00 AM 0.02 32.036 0.363 7.97 2.71 14.6
1/21/2021 11:30:00 AM 0.02 32.036 0.364 7.99 2.63 14.62
1/21/2021 11:45:00 AM 0.02 32.036 0.365 8.02 2.93 14.64
1/21/2021 12:00:00 PM 0.02 32.036 0.366 8.04 2.8 14.66
1/21/2021 12:15:00 PM 0.03 32.054 0.367 8.06 2.86 14.67
1/21/2021 12:30:00 PM 0.04 32.072 0.367 8.07 2.98 14.65
1/21/2021 12:45:00 PM 0.04 32.072 0.366 8.08 2.96 14.64
1/21/2021 1:00:00 PM 0.05 32.09 0.365 8.1 2.87 14.62
1/21/2021 1:15:00 PM 0.03 32.054 0.364 8.1 2.83 14.59
1/21/2021 1:30:00 PM 0.03 32.054 0.365 8.11 2.86 14.59
1/21/2021 1:45:00 PM 0.08 32.144 0.368 8.12 2.88 14.57
1/21/2021 2:00:00 PM 0.13 32.234 0.372 8.12 2.89 14.55
1/21/2021 2:15:00 PM 0.16 32.288 0.371 8.13 3.13 14.55
1/21/2021 2:30:00 PM 0.18 32.324 0.367 8.13 3.37 14.54
1/21/2021 2:45:00 PM 0.2 32.36 0.362 8.13 3.07 14.54
1/21/2021 3:00:00 PM 0.22 32.396 0.358 8.14 2.99 14.52
1/21/2021 3:15:00 PM 0.23 32.414 0.357 8.14 3.39 14.51
1/21/2021 3:30:00 PM 0.26 32.468 0.36 8.16 3.21 14.5
1/21/2021 3:45:00 PM 0.25 32.45 0.363 8.16 3.13 14.48
1/21/2021 4:00:00 PM 0.24 32.432 0.365 8.15 3.05 14.47
1/21/2021 4:15:00 PM 0.21 32.378 0.364 8.15 3.4 14.45
1/21/2021 4:30:00 PM 0.19 32.342 0.363 8.14 3.71 14.41
1/21/2021 4:45:00 PM 0.16 32.288 0.362 8.13 3.65 14.37
1/21/2021 5:00:00 PM 0.13 32.234 0.361 8.12 3.35 14.32
1/21/2021 5:15:00 PM 0.11 32.198 0.36 8.1 3.64 14.27
1/21/2021 5:30:00 PM 0.09 32.162 0.359 8.07 3.64 14.19
1/21/2021 5:45:00 PM 0.08 32.144 0.358 8.04 3.82 14.12
1/21/2021 6:00:00 PM 0.07 32.126 0.358 8.01 3.65 14.05
1/21/2021 6:15:00 PM 0.08 32.144 0.358 7.99 3.69 14.01
1/21/2021 6:30:00 PM 0.08 32.144 0.357 7.97 3.62 13.96
1/21/2021 6:45:00 PM 0.08 32.144 0.357 7.95 3.46 13.92
1/21/2021 7:00:00 PM 0.09 32.162 0.358 7.94 3.64 13.89
1/21/2021 7:15:00 PM 0.1 32.18 0.357 7.93 3.49 13.87
1/21/2021 7:30:00 PM 0.1 32.18 0.357 7.91 3.52 13.85
1/21/2021 7:45:00 PM 0.11 32.198 0.357 7.9 3.69 13.83
1/21/2021 8:00:00 PM 0.11 32.198 0.357 7.9 3.63 13.81
1/21/2021 8:15:00 PM 0.13 32.234 0.357 7.88 3.79 13.78
1/21/2021 8:30:00 PM 0.13 32.234 0.358 7.87 3.7 13.77
1/21/2021 8:45:00 PM 0.14 32.252 0.358 7.86 4.06 13.75
1/21/2021 9:00:00 PM 0.15 32.27 0.358 7.85 3.66 13.72
1/21/2021 9:15:00 PM 0.15 32.27 0.358 7.84 4.05 13.72
1/21/2021 9:30:00 PM 0.16 32.288 0.357 7.83 3.75 13.69
1/21/2021 9:45:00 PM 0.16 32.288 0.357 7.83 3.71 13.68
1/21/2021 10:00:00 PM 0.13 32.234 0.358 7.8 3.97 13.65
1/21/2021 10:15:00 PM 0.09 32.162 0.357 7.8 3.72 13.66
1/21/2021 10:30:00 PM 0.09 32.162 0.356 7.81 3.73 13.67
1/21/2021 10:45:00 PM 0.1 32.18 0.356 7.8 3.53 13.66
1/21/2021 11:00:00 PM 0.08 32.144 0.357 7.79 3.53 13.66
1/21/2021 11:15:00 PM 0.04 32.072 0.356 7.79 3.41 13.67
1/21/2021 11:30:00 PM 0.04 32.072 0.357 7.78 3.48 13.68
1/21/2021 11:45:00 PM 0.03 32.054 0.358 7.76 3.63 13.66
1/22/2021 12:00:00 AM 0.02 32.036 0.359 7.76 3.89 13.65
1/22/2021 12:15:00 AM 0 32 0.358 7.76 3.27 13.67
1/22/2021 12:30:00 AM 0 32 0.359 7.76 3.39 13.67
1/22/2021 12:45:00 AM 0 32 0.359 7.77 3.49 13.7
1/22/2021 1:00:00 AM 0 32 0.358 7.78 3.66 13.7
1/22/2021 1:15:00 AM 0 32 0.359 7.76 3.59 13.68
1/22/2021 1:30:00 AM 0 32 0.359 7.76 3.69 13.69
1/22/2021 1:45:00 AM 0 32 0.358 7.76 3.62 13.72
1/22/2021 2:00:00 AM 0 32 0.359 7.76 3.44 13.69
1/22/2021 2:15:00 AM 0.01 32.018 0.359 7.76 3.29 13.7
1/22/2021 2:30:00 AM 0.01 32.018 0.358 7.76 3.25 13.71
1/22/2021 2:45:00 AM 0.01 32.018 0.358 7.77 3.39 13.69
1/22/2021 3:00:00 AM 0.01 32.018 0.359 7.77 3.41 13.7
1/22/2021 3:15:00 AM 0.01 32.018 0.359 7.76 3.49 13.68
1/22/2021 3:30:00 AM 0.01 32.018 0.358 7.74 3.45 13.68
1/22/2021 3:45:00 AM 0.02 32.036 0.359 7.76 3.22 13.67
1/22/2021 4:00:00 AM 0.02 32.036 0.358 7.76 3.15 13.67
1/22/2021 4:15:00 AM 0.01 32.018 0.358 7.73 3.23 13.66
1/22/2021 4:30:00 AM 0.01 32.018 0.357 7.75 3.4 13.67
1/22/2021 4:45:00 AM 0.02 32.036 0.357 7.76 3.25 13.69
1/22/2021 5:00:00 AM 0.02 32.036 0.357 7.75 3.14 13.67
1/22/2021 5:15:00 AM 0.03 32.054 0.357 7.74 3.38 13.67
1/22/2021 5:30:00 AM 0.02 32.036 0.357 7.75 3.37 13.69
1/22/2021 5:45:00 AM 0.01 32.018 0.357 7.75 3.05 13.68
1/22/2021 6:00:00 AM 0.01 32.018 0.355 7.75 3.16 13.68
1/22/2021 6:15:00 AM 0.01 32.018 0.356 7.75 2.93 13.69
1/22/2021 6:30:00 AM 0 32 0.356 7.76 3.1 13.71
1/22/2021 6:45:00 AM 0.01 32.018 0.356 7.74 3.12 13.7
1/22/2021 7:00:00 AM 0.01 32.018 0.355 7.75 2.8 13.7
1/22/2021 7:15:00 AM 0.02 32.036 0.355 7.75 2.85 13.69
1/22/2021 7:30:00 AM 0.01 32.018 0.355 7.75 3.01 13.69
1/22/2021 7:45:00 AM 0 32 0.354 7.75 2.94 13.71
1/22/2021 8:00:00 AM 0.01 32.018 0.354 7.74 3.18 13.72
1/22/2021 8:15:00 AM 0.01 32.018 0.354 7.76 3.07 13.76
1/22/2021 8:30:00 AM 0.02 32.036 0.353 7.77 2.93 13.83
1/22/2021 8:45:00 AM 0.04 32.072 0.354 7.78 3.06 13.91
1/22/2021 9:00:00 AM 0.05 32.09 0.353 7.81 2.92 14.01
1/22/2021 9:15:00 AM 0.08 32.144 0.353 7.82 2.94 14.08
1/22/2021 9:30:00 AM 0.11 32.198 0.353 7.83 2.82 14.14
1/22/2021 9:45:00 AM 0.15 32.27 0.353 7.86 2.76 14.24
1/22/2021 10:00:00 AM 0.22 32.396 0.352 7.88 2.88 14.35
1/22/2021 10:15:00 AM 0.3 32.54 0.351 7.92 2.9 14.42
1/22/2021 10:30:00 AM 0.38 32.684 0.351 7.95 2.78 14.48
1/22/2021 10:45:00 AM 0.5 32.9 0.35 7.98 2.76 14.51
1/22/2021 11:00:00 AM 0.6 33.08 0.35 7.99 2.95 14.54
1/22/2021 11:15:00 AM 0.74 33.332 0.349 8.01 2.85 14.55
1/22/2021 11:30:00 AM 0.88 33.584 0.349 8.03 2.78 14.55
1/22/2021 11:45:00 AM 0.89 33.602 0.349 8.03 2.79 14.52
1/22/2021 12:00:00 PM 0.86 33.548 0.349 8.02 2.79 14.51
1/22/2021 12:15:00 PM 0.9 33.62 0.35 8.03 2.76 14.49
1/22/2021 12:30:00 PM 1.01 33.818 0.349 8.07 2.73 14.51
1/22/2021 12:45:00 PM 1.06 33.908 0.35 8.08 2.75 14.49
1/22/2021 1:00:00 PM 1.07 33.926 0.35 8.07 2.73 14.47
1/22/2021 1:15:00 PM 1.05 33.89 0.35 8.06 2.79 14.41
1/22/2021 1:30:00 PM 1.1 33.98 0.35 8.09 2.7 14.45
1/22/2021 1:45:00 PM 1.2 34.16 0.35 8.11 2.73 14.45
1/22/2021 2:00:00 PM 1.25 34.25 0.35 8.13 2.82 14.46
1/22/2021 2:15:00 PM 1.26 34.268 0.35 8.12 2.78 14.45
1/22/2021 2:30:00 PM 1.27 34.286 0.349 8.13 2.71 14.44
1/22/2021 2:45:00 PM 1.27 34.286 0.349 8.14 2.68 14.45
1/22/2021 3:00:00 PM 1.22 34.196 0.348 8.14 2.69 14.4
1/22/2021 3:15:00 PM 1.15 34.07 0.348 8.11 2.71 14.36
1/22/2021 3:30:00 PM 1.1 33.98 0.348 8.12 2.72 14.34
1/22/2021 3:45:00 PM 1.07 33.926 0.347 8.12 2.63 14.33
1/22/2021 4:00:00 PM 1.03 33.854 0.347 8.11 2.7 14.3
1/22/2021 4:15:00 PM 0.97 33.746 0.346 8.1 2.78 14.28
1/22/2021 4:30:00 PM 0.93 33.674 0.347 8.09 2.74 14.26
1/22/2021 4:45:00 PM 0.88 33.584 0.347 8.06 2.72 14.24
1/22/2021 5:00:00 PM 0.82 33.476 0.346 8.06 2.86 14.21
1/22/2021 5:15:00 PM 0.76 33.368 0.346 8.04 2.84 14.16
1/22/2021 5:30:00 PM 0.7 33.26 0.347 8.02 2.74 14.1
1/22/2021 5:45:00 PM 0.65 33.17 0.347 8 2.81 14.03
1/22/2021 6:00:00 PM 0.62 33.116 0.347 7.98 2.91 13.97
1/22/2021 6:15:00 PM 0.58 33.044 0.348 7.95 3.11 13.91
1/22/2021 6:30:00 PM 0.54 32.972 0.348 7.93 2.8 13.87
1/22/2021 6:45:00 PM 0.51 32.918 0.349 7.92 2.89 13.82
1/22/2021 7:00:00 PM 0.47 32.846 0.349 7.9 2.85 13.79
1/22/2021 7:15:00 PM 0.43 32.774 0.35 7.88 2.85 13.76
1/22/2021 7:30:00 PM 0.38 32.684 0.35 7.87 2.82 13.75
1/22/2021 7:45:00 PM 0.34 32.612 0.35 7.86 2.72 13.74
1/22/2021 8:00:00 PM 0.3 32.54 0.351 7.85 2.84 13.73
1/22/2021 8:15:00 PM 0.26 32.468 0.351 7.83 2.83 13.74
1/22/2021 8:30:00 PM 0.22 32.396 0.351 7.84 2.83 13.75
1/22/2021 8:45:00 PM 0.18 32.324 0.351 7.83 2.87 13.76
1/22/2021 9:00:00 PM 0.15 32.27 0.351 7.82 2.79 13.77
1/22/2021 9:15:00 PM 0.11 32.198 0.352 7.81 2.92 13.77
1/22/2021 9:30:00 PM 0.08 32.144 0.352 7.81 2.93 13.79
1/22/2021 9:45:00 PM 0.04 32.072 0.352 7.81 3 13.81
1/22/2021 10:00:00 PM 0.01 32.018 0.351 7.81 2.91 13.83
1/22/2021 10:15:00 PM -0.01 31.982 0.351 7.82 3.12 13.86
1/22/2021 10:30:00 PM -0.02 31.964 0.351 7.82 3.18 13.88
1/22/2021 10:45:00 PM -0.01 31.982 0.352 7.8 3.66 13.89
1/22/2021 11:00:00 PM -0.02 31.964 0.352 7.82 3.03 13.92
1/22/2021 11:15:00 PM -0.01 31.982 0.353 7.8 3.16 13.91
1/22/2021 11:30:00 PM -0.02 31.964 0.353 7.8 3.21 13.94
1/22/2021 11:45:00 PM -0.02 31.964 0.354 7.8 3.3 13.94
1/23/2021 12:00:00 AM -0.02 31.964 0.354 7.8 3.22 13.96
1/23/2021 12:15:00 AM -0.02 31.964 0.355 7.78 3.26 13.94
1/23/2021 12:30:00 AM -0.02 31.964 0.355 7.79 3.43 13.94
1/23/2021 12:45:00 AM -0.02 31.964 0.355 7.79 3.81 13.95
1/23/2021 1:00:00 AM -0.02 31.964 0.356 7.78 3.17 13.96
1/23/2021 1:15:00 AM -0.02 31.964 0.356 7.78 2.98 13.95
1/23/2021 1:30:00 AM -0.02 31.964 0.357 7.77 3.47 13.95
1/23/2021 1:45:00 AM -0.02 31.964 0.357 7.77 3.38 13.95
1/23/2021 2:00:00 AM -0.02 31.964 0.357 7.77 3.27 13.95
1/23/2021 2:15:00 AM -0.02 31.964 0.357 7.77 3.03 13.96
1/23/2021 2:30:00 AM -0.01 31.982 0.358 7.75 3.13 13.94
1/23/2021 2:45:00 AM -0.01 31.982 0.358 7.76 3.05 13.96
1/23/2021 3:00:00 AM -0.01 31.982 0.359 7.75 2.86 13.95
1/23/2021 3:15:00 AM -0.01 31.982 0.36 7.75 2.87 13.95
1/23/2021 3:30:00 AM -0.01 31.982 0.361 7.74 3.06 13.95
1/23/2021 3:45:00 AM -0.01 31.982 0.362 7.76 2.99 13.95
1/23/2021 4:00:00 AM -0.01 31.982 0.363 7.75 2.94 13.96
1/23/2021 4:15:00 AM -0.01 31.982 0.364 7.74 3.05 13.94
1/23/2021 4:30:00 AM -0.01 31.982 0.365 7.74 2.82 13.95
1/23/2021 4:45:00 AM -0.01 31.982 0.366 7.74 2.94 13.94
1/23/2021 5:00:00 AM -0.01 31.982 0.368 7.74 3.19 13.94
1/23/2021 5:15:00 AM 0 32 0.368 7.71 2.89 13.93
1/23/2021 5:30:00 AM 0 32 0.369 7.73 2.92 13.93
1/23/2021 5:45:00 AM 0 32 0.37 7.73 2.87 13.93
1/23/2021 6:00:00 AM 0 32 0.37 7.73 2.81 13.93
1/23/2021 6:15:00 AM 0 32 0.371 7.73 2.77 13.93
1/23/2021 6:30:00 AM 0 32 0.371 7.73 2.68 13.95
1/23/2021 6:45:00 AM 0 32 0.371 7.73 2.78 13.94
1/23/2021 7:00:00 AM 0 32 0.372 7.72 2.8 13.93
1/23/2021 7:15:00 AM 0 32 0.373 7.72 2.78 13.92
1/23/2021 7:30:00 AM 0 32 0.374 7.71 2.79 13.92
1/23/2021 7:45:00 AM 0.01 32.018 0.375 7.71 2.73 13.92
1/23/2021 8:00:00 AM 0.01 32.018 0.375 7.71 2.75 13.95
1/23/2021 8:15:00 AM 0.01 32.018 0.375 7.72 2.77 14.01
1/23/2021 8:30:00 AM 0.02 32.036 0.376 7.73 2.69 14.07
1/23/2021 8:45:00 AM 0.03 32.054 0.376 7.75 2.74 14.2
1/23/2021 9:00:00 AM 0.05 32.09 0.377 7.77 2.67 14.37
1/23/2021 9:15:00 AM 0.06 32.108 0.376 7.78 2.78 14.51
1/23/2021 9:30:00 AM 0.07 32.126 0.376 7.81 2.71 14.64
1/23/2021 9:45:00 AM 0.08 32.144 0.376 7.84 2.71 14.73
1/23/2021 10:00:00 AM 0.08 32.144 0.376 7.86 2.73 14.82
1/23/2021 10:15:00 AM 0.08 32.144 0.376 7.88 2.64 14.88
1/23/2021 10:30:00 AM 0.08 32.144 0.376 7.9 2.96 14.93
1/23/2021 10:45:00 AM 0.07 32.126 0.376 7.92 2.73 15
1/23/2021 11:00:00 AM 0.07 32.126 0.376 7.95 2.61 15.06
1/23/2021 11:15:00 AM 0.08 32.144 0.375 7.98 2.69 15.14
1/23/2021 11:30:00 AM 0.08 32.144 0.375 8.01 2.66 15.19
1/23/2021 11:45:00 AM 0.07 32.126 0.375 8.04 2.95 15.23
1/23/2021 12:00:00 PM 0.06 32.108 0.375 8.07 2.64 15.28
1/23/2021 12:15:00 PM 0.07 32.126 0.375 8.09 2.75 15.3
1/23/2021 12:30:00 PM 0.08 32.144 0.376 8.12 2.65 15.32
1/23/2021 12:45:00 PM 0.07 32.126 0.376 8.13 2.56 15.34
1/23/2021 1:00:00 PM 0.08 32.144 0.376 8.14 2.52 15.36
1/23/2021 1:15:00 PM 0.05 32.09 0.376 8.17 2.68 15.34
1/23/2021 1:30:00 PM 0.04 32.072 0.377 8.19 2.75 15.35
1/23/2021 1:45:00 PM 0.06 32.108 0.377 8.22 2.63 15.36
1/23/2021 2:00:00 PM 0.05 32.09 0.377 8.23 2.75 15.36
1/23/2021 2:15:00 PM 0.04 32.072 0.378 8.23 2.72 15.35
1/23/2021 2:30:00 PM 0.05 32.09 0.379 8.24 2.71 15.35
1/23/2021 2:45:00 PM 0.04 32.072 0.379 8.25 2.77 15.35
1/23/2021 3:00:00 PM 0.02 32.036 0.38 8.26 2.76 15.32
1/23/2021 3:15:00 PM 0 32 0.38 8.26 2.82 15.28
1/23/2021 3:30:00 PM -0.01 31.982 0.38 8.26 2.86 15.25
1/23/2021 3:45:00 PM -0.02 31.964 0.379 8.26 2.97 15.23
1/23/2021 4:00:00 PM -0.03 31.946 0.377 8.26 2.87 15.22
1/23/2021 4:15:00 PM -0.04 31.928 0.374 8.26 2.74 15.21
1/23/2021 4:30:00 PM -0.04 31.928 0.373 8.25 2.92 15.19
1/23/2021 4:45:00 PM -0.04 31.928 0.373 8.24 2.93 15.15
1/23/2021 5:00:00 PM -0.04 31.928 0.374 8.22 2.98 15.1
1/23/2021 5:15:00 PM -0.04 31.928 0.377 8.21 2.74 15.04
1/23/2021 5:30:00 PM -0.04 31.928 0.38 8.19 2.77 14.96
1/23/2021 5:45:00 PM -0.04 31.928 0.382 8.17 2.74 14.87
1/23/2021 6:00:00 PM -0.04 31.928 0.384 8.14 2.83 14.79
1/23/2021 6:15:00 PM -0.04 31.928 0.385 8.11 2.92 14.73
1/23/2021 6:30:00 PM -0.04 31.928 0.386 8.11 3.08 14.7
1/23/2021 6:45:00 PM -0.04 31.928 0.386 8.08 2.77 14.63
1/23/2021 7:00:00 PM -0.04 31.928 0.386 8.06 2.96 14.59
1/23/2021 7:15:00 PM -0.04 31.928 0.386 8.04 2.82 14.56
1/23/2021 7:30:00 PM -0.04 31.928 0.385 8.02 2.94 14.52
1/23/2021 7:45:00 PM -0.04 31.928 0.385 8 3.05 14.5
1/23/2021 8:00:00 PM -0.04 31.928 0.385 7.99 2.78 14.48
1/23/2021 8:15:00 PM -0.04 31.928 0.384 7.98 2.99 14.46
1/23/2021 8:30:00 PM -0.04 31.928 0.384 7.97 2.89 14.44
1/23/2021 8:45:00 PM -0.04 31.928 0.384 7.96 2.86 14.43
1/23/2021 9:00:00 PM -0.04 31.928 0.383 7.95 2.97 14.4
1/23/2021 9:15:00 PM -0.03 31.946 0.382 7.94 2.88 14.38
1/23/2021 9:30:00 PM -0.03 31.946 0.382 7.93 3.18 14.37
1/23/2021 9:45:00 PM -0.04 31.928 0.382 7.92 3 14.34
1/23/2021 10:00:00 PM -0.03 31.946 0.382 7.9 2.92 14.32
1/23/2021 10:15:00 PM -0.03 31.946 0.382 7.89 2.88 14.32
1/23/2021 10:30:00 PM -0.03 31.946 0.382 7.88 3.09 14.29
1/23/2021 10:45:00 PM -0.03 31.946 0.382 7.87 2.97 14.27
1/23/2021 11:00:00 PM -0.03 31.946 0.382 7.87 2.93 14.26
1/23/2021 11:15:00 PM -0.03 31.946 0.383 7.86 3.01 14.23
1/23/2021 11:30:00 PM -0.03 31.946 0.383 7.85 2.83 14.23
1/23/2021 11:45:00 PM -0.03 31.946 0.383 7.84 2.89 14.2
1/24/2021 12:00:00 AM -0.03 31.946 0.384 7.84 2.87 14.18
1/24/2021 12:15:00 AM -0.03 31.946 0.384 7.83 2.8 14.17
1/24/2021 12:30:00 AM -0.02 31.964 0.384 7.83 2.93 14.15
1/24/2021 12:45:00 AM -0.02 31.964 0.385 7.82 2.78 14.14
1/24/2021 1:00:00 AM -0.02 31.964 0.386 7.81 2.89 14.14
1/24/2021 1:15:00 AM -0.02 31.964 0.386 7.81 3.22 14.12
1/24/2021 1:30:00 AM -0.02 31.964 0.386 7.8 3.02 14.12
1/24/2021 1:45:00 AM -0.02 31.964 0.387 7.8 2.91 14.12
1/24/2021 2:00:00 AM -0.02 31.964 0.388 7.78 2.87 14.11
1/24/2021 2:15:00 AM -0.02 31.964 0.388 7.79 2.81 14.08
1/24/2021 2:30:00 AM -0.02 31.964 0.389 7.79 3.02 14.07
1/24/2021 2:45:00 AM -0.02 31.964 0.389 7.78 3.03 14.05
1/24/2021 3:00:00 AM -0.01 31.982 0.389 7.78 3.02 14.05
1/24/2021 3:15:00 AM -0.01 31.982 0.39 7.77 3.18 14.04
1/24/2021 3:30:00 AM -0.01 31.982 0.391 7.77 2.95 14.03
1/24/2021 3:45:00 AM -0.01 31.982 0.391 7.76 2.96 14.02
1/24/2021 4:00:00 AM -0.01 31.982 0.392 7.76 2.96 14.03
1/24/2021 4:15:00 AM -0.01 31.982 0.392 7.76 2.87 14
1/24/2021 4:30:00 AM -0.01 31.982 0.393 7.76 5.34 14.01
1/24/2021 4:45:00 AM -0.01 31.982 0.394 7.75 3.03 13.99
1/24/2021 5:00:00 AM -0.01 31.982 0.394 7.75 2.77 13.99
1/24/2021 5:15:00 AM -0.01 31.982 0.395 7.75 2.9 13.98
1/24/2021 5:30:00 AM -0.01 31.982 0.396 7.75 2.87 13.97
1/24/2021 5:45:00 AM -0.01 31.982 0.396 7.74 2.8 13.97
1/24/2021 6:00:00 AM -0.01 31.982 0.397 7.74 2.74 13.97
1/24/2021 6:15:00 AM -0.01 31.982 0.397 7.74 2.84 13.96
1/24/2021 6:30:00 AM -0.01 31.982 0.398 7.74 2.89 13.95
1/24/2021 6:45:00 AM -0.01 31.982 0.399 7.74 2.96 13.95
1/24/2021 7:00:00 AM -0.01 31.982 0.4 7.74 3.11 13.96
1/24/2021 7:15:00 AM -0.01 31.982 0.4 7.74 2.71 13.95
1/24/2021 7:30:00 AM -0.01 31.982 0.401 7.72 2.67 13.95
1/24/2021 7:45:00 AM 0 32 0.401 7.74 2.61 13.95
1/24/2021 8:00:00 AM 0 32 0.402 7.74 2.6 13.98
1/24/2021 8:15:00 AM 0 32 0.403 7.74 2.58 14.04
1/24/2021 8:30:00 AM 0 32 0.403 7.76 2.8 14.11
1/24/2021 8:45:00 AM 0.01 32.018 0.403 7.77 2.57 14.21
1/24/2021 9:00:00 AM 0.02 32.036 0.404 7.79 2.62 14.32
1/24/2021 9:15:00 AM 0.02 32.036 0.404 7.8 2.68 14.46
1/24/2021 9:30:00 AM 0.02 32.036 0.404 7.82 2.53 14.57
1/24/2021 9:45:00 AM 0.03 32.054 0.404 7.85 2.53 14.66
1/24/2021 10:00:00 AM 0.04 32.072 0.403 7.87 2.5 14.76
1/24/2021 10:15:00 AM 0.06 32.108 0.404 7.88 2.48 14.84
1/24/2021 10:30:00 AM 0.08 32.144 0.403 7.91 2.6 14.95
1/24/2021 10:45:00 AM 0.1 32.18 0.403 7.94 2.51 15.04
1/24/2021 11:00:00 AM 0.08 32.144 0.401 7.97 2.58 15.09
1/24/2021 11:15:00 AM 0.06 32.108 0.4 8 2.59 15.11
1/24/2021 11:30:00 AM 0.07 32.126 0.4 8.01 2.55 15.16
1/24/2021 11:45:00 AM 0.08 32.144 0.4 8.04 2.5 15.2
1/24/2021 12:00:00 PM 0.07 32.126 0.399 8.07 2.51 15.22
1/24/2021 12:15:00 PM 0.08 32.144 0.399 8.08 2.61 15.25
1/24/2021 12:30:00 PM 0.08 32.144 0.399 8.1 2.43 15.28
1/24/2021 12:45:00 PM 0.08 32.144 0.398 8.12 2.47 15.31
1/24/2021 1:00:00 PM 0.07 32.126 0.397 8.14 2.61 15.33
1/24/2021 1:15:00 PM 0.08 32.144 0.397 8.15 2.5 15.36
1/24/2021 1:30:00 PM 0.08 32.144 0.396 8.17 2.54 15.33
1/24/2021 1:45:00 PM 0.08 32.144 0.396 8.18 2.61 15.33
1/24/2021 2:00:00 PM 0.06 32.108 0.395 8.19 2.56 15.36
1/24/2021 2:15:00 PM 0.04 32.072 0.393 8.2 2.63 15.32
1/24/2021 2:30:00 PM 0.03 32.054 0.393 8.22 2.81 15.32
1/24/2021 2:45:00 PM 0.03 32.054 0.393 8.22 2.85 15.34
1/24/2021 3:00:00 PM 0.03 32.054 0.393 8.23 2.61 15.35
1/24/2021 3:15:00 PM 0.02 32.036 0.392 8.24 2.76 15.34
1/24/2021 3:30:00 PM 0.01 32.018 0.392 8.27 2.67 15.36
1/24/2021 3:45:00 PM 0.01 32.018 0.391 8.26 2.66 15.36
1/24/2021 4:00:00 PM 0.01 32.018 0.39 8.26 2.71 15.35
1/24/2021 4:15:00 PM 0.01 32.018 0.389 8.29 2.77 15.35
1/24/2021 4:30:00 PM 0 32 0.387 8.28 2.67 15.33
1/24/2021 4:45:00 PM -0.01 31.982 0.386 8.27 2.64 15.26
1/24/2021 5:00:00 PM -0.01 31.982 0.385 8.25 2.79 15.18
1/24/2021 5:15:00 PM -0.02 31.964 0.384 8.23 2.74 15.11
1/24/2021 5:30:00 PM -0.02 31.964 0.384 8.21 3.06 15
1/24/2021 5:45:00 PM -0.02 31.964 0.384 8.18 2.87 14.9
1/24/2021 6:00:00 PM -0.03 31.946 0.384 8.16 2.7 14.8
1/24/2021 6:15:00 PM -0.02 31.964 0.385 8.13 2.74 14.73
1/24/2021 6:30:00 PM -0.02 31.964 0.385 8.11 3.42 14.63
1/24/2021 6:45:00 PM -0.02 31.964 0.386 8.09 3.96 14.55
1/24/2021 7:00:00 PM -0.02 31.964 0.386 8.07 3.47 14.49
1/24/2021 7:15:00 PM -0.02 31.964 0.387 8.05 3.25 14.44
1/24/2021 7:30:00 PM -0.02 31.964 0.387 8.03 2.98 14.41
1/24/2021 7:45:00 PM -0.02 31.964 0.386 8.03 2.86 14.36
1/24/2021 8:00:00 PM -0.02 31.964 0.386 8.01 2.97 14.32
1/24/2021 8:15:00 PM -0.02 31.964 0.387 7.99 2.78 14.29
1/24/2021 8:30:00 PM -0.02 31.964 0.387 7.98 3.42 14.27
1/24/2021 8:45:00 PM -0.02 31.964 0.386 7.97 3.07 14.24
1/24/2021 9:00:00 PM -0.02 31.964 0.386 7.95 2.72 14.24
1/24/2021 9:15:00 PM -0.01 31.982 0.386 7.94 2.8 14.2
1/24/2021 9:30:00 PM -0.01 31.982 0.386 7.93 2.71 14.18
1/24/2021 9:45:00 PM -0.02 31.964 0.386 7.92 2.71 14.16
1/24/2021 10:00:00 PM -0.01 31.982 0.386 7.91 2.7 14.12
1/24/2021 10:15:00 PM -0.01 31.982 0.386 7.89 2.7 14.09
1/24/2021 10:30:00 PM -0.01 31.982 0.386 7.89 2.93 14.07
1/24/2021 10:45:00 PM -0.01 31.982 0.386 7.88 2.68 14.06
1/24/2021 11:00:00 PM -0.01 31.982 0.386 7.86 3.24 14.02
1/24/2021 11:15:00 PM -0.01 31.982 0.386 7.85 3.04 14.01
1/24/2021 11:30:00 PM -0.01 31.982 0.386 7.85 2.74 13.99
1/24/2021 11:45:00 PM -0.01 31.982 0.387 7.84 2.87 14
1/25/2021 12:00:00 AM -0.01 31.982 0.387 7.83 2.82 13.97
1/25/2021 12:15:00 AM -0.01 31.982 0.388 7.81 2.93 13.97
1/25/2021 12:30:00 AM -0.01 31.982 0.388 7.81 2.8 13.95
1/25/2021 12:45:00 AM -0.01 31.982 0.389 7.81 2.82 13.94
1/25/2021 1:00:00 AM -0.01 31.982 0.389 7.8 2.71 13.94
1/25/2021 1:15:00 AM -0.01 31.982 0.39 7.8 2.77 13.93
1/25/2021 1:30:00 AM -0.01 31.982 0.391 7.77 2.77 13.91
1/25/2021 1:45:00 AM -0.01 31.982 0.391 7.79 3.02 13.92
1/25/2021 2:00:00 AM -0.01 31.982 0.392 7.78 2.92 13.92
1/25/2021 2:15:00 AM -0.01 31.982 0.393 7.77 2.9 13.9
1/25/2021 2:30:00 AM -0.01 31.982 0.394 7.77 2.76 13.89
1/25/2021 2:45:00 AM -0.01 31.982 0.395 7.77 2.74 13.89
1/25/2021 3:00:00 AM -0.01 31.982 0.396 7.76 3.79 13.88
1/25/2021 3:15:00 AM -0.01 31.982 0.396 7.76 4.27 13.89
1/25/2021 3:30:00 AM 0 32 0.398 7.76 3.43 13.87
1/25/2021 3:45:00 AM -0.01 31.982 0.398 7.75 2.98 13.88
1/25/2021 4:00:00 AM -0.01 31.982 0.399 7.75 2.88 13.88
1/25/2021 4:15:00 AM -0.01 31.982 0.4 7.75 2.73 13.88
1/25/2021 4:30:00 AM 0 32 0.401 7.74 2.83 13.88
1/25/2021 4:45:00 AM 0 32 0.401 7.74 2.67 13.86
1/25/2021 5:00:00 AM 0 32 0.402 7.74 2.7 13.87
1/25/2021 5:15:00 AM 0 32 0.403 7.74 2.61 13.87
1/25/2021 5:30:00 AM 0 32 0.404 7.73 2.72 13.85
1/25/2021 5:45:00 AM 0 32 0.405 7.73 2.7 13.85
1/25/2021 6:00:00 AM 0 32 0.406 7.72 2.61 13.85
1/25/2021 6:15:00 AM 0 32 0.407 7.72 2.59 13.86
1/25/2021 6:30:00 AM 0 32 0.407 7.71 2.77 13.84
1/25/2021 6:45:00 AM 0 32 0.408 7.72 2.63 13.85
1/25/2021 7:00:00 AM 0 32 0.409 7.72 2.66 13.83
1/25/2021 7:15:00 AM 0.01 32.018 0.41 7.71 2.61 13.82
1/25/2021 7:30:00 AM 0.01 32.018 0.41 7.71 2.63 13.83
1/25/2021 7:45:00 AM 0.01 32.018 0.411 7.71 2.68 13.82
1/25/2021 8:00:00 AM 0.02 32.036 0.412 7.7 2.71 13.83
1/25/2021 8:15:00 AM 0.02 32.036 0.411 7.71 2.57 13.87
1/25/2021 8:30:00 AM 0.03 32.054 0.412 7.73 2.58 13.97
1/25/2021 8:45:00 AM 0.05 32.09 0.412 7.74 2.55 14.12
1/25/2021 9:00:00 AM 0.06 32.108 0.412 7.76 2.65 14.27
1/25/2021 9:15:00 AM 0.07 32.126 0.411 7.77 2.52 14.44
1/25/2021 9:30:00 AM 0.08 32.144 0.411 7.82 2.52 14.6
1/25/2021 9:45:00 AM 0.09 32.162 0.41 7.86 2.49 14.73
1/25/2021 10:00:00 AM 0.1 32.18 0.41 7.88 2.56 14.86
1/25/2021 10:15:00 AM 0.1 32.18 0.408 7.91 2.44 14.95
1/25/2021 10:30:00 AM 0.1 32.18 0.407 7.95 2.6 15.03
1/25/2021 10:45:00 AM 0.09 32.162 0.406 8 2.86 15.15
1/25/2021 11:00:00 AM 0.11 32.198 0.405 8.02 2.6 15.22
1/25/2021 11:15:00 AM 0.13 32.234 0.404 8.07 2.51 15.3
1/25/2021 11:30:00 AM 0.13 32.234 0.402 8.09 2.58 15.35
1/25/2021 11:45:00 AM 0.11 32.198 0.401 8.14 2.47 15.4
1/25/2021 12:00:00 PM 0.11 32.198 0.401 8.17 2.57 15.42
1/25/2021 12:15:00 PM 0.11 32.198 0.401 8.19 2.6 15.44
1/25/2021 12:30:00 PM 0.13 32.234 0.401 8.22 2.83 15.45
1/25/2021 12:45:00 PM 0.14 32.252 0.4 8.24 2.7 15.46
1/25/2021 1:00:00 PM 0.15 32.27 0.4 8.26 2.61 15.45
1/25/2021 1:15:00 PM 0.14 32.252 0.4 8.27 2.5 15.41
1/25/2021 1:30:00 PM 0.13 32.234 0.4 8.27 2.46 15.37
1/25/2021 1:45:00 PM 0.13 32.234 0.4 8.27 2.5 15.35
1/25/2021 2:00:00 PM 0.14 32.252 0.4 8.27 2.49 15.33
1/25/2021 2:15:00 PM 0.14 32.252 0.4 8.27 2.52 15.33
1/25/2021 2:30:00 PM 0.16 32.288 0.4 8.27 2.57 15.29
1/25/2021 2:45:00 PM 0.18 32.324 0.4 8.28 2.46 15.3
1/25/2021 3:00:00 PM 0.18 32.324 0.401 8.27 2.41 15.3
1/25/2021 3:15:00 PM 0.18 32.324 0.401 8.3 2.49 15.3
1/25/2021 3:30:00 PM 0.18 32.324 0.401 8.29 2.53 15.3
1/25/2021 3:45:00 PM 0.17 32.306 0.4 8.3 2.62 15.3
1/25/2021 4:00:00 PM 0.15 32.27 0.399 8.31 2.5 15.28
1/25/2021 4:15:00 PM 0.13 32.234 0.398 8.32 2.43 15.27
1/25/2021 4:30:00 PM 0.11 32.198 0.396 8.3 2.53 15.21
1/25/2021 4:45:00 PM 0.1 32.18 0.395 8.29 2.47 15.15
1/25/2021 5:00:00 PM 0.08 32.144 0.392 8.27 2.47 15.06
1/25/2021 5:15:00 PM 0.06 32.108 0.391 8.25 2.6 14.96
1/25/2021 5:30:00 PM 0.05 32.09 0.389 8.22 2.57 14.84
1/25/2021 5:45:00 PM 0.04 32.072 0.388 8.18 2.58 14.72
1/25/2021 6:00:00 PM 0.03 32.054 0.388 8.15 2.63 14.62
1/25/2021 6:15:00 PM 0.02 32.036 0.387 8.11 2.67 14.52
1/25/2021 6:30:00 PM 0.02 32.036 0.387 8.1 2.74 14.43
1/25/2021 6:45:00 PM 0.02 32.036 0.388 8.07 2.58 14.34
1/25/2021 7:00:00 PM 0.01 32.018 0.389 8.06 2.54 14.27
1/25/2021 7:15:00 PM 0.01 32.018 0.389 8.03 2.78 14.22
1/25/2021 7:30:00 PM 0.01 32.018 0.389 8.02 2.62 14.18
1/25/2021 7:45:00 PM 0.01 32.018 0.39 8 2.66 14.14
1/25/2021 8:00:00 PM 0.01 32.018 0.39 7.99 2.67 14.1
1/25/2021 8:15:00 PM 0.01 32.018 0.389 7.98 2.69 14.08
1/25/2021 8:30:00 PM 0 32 0.388 7.97 2.64 14.08
1/25/2021 8:45:00 PM 0.01 32.018 0.388 7.96 2.7 14.06
1/25/2021 9:00:00 PM 0.01 32.018 0.387 7.95 2.74 14.03
1/25/2021 9:15:00 PM 0.01 32.018 0.386 7.93 2.67 14.01
1/25/2021 9:30:00 PM 0.01 32.018 0.386 7.92 2.78 13.99
1/25/2021 9:45:00 PM 0.01 32.018 0.386 7.91 2.65 13.98
1/25/2021 10:00:00 PM 0.01 32.018 0.385 7.9 2.63 13.95
1/25/2021 10:15:00 PM 0.01 32.018 0.386 7.88 2.59 13.92
1/25/2021 10:30:00 PM 0.01 32.018 0.385 7.88 2.63 13.91
1/25/2021 10:45:00 PM 0.02 32.036 0.385 7.86 2.62 13.9
1/25/2021 11:00:00 PM 0.01 32.018 0.386 7.85 2.68 13.87
1/25/2021 11:15:00 PM 0.02 32.036 0.386 7.84 2.66 13.86
1/25/2021 11:30:00 PM 0.01 32.018 0.386 7.84 2.63 13.84
1/25/2021 11:45:00 PM 0.01 32.018 0.386 7.82 2.75 13.83
1/26/2021 12:00:00 AM 0.02 32.036 0.387 7.82 2.62 13.83
1/26/2021 12:15:00 AM 0.02 32.036 0.387 7.8 2.82 13.8
1/26/2021 12:30:00 AM 0.02 32.036 0.387 7.81 2.75 13.79
1/26/2021 12:45:00 AM 0.02 32.036 0.387 7.81 2.98 13.78
1/26/2021 1:00:00 AM 0.02 32.036 0.388 7.8 2.89 13.78
1/26/2021 1:15:00 AM 0.02 32.036 0.388 7.78 2.82 13.77
1/26/2021 1:30:00 AM 0.02 32.036 0.389 7.79 2.84 13.76
1/26/2021 1:45:00 AM 0.02 32.036 0.389 7.78 2.86 13.75
1/26/2021 2:00:00 AM 0.02 32.036 0.389 7.78 2.92 13.75
1/26/2021 2:15:00 AM 0.02 32.036 0.39 7.78 2.87 13.75
1/26/2021 2:30:00 AM 0.02 32.036 0.391 7.77 2.85 13.75
1/26/2021 2:45:00 AM 0.02 32.036 0.391 7.77 2.74 13.73
1/26/2021 3:00:00 AM 0.02 32.036 0.391 7.77 2.73 13.73
1/26/2021 3:15:00 AM 0.01 32.018 0.392 7.76 2.7 13.74
1/26/2021 3:30:00 AM 0.01 32.018 0.392 7.77 2.91 13.73
1/26/2021 3:45:00 AM 0.01 32.018 0.392 7.77 2.66 13.74
1/26/2021 4:00:00 AM 0.01 32.018 0.392 7.76 2.72 13.72
1/26/2021 4:15:00 AM 0.02 32.036 0.392 7.76 2.8 13.71
1/26/2021 4:30:00 AM 0.02 32.036 0.392 7.76 2.71 13.71
1/26/2021 4:45:00 AM 0.02 32.036 0.392 7.76 2.66 13.7
1/26/2021 5:00:00 AM 0.01 32.018 0.393 7.76 2.69 13.7
1/26/2021 5:15:00 AM 0.01 32.018 0.394 7.76 2.61 13.7
1/26/2021 5:30:00 AM 0.01 32.018 0.394 7.75 2.72 13.7
1/26/2021 5:45:00 AM 0 32 0.394 7.75 2.59 13.71
1/26/2021 6:00:00 AM 0.01 32.018 0.395 7.74 2.65 13.69
1/26/2021 6:15:00 AM 0.01 32.018 0.395 7.75 2.65 13.69
1/26/2021 6:30:00 AM 0.01 32.018 0.396 7.75 2.69 13.7
1/26/2021 6:45:00 AM 0.01 32.018 0.396 7.75 2.65 13.69
1/26/2021 7:00:00 AM 0.01 32.018 0.396 7.75 2.6 13.68
1/26/2021 7:15:00 AM 0.01 32.018 0.396 7.75 2.83 13.68
1/26/2021 7:30:00 AM 0.02 32.036 0.396 7.75 2.6 13.67
1/26/2021 7:45:00 AM 0.01 32.018 0.396 7.76 2.63 13.69
1/26/2021 8:00:00 AM 0.02 32.036 0.395 7.75 2.66 13.69
1/26/2021 8:15:00 AM 0.02 32.036 0.396 7.76 2.63 13.71
1/26/2021 8:30:00 AM 0.03 32.054 0.395 7.76 2.73 13.76
1/26/2021 8:45:00 AM 0.02 32.036 0.395 7.78 2.54 13.82
1/26/2021 9:00:00 AM 0.02 32.036 0.395 7.78 2.54 13.85
1/26/2021 9:15:00 AM 0.02 32.036 0.395 7.79 2.56 13.91
1/26/2021 9:30:00 AM 0.03 32.054 0.394 7.8 2.54 14
1/26/2021 9:45:00 AM 0.03 32.054 0.394 7.81 2.63 14.08
1/26/2021 10:00:00 AM 0.02 32.036 0.393 7.84 2.48 14.2
1/26/2021 10:15:00 AM 0.03 32.054 0.392 7.83 2.51 14.28
1/26/2021 10:30:00 AM 0.02 32.036 0.392 7.86 2.54 14.3
1/26/2021 10:45:00 AM 0.03 32.054 0.391 7.88 2.51 14.36
1/26/2021 11:00:00 AM 0.02 32.036 0.391 7.9 2.44 14.46
1/26/2021 11:15:00 AM 0.03 32.054 0.391 7.91 2.55 14.5
1/26/2021 11:30:00 AM 0.03 32.054 0.391 7.93 2.54 14.55
1/26/2021 11:45:00 AM 0.03 32.054 0.391 7.94 2.44 14.59
1/26/2021 12:00:00 PM 0.03 32.054 0.391 7.96 2.44 14.62
1/26/2021 12:15:00 PM 0.03 32.054 0.391 7.97 2.4 14.63
1/26/2021 12:30:00 PM 0.03 32.054 0.391 7.97 2.34 14.62
1/26/2021 12:45:00 PM 0.03 32.054 0.391 7.97 2.43 14.61
1/26/2021 1:00:00 PM 0.03 32.054 0.391 7.98 2.48 14.62
1/26/2021 1:15:00 PM 0.03 32.054 0.39 8 2.51 14.65
1/26/2021 1:30:00 PM 0.04 32.072 0.39 8 2.44 14.67
1/26/2021 1:45:00 PM 0.04 32.072 0.39 8.01 2.52 14.68
1/26/2021 2:00:00 PM 0.04 32.072 0.389 8.02 2.47 14.68
1/26/2021 2:15:00 PM 0.04 32.072 0.389 8.02 2.41 14.67
1/26/2021 2:30:00 PM 0.05 32.09 0.389 8.03 2.34 14.69
1/26/2021 2:45:00 PM 0.05 32.09 0.389 8.04 2.51 14.72
1/26/2021 3:00:00 PM 0.05 32.09 0.389 8.06 2.31 14.72
1/26/2021 3:15:00 PM 0.05 32.09 0.388 8.06 2.43 14.7
1/26/2021 3:30:00 PM 0.05 32.09 0.388 8.05 2.44 14.67
1/26/2021 3:45:00 PM 0.04 32.072 0.388 8.05 2.49 14.63
1/26/2021 4:00:00 PM 0.04 32.072 0.387 8.04 2.4 14.58
1/26/2021 4:15:00 PM 0.04 32.072 0.386 8.03 2.39 14.53
1/26/2021 4:30:00 PM 0.04 32.072 0.385 8.02 2.44 14.47
1/26/2021 4:45:00 PM 0.04 32.072 0.384 8 2.56 14.41
1/26/2021 5:00:00 PM 0.04 32.072 0.384 7.99 2.36 14.33
1/26/2021 5:15:00 PM 0.04 32.072 0.384 7.97 2.41 14.26
1/26/2021 5:30:00 PM 0.04 32.072 0.384 7.95 2.37 14.18
1/26/2021 5:45:00 PM 0.04 32.072 0.384 7.94 3.25 14.14
1/26/2021 6:00:00 PM 0.04 32.072 0.385 7.92 3.4 14.05
1/26/2021 6:15:00 PM 0.03 32.054 0.387 7.91 2.94 14
1/26/2021 6:30:00 PM 0.03 32.054 0.388 7.89 2.84 13.95
1/26/2021 6:45:00 PM 0.03 32.054 0.39 7.88 2.68 13.91
1/26/2021 7:00:00 PM 0.03 32.054 0.392 7.87 2.65 13.88
1/26/2021 7:15:00 PM 0.03 32.054 0.394 7.86 2.66 13.86
1/26/2021 7:30:00 PM 0.04 32.072 0.396 7.85 2.61 13.83
1/26/2021 7:45:00 PM 0.04 32.072 0.397 7.84 2.57 13.8
1/26/2021 8:00:00 PM 0.04 32.072 0.398 7.83 2.62 13.78
1/26/2021 8:15:00 PM 0.04 32.072 0.398 7.84 2.65 13.78
1/26/2021 8:30:00 PM 0.04 32.072 0.398 7.83 2.55 13.76
1/26/2021 8:45:00 PM 0.04 32.072 0.398 7.83 3.71 13.75
1/26/2021 9:00:00 PM 0.04 32.072 0.397 7.82 2.48 13.74
1/26/2021 9:15:00 PM 0.04 32.072 0.396 7.81 2.46 13.73
1/26/2021 9:30:00 PM 0.04 32.072 0.396 7.81 2.61 13.71
1/26/2021 9:45:00 PM 0.04 32.072 0.394 7.81 2.46 13.7
1/26/2021 10:00:00 PM 0.04 32.072 0.393 7.8 2.41 13.71
1/26/2021 10:15:00 PM 0.05 32.09 0.392 7.8 2.43 13.7
1/26/2021 10:30:00 PM 0.05 32.09 0.391 7.8 2.37 13.68
1/26/2021 10:45:00 PM 0.05 32.09 0.391 7.79 2.53 13.67
1/26/2021 11:00:00 PM 0.05 32.09 0.39 7.79 2.45 13.66
1/26/2021 11:15:00 PM 0.05 32.09 0.39 7.79 2.46 13.67
1/26/2021 11:30:00 PM 0.05 32.09 0.39 7.78 2.53 13.66
1/26/2021 11:45:00 PM 0.04 32.072 0.39 7.76 2.45 13.66
1/27/2021 12:00:00 AM 0.05 32.09 0.39 7.78 2.42 13.64
1/27/2021 12:15:00 AM 0.04 32.072 0.39 7.77 2.48 13.64
1/27/2021 12:30:00 AM 0.03 32.054 0.389 7.77 2.43 13.64
1/27/2021 12:45:00 AM 0.04 32.072 0.389 7.77 2.44 13.64
1/27/2021 1:00:00 AM 0.03 32.054 0.388 7.77 2.46 13.64
1/27/2021 1:15:00 AM 0.04 32.072 0.388 7.77 2.47 13.63
1/27/2021 1:30:00 AM 0.03 32.054 0.387 7.77 2.42 13.65
1/27/2021 1:45:00 AM 0.03 32.054 0.387 7.77 2.44 13.64
1/27/2021 2:00:00 AM 0.03 32.054 0.386 7.77 2.47 13.65
1/27/2021 2:15:00 AM 0.03 32.054 0.386 7.77 2.41 13.67
1/27/2021 2:30:00 AM 0.03 32.054 0.386 7.76 2.55 13.65
1/27/2021 2:45:00 AM 0.03 32.054 0.386 7.76 2.49 13.65
1/27/2021 3:00:00 AM 0.03 32.054 0.386 7.76 2.38 13.65
1/27/2021 3:15:00 AM 0.03 32.054 0.385 7.76 2.53 13.66
1/27/2021 3:30:00 AM 0.03 32.054 0.385 7.76 2.47 13.69
1/27/2021 3:45:00 AM 0.02 32.036 0.385 7.76 2.69 13.7
1/27/2021 4:00:00 AM 0.02 32.036 0.386 7.76 2.49 13.68
1/27/2021 4:15:00 AM 0.02 32.036 0.385 7.76 2.53 13.7
1/27/2021 4:30:00 AM 0.02 32.036 0.386 7.76 2.45 13.7
1/27/2021 4:45:00 AM 0.02 32.036 0.386 7.76 2.45 13.7
1/27/2021 5:00:00 AM 0.01 32.018 0.386 7.76 2.46 13.71
1/27/2021 5:15:00 AM 0.01 32.018 0.387 7.76 2.41 13.72
1/27/2021 5:30:00 AM 0.01 32.018 0.388 7.75 2.55 13.71
1/27/2021 5:45:00 AM 0.01 32.018 0.39 7.75 2.39 13.72
1/27/2021 6:00:00 AM 0 32 0.391 7.76 2.47 13.73
1/27/2021 6:15:00 AM 0.01 32.018 0.392 7.76 2.36 13.73
1/27/2021 6:30:00 AM 0.01 32.018 0.393 7.74 2.61 13.73
1/27/2021 6:45:00 AM 0 32 0.394 7.76 2.37 13.76
1/27/2021 7:00:00 AM 0.01 32.018 0.395 7.75 2.39 13.75
1/27/2021 7:15:00 AM 0 32 0.395 7.76 2.42 13.76
1/27/2021 7:30:00 AM 0 32 0.394 7.76 2.32 13.77
1/27/2021 7:45:00 AM 0.01 32.018 0.395 7.75 2.37 13.77
1/27/2021 8:00:00 AM 0.01 32.018 0.394 7.76 2.39 13.79
1/27/2021 8:15:00 AM 0.01 32.018 0.394 7.77 2.36 13.84
1/27/2021 8:30:00 AM 0.01 32.018 0.393 7.78 2.39 13.9
1/27/2021 8:45:00 AM 0.02 32.036 0.392 7.79 2.43 14.03
1/27/2021 9:00:00 AM 0.02 32.036 0.391 7.82 2.41 14.13
1/27/2021 9:15:00 AM 0.02 32.036 0.39 7.83 2.36 14.24
1/27/2021 9:30:00 AM 0.02 32.036 0.388 7.84 2.38 14.32
1/27/2021 9:45:00 AM 0.02 32.036 0.388 7.86 2.29 14.35
1/27/2021 10:00:00 AM 0.02 32.036 0.387 7.87 2.39 14.4
1/27/2021 10:15:00 AM 0.03 32.054 0.385 7.89 2.48 14.49
1/27/2021 10:30:00 AM 0.03 32.054 0.384 7.9 2.28 14.56
1/27/2021 10:45:00 AM 0.04 32.072 0.383 7.91 2.3 14.63
1/27/2021 11:00:00 AM 0.04 32.072 0.382 7.95 2.33 14.71
1/27/2021 11:15:00 AM 0.05 32.09 0.382 7.97 2.31 14.8
1/27/2021 11:30:00 AM 0.05 32.09 0.381 7.99 2.33 14.87
1/27/2021 11:45:00 AM 0.05 32.09 0.382 8 2.27 14.9
1/27/2021 12:00:00 PM 0.06 32.108 0.382 8.02 2.34 14.94
1/27/2021 12:15:00 PM 0.08 32.144 0.382 8.05 2.32 15
1/27/2021 12:30:00 PM 0.1 32.18 0.382 8.07 2.35 15.05
1/27/2021 12:45:00 PM 0.12 32.216 0.382 8.1 2.26 15.15
1/27/2021 1:00:00 PM 0.13 32.234 0.382 8.12 2.31 15.21
1/27/2021 1:15:00 PM 0.14 32.252 0.384 8.14 2.27 15.23
1/27/2021 1:30:00 PM 0.14 32.252 0.385 8.16 2.26 15.24
1/27/2021 1:45:00 PM 0.13 32.234 0.385 8.19 2.3 15.26
1/27/2021 2:00:00 PM 0.14 32.252 0.385 8.2 2.37 15.29
1/27/2021 2:15:00 PM 0.13 32.234 0.384 8.22 2.33 15.3
1/27/2021 2:30:00 PM 0.12 32.216 0.384 8.23 2.29 15.29
1/27/2021 2:45:00 PM 0.11 32.198 0.382 8.23 2.29 15.28
1/27/2021 3:00:00 PM 0.1 32.18 0.382 8.24 2.28 15.24
1/27/2021 3:15:00 PM 0.09 32.162 0.381 8.25 2.27 15.23
1/27/2021 3:30:00 PM 0.1 32.18 0.381 8.24 2.28 15.23
1/27/2021 3:45:00 PM 0.09 32.162 0.381 8.26 2.26 15.23
1/27/2021 4:00:00 PM 0.09 32.162 0.381 8.27 2.28 15.21
1/27/2021 4:15:00 PM 0.09 32.162 0.382 8.26 2.25 15.18
1/27/2021 4:30:00 PM 0.08 32.144 0.385 8.26 2.28 15.14
1/27/2021 4:45:00 PM 0.07 32.126 0.39 8.24 2.25 15.07
1/27/2021 5:00:00 PM 0.05 32.09 0.398 8.22 2.36 15
1/27/2021 5:15:00 PM 0.04 32.072 0.403 8.21 2.54 14.95
1/27/2021 5:30:00 PM 0.03 32.054 0.408 8.18 2.35 14.85
1/27/2021 5:45:00 PM 0.02 32.036 0.411 8.15 2.49 14.73
1/27/2021 6:00:00 PM 0.01 32.018 0.413 8.11 2.42 14.6
1/27/2021 6:15:00 PM 0.01 32.018 0.412 8.08 2.35 14.51
1/27/2021 6:30:00 PM 0.01 32.018 0.41 8.05 2.5 14.42
1/27/2021 6:45:00 PM 0.01 32.018 0.408 8.02 2.44 14.37
1/27/2021 7:00:00 PM 0 32 0.405 8.01 2.42 14.31
1/27/2021 7:15:00 PM 0 32 0.404 7.98 2.46 14.25
1/27/2021 7:30:00 PM 0 32 0.403 7.96 2.42 14.21
1/27/2021 7:45:00 PM 0 32 0.401 7.94 2.42 14.16
1/27/2021 8:00:00 PM 0 32 0.4 7.93 2.61 14.13
1/27/2021 8:15:00 PM 0 32 0.399 7.92 2.49 14.1
1/27/2021 8:30:00 PM 0 32 0.399 7.91 2.52 14.08
1/27/2021 8:45:00 PM 0 32 0.399 7.9 2.45 14.06
1/27/2021 9:00:00 PM 0 32 0.398 7.87 2.51 14.05
1/27/2021 9:15:00 PM 0.01 32.018 0.399 7.88 2.44 14.02
1/27/2021 9:30:00 PM 0 32 0.399 7.86 2.52 14
1/27/2021 9:45:00 PM 0 32 0.401 7.87 2.59 14
1/27/2021 10:00:00 PM 0 32 0.404 7.86 2.67 13.99
1/27/2021 10:15:00 PM 0 32 0.406 7.85 2.5 14
1/27/2021 10:30:00 PM 0 32 0.407 7.84 2.87 13.99
1/27/2021 10:45:00 PM 0 32 0.408 7.83 2.72 13.97
1/27/2021 11:00:00 PM 0 32 0.408 7.83 2.71 13.98
1/27/2021 11:15:00 PM 0 32 0.408 7.83 2.61 13.96
1/27/2021 11:30:00 PM 0 32 0.408 7.82 2.6 13.95
1/27/2021 11:45:00 PM 0 32 0.407 7.81 2.54 13.94
1/28/2021 12:00:00 AM 0 32 0.407 7.81 2.55 13.92
1/28/2021 12:15:00 AM 0 32 0.406 7.8 2.46 13.92
1/28/2021 12:30:00 AM 0 32 0.405 7.8 2.5 13.9
1/28/2021 12:45:00 AM 0 32 0.405 7.79 2.5 13.9
1/28/2021 1:00:00 AM 0 32 0.405 7.79 2.43 13.89
1/28/2021 1:15:00 AM 0 32 0.404 7.79 2.42 13.89
1/28/2021 1:30:00 AM 0 32 0.404 7.79 2.44 13.9
1/28/2021 1:45:00 AM 0.01 32.018 0.403 7.78 2.45 13.87
1/28/2021 2:00:00 AM 0.01 32.018 0.403 7.77 2.57 13.86
1/28/2021 2:15:00 AM 0 32 0.403 7.77 2.42 13.86
1/28/2021 2:30:00 AM 0.01 32.018 0.403 7.76 2.66 13.87
1/28/2021 2:45:00 AM 0 32 0.403 7.76 2.59 13.86
1/28/2021 3:00:00 AM 0.01 32.018 0.403 7.76 2.59 13.85
1/28/2021 3:15:00 AM 0.01 32.018 0.403 7.76 2.43 13.85
1/28/2021 3:30:00 AM 0 32 0.403 7.76 2.48 13.86
1/28/2021 3:45:00 AM 0.01 32.018 0.403 7.75 2.46 13.84
1/28/2021 4:00:00 AM 0.01 32.018 0.404 7.75 2.49 13.84
1/28/2021 4:15:00 AM 0.01 32.018 0.404 7.75 2.57 13.85
1/28/2021 4:30:00 AM 0.01 32.018 0.405 7.75 2.4 13.83
1/28/2021 4:45:00 AM 0.01 32.018 0.405 7.74 2.48 13.82
1/28/2021 5:00:00 AM 0.01 32.018 0.405 7.75 2.44 13.82
1/28/2021 5:15:00 AM 0.01 32.018 0.406 7.74 2.47 13.81
1/28/2021 5:30:00 AM 0.01 32.018 0.406 7.73 2.46 13.8
1/28/2021 5:45:00 AM 0.01 32.018 0.407 7.74 2.41 13.8
1/28/2021 6:00:00 AM 0.01 32.018 0.407 7.74 2.44 13.79
1/28/2021 6:15:00 AM 0.01 32.018 0.408 7.73 2.45 13.79
1/28/2021 6:30:00 AM 0.01 32.018 0.408 7.73 2.39 13.8
1/28/2021 6:45:00 AM 0.01 32.018 0.408 7.73 2.51 13.79
1/28/2021 7:00:00 AM 0.01 32.018 0.409 7.73 2.53 13.79
1/28/2021 7:15:00 AM 0.01 32.018 0.409 7.73 2.38 13.8
1/28/2021 7:30:00 AM 0.01 32.018 0.409 7.73 2.39 13.77
1/28/2021 7:45:00 AM 0.01 32.018 0.41 7.72 2.41 13.79
1/28/2021 8:00:00 AM 0.02 32.036 0.41 7.7 2.33 13.78
1/28/2021 8:15:00 AM 0.01 32.018 0.41 7.73 2.35 13.82
1/28/2021 8:30:00 AM 0.02 32.036 0.411 7.74 2.33 13.88
1/28/2021 8:45:00 AM 0.02 32.036 0.412 7.75 2.3 13.96
1/28/2021 9:00:00 AM 0.02 32.036 0.412 7.77 2.27 14.08
1/28/2021 9:15:00 AM 0.03 32.054 0.412 7.78 2.55 14.22
1/28/2021 9:30:00 AM 0.04 32.072 0.412 7.81 2.36 14.38
1/28/2021 9:45:00 AM 0.04 32.072 0.412 7.84 2.29 14.55
1/28/2021 10:00:00 AM 0.05 32.09 0.412 7.86 2.34 14.67
1/28/2021 10:15:00 AM 0.06 32.108 0.413 7.9 2.51 14.79
1/28/2021 10:30:00 AM 0.07 32.126 0.412 7.91 2.41 14.9
1/28/2021 10:45:00 AM 0.08 32.144 0.412 7.95 2.31 15.03
1/28/2021 11:00:00 AM 0.09 32.162 0.412 7.98 2.39 15.15
1/28/2021 11:15:00 AM 0.11 32.198 0.411 8.02 2.55 15.25
1/28/2021 11:30:00 AM 0.11 32.198 0.41 8.06 2.39 15.35
1/28/2021 11:45:00 AM 0.12 32.216 0.409 8.08 2.42 15.43
1/28/2021 12:00:00 PM 0.12 32.216 0.408 8.12 2.4 15.5
1/28/2021 12:15:00 PM 0.11 32.198 0.408 8.14 2.4 15.56
1/28/2021 12:30:00 PM 0.12 32.216 0.407 8.19 2.43 15.61
1/28/2021 12:45:00 PM 0.1 32.18 0.406 8.21 2.38 15.65
1/28/2021 1:00:00 PM 0.09 32.162 0.406 8.23 2.43 15.65
1/28/2021 1:15:00 PM 0.11 32.198 0.406 8.25 2.38 15.68
1/28/2021 1:30:00 PM 0.11 32.198 0.405 8.27 2.39 15.72
1/28/2021 1:45:00 PM 0.1 32.18 0.403 8.3 2.31 15.73
1/28/2021 2:00:00 PM 0.09 32.162 0.402 8.32 2.3 15.71
1/28/2021 2:15:00 PM 0.09 32.162 0.401 8.33 2.27 15.69
1/28/2021 2:30:00 PM 0.09 32.162 0.4 8.34 2.22 15.7
1/28/2021 2:45:00 PM 0.07 32.126 0.399 8.35 2.22 15.68
1/28/2021 3:00:00 PM 0.06 32.108 0.399 8.35 2.25 15.66
1/28/2021 3:15:00 PM 0.06 32.108 0.399 8.36 2.16 15.64
1/28/2021 3:30:00 PM 0.05 32.09 0.399 8.37 2.22 15.64
1/28/2021 3:45:00 PM 0.04 32.072 0.4 8.36 2.28 15.6
1/28/2021 4:00:00 PM 0.03 32.054 0.401 8.36 2.33 15.58
1/28/2021 4:15:00 PM 0.03 32.054 0.4 8.36 2.32 15.56
1/28/2021 4:30:00 PM 0.02 32.036 0.4 8.37 2.27 15.53
1/28/2021 4:45:00 PM 0.02 32.036 0.399 8.35 2.24 15.51
1/28/2021 5:00:00 PM 0.01 32.018 0.398 8.34 2.21 15.47
1/28/2021 5:15:00 PM 0 32 0.397 8.33 2.19 15.41
1/28/2021 5:30:00 PM 0 32 0.397 8.28 2.19 15.32
1/28/2021 5:45:00 PM 0 32 0.397 8.24 2.23 15.18
1/28/2021 6:00:00 PM 0 32 0.397 8.2 2.31 15.06
1/28/2021 6:15:00 PM 0 32 0.397 8.15 2.41 14.93
1/28/2021 6:30:00 PM 0 32 0.398 8.12 2.38 14.83
1/28/2021 6:45:00 PM 0 32 0.402 8.09 2.31 14.75
1/28/2021 7:00:00 PM 0 32 0.406 8.07 2.39 14.68
1/28/2021 7:15:00 PM 0 32 0.41 8.05 2.33 14.62
1/28/2021 7:30:00 PM 0 32 0.415 8.03 2.29 14.56
1/28/2021 7:45:00 PM 0 32 0.418 8.01 2.41 14.52
1/28/2021 8:00:00 PM 0 32 0.42 7.99 2.47 14.45
1/28/2021 8:15:00 PM 0 32 0.422 7.98 2.44 14.39
1/28/2021 8:30:00 PM 0 32 0.424 7.95 2.46 14.35
1/28/2021 8:45:00 PM 0 32 0.427 7.95 2.42 14.31
1/28/2021 9:00:00 PM 0 32 0.429 7.94 3.21 14.28
1/28/2021 9:15:00 PM 0.01 32.018 0.43 7.92 3.19 14.24
1/28/2021 9:30:00 PM 0 32 0.429 7.91 3.13 14.21
1/28/2021 9:45:00 PM 0.01 32.018 0.427 7.9 2.85 14.19
1/28/2021 10:00:00 PM 0 32 0.425 7.9 2.73 14.17
1/28/2021 10:15:00 PM 0 32 0.423 7.89 2.65 14.15
1/28/2021 10:30:00 PM 0.01 32.018 0.422 7.88 3.45 14.13
1/28/2021 10:45:00 PM 0.01 32.018 0.421 7.87 3.41 14.11
1/28/2021 11:00:00 PM 0.01 32.018 0.421 7.87 3.17 14.09
1/28/2021 11:15:00 PM 0.01 32.018 0.421 7.86 2.88 14.07
1/28/2021 11:30:00 PM 0.01 32.018 0.42 7.86 2.76 14.07
1/28/2021 11:45:00 PM 0.01 32.018 0.42 7.84 2.75 14.05
1/29/2021 12:00:00 AM 0.01 32.018 0.419 7.84 2.7 14.02
1/29/2021 12:15:00 AM 0.01 32.018 0.419 7.83 2.52 14
1/29/2021 12:30:00 AM 0.01 32.018 0.419 7.82 2.47 13.97
1/29/2021 12:45:00 AM 0.01 32.018 0.419 7.81 2.71 13.96
1/29/2021 1:00:00 AM 0.01 32.018 0.418 7.81 2.9 13.95
1/29/2021 1:15:00 AM 0.01 32.018 0.418 7.8 2.69 13.94
1/29/2021 1:30:00 AM 0.01 32.018 0.418 7.8 2.7 13.9
1/29/2021 1:45:00 AM 0.01 32.018 0.418 7.79 4.07 13.9
1/29/2021 2:00:00 AM 0.01 32.018 0.418 7.78 2.56 13.87
1/29/2021 2:15:00 AM 0.01 32.018 0.418 7.77 2.7 13.87
1/29/2021 2:30:00 AM 0.01 32.018 0.419 7.77 2.7 13.82
1/29/2021 2:45:00 AM 0.01 32.018 0.419 7.77 2.73 13.82
1/29/2021 3:00:00 AM 0.01 32.018 0.419 7.76 2.67 13.8
1/29/2021 3:15:00 AM 0.01 32.018 0.42 7.76 2.49 13.79
1/29/2021 3:30:00 AM 0.01 32.018 0.42 7.75 2.42 13.77
1/29/2021 3:45:00 AM 0.01 32.018 0.421 7.75 2.52 13.75
1/29/2021 4:00:00 AM 0.01 32.018 0.421 7.75 2.52 13.74
1/29/2021 4:15:00 AM 0.01 32.018 0.421 7.74 2.52 13.73
1/29/2021 4:30:00 AM 0.01 32.018 0.421 7.74 2.42 13.72
1/29/2021 4:45:00 AM 0.01 32.018 0.422 7.73 2.42 13.71
1/29/2021 5:00:00 AM 0.01 32.018 0.422 7.73 2.59 13.69
1/29/2021 5:15:00 AM 0.01 32.018 0.423 7.72 2.76 13.7
1/29/2021 5:30:00 AM 0.01 32.018 0.423 7.73 2.71 13.68
1/29/2021 5:45:00 AM 0.01 32.018 0.423 7.71 2.58 13.66
1/29/2021 6:00:00 AM 0.01 32.018 0.423 7.73 2.78 13.67
1/29/2021 6:15:00 AM 0.01 32.018 0.424 7.7 3.17 13.65
1/29/2021 6:30:00 AM 0.01 32.018 0.424 7.71 2.59 13.63
1/29/2021 6:45:00 AM 0.01 32.018 0.424 7.71 2.44 13.63
1/29/2021 7:00:00 AM 0.01 32.018 0.425 7.71 2.3 13.61
1/29/2021 7:15:00 AM 0.01 32.018 0.425 7.7 2.41 13.63
1/29/2021 7:30:00 AM 0.01 32.018 0.425 7.7 2.32 13.6
1/29/2021 7:45:00 AM 0.01 32.018 0.426 7.7 2.31 13.6
1/29/2021 8:00:00 AM 0.01 32.018 0.426 7.7 2.31 13.6
1/29/2021 8:15:00 AM 0.02 32.036 0.426 7.69 2.31 13.61
1/29/2021 8:30:00 AM 0.02 32.036 0.427 7.7 2.29 13.64
1/29/2021 8:45:00 AM 0.02 32.036 0.427 7.71 2.28 13.72
1/29/2021 9:00:00 AM 0.03 32.054 0.427 7.72 2.22 13.86
1/29/2021 9:15:00 AM 0.03 32.054 0.427 7.75 2.2 14.02
1/29/2021 9:30:00 AM 0.04 32.072 0.427 7.78 2.23 14.19
1/29/2021 9:45:00 AM 0.04 32.072 0.427 7.79 2.29 14.4
1/29/2021 10:00:00 AM 0.04 32.072 0.427 7.82 2.38 14.58
1/29/2021 10:15:00 AM 0.05 32.09 0.427 7.84 2.27 14.73
1/29/2021 10:30:00 AM 0.06 32.108 0.429 7.86 2.48 14.86
1/29/2021 10:45:00 AM 0.06 32.108 0.428 7.9 2.32 14.98
1/29/2021 11:00:00 AM 0.06 32.108 0.428 7.92 2.28 15.11
1/29/2021 11:15:00 AM 0.06 32.108 0.429 7.95 2.25 15.21
1/29/2021 11:30:00 AM 0.06 32.108 0.429 7.97 2.28 15.35
1/29/2021 11:45:00 AM 0.06 32.108 0.429 8.01 2.4 15.44
1/29/2021 12:00:00 PM 0.06 32.108 0.429 8.03 2.29 15.54
1/29/2021 12:15:00 PM 0.06 32.108 0.429 8.07 2.2 15.65
1/29/2021 12:30:00 PM 0.07 32.126 0.428 8.1 2.32 15.79
1/29/2021 12:45:00 PM 0.07 32.126 0.428 8.15 2.26 15.91
1/29/2021 1:00:00 PM 0.06 32.108 0.427 8.19 2.41 16.03
1/29/2021 1:15:00 PM 0.07 32.126 0.427 8.2 2.31 16.06
1/29/2021 1:30:00 PM 0.06 32.108 0.426 8.25 2.57 16.11
1/29/2021 1:45:00 PM 0.06 32.108 0.426 8.28 2.35 16.17
1/29/2021 2:00:00 PM 0.06 32.108 0.425 8.31 2.3 16.22
1/29/2021 2:15:00 PM 0.06 32.108 0.424 8.34 2.32 16.27
1/29/2021 2:30:00 PM 0.06 32.108 0.424 8.36 2.3 16.31
1/29/2021 2:45:00 PM 0.06 32.108 0.423 8.38 2.26 16.3
1/29/2021 3:00:00 PM 0.06 32.108 0.422 8.4 2.32 16.33
1/29/2021 3:15:00 PM 0.05 32.09 0.422 8.41 2.26 16.33
1/29/2021 3:30:00 PM 0.05 32.09 0.422 8.42 2.28 16.33
1/29/2021 3:45:00 PM 0.04 32.072 0.422 8.42 2.26 16.31
1/29/2021 4:00:00 PM 0.04 32.072 0.422 8.41 2.27 16.24
1/29/2021 4:15:00 PM 0.03 32.054 0.422 8.41 2.25 16.2
1/29/2021 4:30:00 PM 0.03 32.054 0.423 8.4 2.21 16.14
1/29/2021 4:45:00 PM 0.03 32.054 0.422 8.39 2.27 16.09
1/29/2021 5:00:00 PM 0.02 32.036 0.422 8.37 2.29 16
1/29/2021 5:15:00 PM 0.02 32.036 0.422 8.34 2.32 15.9
1/29/2021 5:30:00 PM 0.02 32.036 0.422 8.31 2.5 15.84
1/29/2021 5:45:00 PM 0.02 32.036 0.422 8.3 2.32 15.71
1/29/2021 6:00:00 PM 0.01 32.018 0.422 8.27 2.25 15.62
1/29/2021 6:15:00 PM 0.01 32.018 0.421 8.24 2.21 15.49
1/29/2021 6:30:00 PM 0.01 32.018 0.42 8.21 2.26 15.35
1/29/2021 6:45:00 PM 0.01 32.018 0.42 8.18 2.27 15.24
1/29/2021 7:00:00 PM 0.01 32.018 0.42 8.15 2.26 15.17
1/29/2021 7:15:00 PM 0.01 32.018 0.419 8.13 2.2 15.06
1/29/2021 7:30:00 PM 0.01 32.018 0.419 8.1 2.27 14.98
1/29/2021 7:45:00 PM 0.01 32.018 0.42 8.08 2.33 14.9
1/29/2021 8:00:00 PM 0.01 32.018 0.42 8.06 2.32 14.8
1/29/2021 8:15:00 PM 0.02 32.036 0.42 8.03 2.39 14.73
1/29/2021 8:30:00 PM 0.02 32.036 0.42 8.02 2.24 14.66
1/29/2021 8:45:00 PM 0.02 32.036 0.42 8 2.26 14.59
1/29/2021 9:00:00 PM 0.01 32.018 0.42 7.99 2.19 14.54
1/29/2021 9:15:00 PM 0.02 32.036 0.42 7.98 2.28 14.49
1/29/2021 9:30:00 PM 0.02 32.036 0.42 7.97 2.32 14.43
1/29/2021 9:45:00 PM 0.01 32.018 0.42 7.95 2.27 14.4
1/29/2021 10:00:00 PM 0.02 32.036 0.42 7.95 2.34 14.36
1/29/2021 10:15:00 PM 0.02 32.036 0.42 7.95 2.36 14.32
1/29/2021 10:30:00 PM 0.02 32.036 0.42 7.94 2.31 14.29
1/29/2021 10:45:00 PM 0.02 32.036 0.42 7.94 2.26 14.26
1/29/2021 11:00:00 PM 0.01 32.018 0.42 7.94 2.33 14.24
1/29/2021 11:15:00 PM 0.01 32.018 0.421 7.93 2.37 14.22
1/29/2021 11:30:00 PM 0.01 32.018 0.421 7.92 2.32 14.19
1/29/2021 11:45:00 PM 0.02 32.036 0.421 7.9 2.27 14.16
1/30/2021 12:00:00 AM 0.02 32.036 0.42 7.9 2.31 14.12
1/30/2021 12:15:00 AM 0.01 32.018 0.42 7.9 2.29 14.1
1/30/2021 12:30:00 AM 0.02 32.036 0.42 7.88 2.34 14.06
1/30/2021 12:45:00 AM 0.02 32.036 0.42 7.87 2.53 14.04
1/30/2021 1:00:00 AM 0.02 32.036 0.42 7.87 2.48 13.99
1/30/2021 1:15:00 AM 0.02 32.036 0.42 7.86 2.47 13.96
1/30/2021 1:30:00 AM 0.02 32.036 0.42 7.85 2.38 13.93
1/30/2021 1:45:00 AM 0.01 32.018 0.42 7.84 2.38 13.91
1/30/2021 2:00:00 AM 0.01 32.018 0.42 7.83 2.4 13.87
1/30/2021 2:15:00 AM 0.02 32.036 0.421 7.82 2.36 13.83
1/30/2021 2:30:00 AM 0.02 32.036 0.421 7.81 2.42 13.8
1/30/2021 2:45:00 AM 0.02 32.036 0.421 7.8 2.55 13.78
1/30/2021 3:00:00 AM 0.02 32.036 0.422 7.79 2.54 13.74
1/30/2021 3:15:00 AM 0.02 32.036 0.422 7.78 2.49 13.72
1/30/2021 3:30:00 AM 0.02 32.036 0.422 7.78 2.45 13.69
1/30/2021 3:45:00 AM 0.02 32.036 0.423 7.77 2.42 13.68
1/30/2021 4:00:00 AM 0.02 32.036 0.423 7.76 2.31 13.64
1/30/2021 4:15:00 AM 0.02 32.036 0.424 7.76 2.24 13.63
1/30/2021 4:30:00 AM 0.02 32.036 0.424 7.76 2.23 13.61
1/30/2021 4:45:00 AM 0.02 32.036 0.425 7.75 2.42 13.59
1/30/2021 5:00:00 AM 0.02 32.036 0.426 7.75 2.48 13.58
1/30/2021 5:15:00 AM 0.02 32.036 0.427 7.74 2.48 13.55
1/30/2021 5:30:00 AM 0.02 32.036 0.428 7.74 2.41 13.55
1/30/2021 5:45:00 AM 0.02 32.036 0.429 7.73 2.39 13.54
1/30/2021 6:00:00 AM 0.02 32.036 0.429 7.73 2.36 13.53
1/30/2021 6:15:00 AM 0.02 32.036 0.43 7.72 2.29 13.52
1/30/2021 6:30:00 AM 0.02 32.036 0.431 7.72 2.24 13.51
1/30/2021 6:45:00 AM 0.02 32.036 0.431 7.71 2.35 13.5
1/30/2021 7:00:00 AM 0.02 32.036 0.432 7.71 2.25 13.49
1/30/2021 7:15:00 AM 0.02 32.036 0.432 7.71 2.31 13.49
1/30/2021 7:30:00 AM 0.02 32.036 0.433 7.7 2.24 13.47
1/30/2021 7:45:00 AM 0.02 32.036 0.433 7.7 2.2 13.47
1/30/2021 8:00:00 AM 0.02 32.036 0.434 7.7 2.25 13.47
1/30/2021 8:15:00 AM 0.02 32.036 0.434 7.7 2.22 13.49
1/30/2021 8:30:00 AM 0.02 32.036 0.435 7.71 2.21 13.55
1/30/2021 8:45:00 AM 0.03 32.054 0.436 7.71 2.19 13.65
1/30/2021 9:00:00 AM 0.03 32.054 0.436 7.73 2.35 13.79
1/30/2021 9:15:00 AM 0.04 32.072 0.436 7.75 2.43 13.98
1/30/2021 9:30:00 AM 0.04 32.072 0.437 7.78 2.4 14.16
1/30/2021 9:45:00 AM 0.05 32.09 0.437 7.81 2.35 14.36
1/30/2021 10:00:00 AM 0.06 32.108 0.437 7.83 2.34 14.55
1/30/2021 10:15:00 AM 0.07 32.126 0.437 7.85 2.28 14.75
1/30/2021 10:30:00 AM 0.08 32.144 0.437 7.91 2.25 14.93
1/30/2021 10:45:00 AM 0.08 32.144 0.437 7.94 2.65 15.12
1/30/2021 11:00:00 AM 0.09 32.162 0.436 7.99 2.4 15.29
1/30/2021 11:15:00 AM 0.1 32.18 0.435 8.03 2.45 15.48
1/30/2021 11:30:00 AM 0.11 32.198 0.435 8.08 2.17 15.64
1/30/2021 11:45:00 AM 0.12 32.216 0.434 8.11 2.18 15.77
1/30/2021 12:00:00 PM 0.12 32.216 0.433 8.16 2.31 15.9
1/30/2021 12:15:00 PM 0.12 32.216 0.432 8.21 2.18 16.02
1/30/2021 12:30:00 PM 0.12 32.216 0.432 8.24 2.17 16.1
1/30/2021 12:45:00 PM 0.12 32.216 0.431 8.27 2.17 16.17
1/30/2021 1:00:00 PM 0.12 32.216 0.431 8.3 2.22 16.2
1/30/2021 1:15:00 PM 0.12 32.216 0.431 8.32 2.25 16.23
1/30/2021 1:30:00 PM 0.11 32.198 0.431 8.35 2.28 16.24
1/30/2021 1:45:00 PM 0.11 32.198 0.431 8.37 2.21 16.24
1/30/2021 2:00:00 PM 0.11 32.198 0.431 8.38 2.2 16.23
1/30/2021 2:15:00 PM 0.11 32.198 0.431 8.4 2.17 16.23
1/30/2021 2:30:00 PM 0.1 32.18 0.431 8.4 2.32 16.2
1/30/2021 2:45:00 PM 0.1 32.18 0.43 8.42 2.22 16.17
1/30/2021 3:00:00 PM 0.09 32.162 0.429 8.43 2.26 16.14
1/30/2021 3:15:00 PM 0.09 32.162 0.428 8.43 2.43 16.12
1/30/2021 3:30:00 PM 0.08 32.144 0.428 8.43 2.27 16.07
1/30/2021 3:45:00 PM 0.08 32.144 0.427 8.44 2.21 16.01
1/30/2021 4:00:00 PM 0.07 32.126 0.426 8.45 2.54 15.97
1/30/2021 4:15:00 PM 0.07 32.126 0.426 8.43 2.25 15.91
1/30/2021 4:30:00 PM 0.06 32.108 0.426 8.43 2.31 15.85
1/30/2021 4:45:00 PM 0.05 32.09 0.426 8.43 2.22 15.78
1/30/2021 5:00:00 PM 0.05 32.09 0.426 8.42 2.16 15.69
1/30/2021 5:15:00 PM 0.04 32.072 0.426 8.39 2.26 15.58
1/30/2021 5:30:00 PM 0.03 32.054 0.426 8.35 2.33 15.45
1/30/2021 5:45:00 PM 0.03 32.054 0.426 8.32 2.25 15.32
1/30/2021 6:00:00 PM 0.02 32.036 0.426 8.28 2.32 15.18
1/30/2021 6:15:00 PM 0.02 32.036 0.426 8.23 2.42 15.03
1/30/2021 6:30:00 PM 0.01 32.018 0.426 8.19 2.4 14.91
1/30/2021 6:45:00 PM 0.01 32.018 0.426 8.16 2.44 14.8
1/30/2021 7:00:00 PM 0.01 32.018 0.426 8.13 2.57 14.7
1/30/2021 7:15:00 PM 0.01 32.018 0.426 8.1 2.65 14.63
1/30/2021 7:30:00 PM 0.01 32.018 0.427 8.08 2.53 14.56
1/30/2021 7:45:00 PM 0.01 32.018 0.427 8.06 2.59 14.5
1/30/2021 8:00:00 PM 0.01 32.018 0.427 8.04 2.47 14.46
1/30/2021 8:15:00 PM 0.01 32.018 0.427 8 2.4 14.39
1/30/2021 8:30:00 PM 0.01 32.018 0.426 8.01 2.27 14.35
1/30/2021 8:45:00 PM 0.01 32.018 0.426 7.99 2.27 14.32
1/30/2021 9:00:00 PM 0.01 32.018 0.426 7.97 2.18 14.27
1/30/2021 9:15:00 PM 0.01 32.018 0.426 7.96 2.23 14.24
1/30/2021 9:30:00 PM 0.01 32.018 0.426 7.95 2.2 14.22
1/30/2021 9:45:00 PM 0.01 32.018 0.426 7.94 2.2 14.18
1/30/2021 10:00:00 PM 0.01 32.018 0.426 7.93 2.19 14.15
1/30/2021 10:15:00 PM 0.01 32.018 0.426 7.92 2.25 14.14
1/30/2021 10:30:00 PM 0.01 32.018 0.427 7.9 2.22 14.11
1/30/2021 10:45:00 PM 0.01 32.018 0.427 7.9 2.21 14.09
1/30/2021 11:00:00 PM 0.01 32.018 0.428 7.88 2.18 14.07
1/30/2021 11:15:00 PM 0.01 32.018 0.428 7.87 2.2 14.05
1/30/2021 11:30:00 PM 0.01 32.018 0.428 7.88 2.49 14.04
1/30/2021 11:45:00 PM 0 32 0.429 7.87 2.22 14.02
1/31/2021 12:00:00 AM 0.01 32.018 0.429 7.86 2.22 14
1/31/2021 12:15:00 AM 0.01 32.018 0.429 7.84 2.18 13.98
1/31/2021 12:30:00 AM 0.01 32.018 0.429 7.84 2.15 13.96
1/31/2021 12:45:00 AM 0.01 32.018 0.429 7.84 2.16 13.95
1/31/2021 1:00:00 AM 0.01 32.018 0.429 7.81 2.14 13.92
1/31/2021 1:15:00 AM 0.01 32.018 0.429 7.82 2.28 13.9
1/31/2021 1:30:00 AM 0.01 32.018 0.429 7.82 2.19 13.88
1/31/2021 1:45:00 AM 0.01 32.018 0.429 7.81 2.22 13.87
1/31/2021 2:00:00 AM 0.01 32.018 0.429 7.8 2.22 13.84
1/31/2021 2:15:00 AM 0.01 32.018 0.429 7.8 2.16 13.82
1/31/2021 2:30:00 AM 0.01 32.018 0.429 7.79 2.21 13.79
1/31/2021 2:45:00 AM 0.01 32.018 0.429 7.78 2.53 13.77
1/31/2021 3:00:00 AM 0.01 32.018 0.43 7.77 2.19 13.74
1/31/2021 3:15:00 AM 0.01 32.018 0.43 7.77 2.18 13.73
1/31/2021 3:30:00 AM 0.01 32.018 0.431 7.76 2.16 13.71
1/31/2021 3:45:00 AM 0.01 32.018 0.431 7.75 2.2 13.68
1/31/2021 4:00:00 AM 0.01 32.018 0.432 7.75 2.17 13.66
1/31/2021 4:15:00 AM 0.01 32.018 0.432 7.75 2.27 13.65
1/31/2021 4:30:00 AM 0.01 32.018 0.432 7.74 2.13 13.63
1/31/2021 4:45:00 AM 0.01 32.018 0.433 7.73 2.34 13.62
1/31/2021 5:00:00 AM 0.01 32.018 0.433 7.71 3.27 13.59
1/31/2021 5:15:00 AM 0.01 32.018 0.433 7.73 3.76 13.58
1/31/2021 5:30:00 AM 0.01 32.018 0.434 7.7 3.29 13.55
1/31/2021 5:45:00 AM 0.01 32.018 0.434 7.72 2.88 13.54
1/31/2021 6:00:00 AM 0.01 32.018 0.435 7.71 2.65 13.54
1/31/2021 6:15:00 AM 0.01 32.018 0.436 7.71 2.41 13.5
1/31/2021 6:30:00 AM 0.01 32.018 0.437 7.7 2.4 13.49
1/31/2021 6:45:00 AM 0.01 32.018 0.437 7.7 2.45 13.48
1/31/2021 7:00:00 AM 0.01 32.018 0.438 7.7 2.44 13.46
1/31/2021 7:15:00 AM 0.01 32.018 0.439 7.69 2.41 13.44
1/31/2021 7:30:00 AM 0.01 32.018 0.44 7.69 2.37 13.43
1/31/2021 7:45:00 AM 0.01 32.018 0.44 7.69 3.17 13.42
1/31/2021 8:00:00 AM 0.01 32.018 0.441 7.69 3.57 13.41
1/31/2021 8:15:00 AM 0.01 32.018 0.441 7.69 3.27 13.42
1/31/2021 8:30:00 AM 0.01 32.018 0.441 7.69 2.89 13.45
1/31/2021 8:45:00 AM 0.02 32.036 0.441 7.68 3.93 13.52
1/31/2021 9:00:00 AM 0.02 32.036 0.441 7.71 2.91 13.62
1/31/2021 9:15:00 AM 0.03 32.054 0.441 7.72 2.75 13.73
1/31/2021 9:30:00 AM 0.02 32.036 0.44 7.75 2.61 13.88
1/31/2021 9:45:00 AM 0.03 32.054 0.44 7.74 2.59 14.02
1/31/2021 10:00:00 AM 0.03 32.054 0.44 7.78 2.44 14.16
1/31/2021 10:15:00 AM 0.03 32.054 0.44 7.77 2.3 14.26
1/31/2021 10:30:00 AM 0.04 32.072 0.44 7.81 2.39 14.37
1/31/2021 10:45:00 AM 0.04 32.072 0.44 7.82 2.42 14.48
1/31/2021 11:00:00 AM 0.04 32.072 0.44 7.84 2.36 14.59
1/31/2021 11:15:00 AM 0.04 32.072 0.44 7.86 2.33 14.71
1/31/2021 11:30:00 AM 0.04 32.072 0.44 7.88 2.3 14.8
1/31/2021 11:45:00 AM 0.04 32.072 0.44 7.9 2.32 14.91
1/31/2021 12:00:00 PM 0.04 32.072 0.44 7.92 2.41 14.99
1/31/2021 12:15:00 PM 0.04 32.072 0.44 7.93 2.47 15.05
1/31/2021 12:30:00 PM 0.04 32.072 0.439 7.96 2.46 15.16
1/31/2021 12:45:00 PM 0.04 32.072 0.438 7.99 2.56 15.29
1/31/2021 1:00:00 PM 0.04 32.072 0.438 8.02 2.56 15.41
1/31/2021 1:15:00 PM 0.04 32.072 0.438 8.04 2.45 15.49
1/31/2021 1:30:00 PM 0.04 32.072 0.438 8.07 2.32 15.52
1/31/2021 1:45:00 PM 0.04 32.072 0.437 8.09 2.34 15.55
1/31/2021 2:00:00 PM 0.05 32.09 0.437 8.1 2.43 15.59
1/31/2021 2:15:00 PM 0.05 32.09 0.437 8.12 2.29 15.62
1/31/2021 2:30:00 PM 0.05 32.09 0.437 8.14 2.21 15.66
1/31/2021 2:45:00 PM 0.05 32.09 0.436 8.15 2.23 15.65
1/31/2021 3:00:00 PM 0.04 32.072 0.436 8.17 2.19 15.66
1/31/2021 3:15:00 PM 0.04 32.072 0.436 8.17 2.19 15.63
1/31/2021 3:30:00 PM 0.04 32.072 0.436 8.16 2.3 15.58
1/31/2021 3:45:00 PM 0.04 32.072 0.436 8.16 2.14 15.55
1/31/2021 4:00:00 PM 0.04 32.072 0.437 8.16 2.3 15.5
1/31/2021 4:15:00 PM 0.04 32.072 0.437 8.16 2.18 15.47
1/31/2021 4:30:00 PM 0.04 32.072 0.437 8.16 2.32 15.43
1/31/2021 4:45:00 PM 0.04 32.072 0.438 8.15 2.27 15.37
1/31/2021 5:00:00 PM 0.03 32.054 0.437 8.15 2.27 15.32
1/31/2021 5:15:00 PM 0.03 32.054 0.438 8.13 2.3 15.24
1/31/2021 5:30:00 PM 0.03 32.054 0.438 8.11 2.2 15.13
1/31/2021 5:45:00 PM 0.03 32.054 0.439 8.09 2.33 15
1/31/2021 6:00:00 PM 0.03 32.054 0.438 8.06 2.63 14.89
1/31/2021 6:15:00 PM 0.02 32.036 0.438 8.02 2.3 14.75
1/31/2021 6:30:00 PM 0.02 32.036 0.438 8.02 2.27 14.65
1/31/2021 6:45:00 PM 0.02 32.036 0.437 8.01 2.24 14.56
1/31/2021 7:00:00 PM 0.02 32.036 0.437 7.98 2.23 14.49
1/31/2021 7:15:00 PM 0.02 32.036 0.436 7.97 2.25 14.41
1/31/2021 7:30:00 PM 0.02 32.036 0.436 7.96 2.19 14.33
1/31/2021 7:45:00 PM 0.02 32.036 0.435 7.94 2.33 14.28
1/31/2021 8:00:00 PM 0.02 32.036 0.435 7.92 2.3 14.21
1/31/2021 8:15:00 PM 0.02 32.036 0.434 7.91 2.23 14.16
1/31/2021 8:30:00 PM 0.02 32.036 0.434 7.9 2.2 14.12
1/31/2021 8:45:00 PM 0.02 32.036 0.434 7.89 2.35 14.06
1/31/2021 9:00:00 PM 0.02 32.036 0.434 7.89 2.18 14.03
1/31/2021 9:15:00 PM 0.02 32.036 0.434 7.87 2.18 13.99
1/31/2021 9:30:00 PM 0.02 32.036 0.434 7.87 2.22 13.97
1/31/2021 9:45:00 PM 0.02 32.036 0.433 7.86 2.3 13.93
1/31/2021 10:00:00 PM 0.02 32.036 0.433 7.86 2.17 13.92
1/31/2021 10:15:00 PM 0.02 32.036 0.433 7.84 2.08 13.88
1/31/2021 10:30:00 PM 0.02 32.036 0.433 7.84 2.17 13.86
1/31/2021 10:45:00 PM 0.02 32.036 0.433 7.83 2.28 13.85
1/31/2021 11:00:00 PM 0.02 32.036 0.433 7.84 2.18 13.83
1/31/2021 11:15:00 PM 0.02 32.036 0.433 7.83 2.21 13.82
1/31/2021 11:30:00 PM 0.02 32.036 0.433 7.83 2.31 13.81
1/31/2021 11:45:00 PM 0.02 32.036 0.434 7.82 2.2 13.8
2/1/2021 12:00:00 AM 0.02 32.036 0.434 7.82 2.28 13.79
2/1/2021 12:15:00 AM 0.02 32.036 0.434 7.82 2.27 13.78
2/1/2021 12:30:00 AM 0.02 32.036 0.434 7.81 2.3 13.76
2/1/2021 12:45:00 AM 0.02 32.036 0.434 7.81 2.27 13.73
2/1/2021 1:00:00 AM 0.02 32.036 0.434 7.8 2.3 13.71
2/1/2021 1:15:00 AM 0.02 32.036 0.435 7.8 2.54 13.69
2/1/2021 1:30:00 AM 0.02 32.036 0.435 7.79 2.32 13.68
2/1/2021 1:45:00 AM 0.02 32.036 0.435 7.79 2.31 13.66
2/1/2021 2:00:00 AM 0.02 32.036 0.434 7.79 2.38 13.66
2/1/2021 2:15:00 AM 0.02 32.036 0.435 7.78 2.45 13.63
2/1/2021 2:30:00 AM 0.02 32.036 0.434 7.78 2.34 13.61
2/1/2021 2:45:00 AM 0.02 32.036 0.434 7.78 2.42 13.59
2/1/2021 3:00:00 AM 0.02 32.036 0.434 7.77 2.28 13.59
2/1/2021 3:15:00 AM 0.02 32.036 0.434 7.77 2.25 13.56
2/1/2021 3:30:00 AM 0.01 32.018 0.433 7.77 2.2 13.55
2/1/2021 3:45:00 AM 0.02 32.036 0.433 7.76 2.22 13.54
2/1/2021 4:00:00 AM 0.02 32.036 0.433 7.75 2.34 13.51
2/1/2021 4:15:00 AM 0.02 32.036 0.433 7.75 2.37 13.5
2/1/2021 4:30:00 AM 0.02 32.036 0.432 7.75 2.54 13.49
2/1/2021 4:45:00 AM 0.02 32.036 0.432 7.74 2.4 13.47
2/1/2021 5:00:00 AM 0.02 32.036 0.432 7.74 2.37 13.46
2/1/2021 5:15:00 AM 0.02 32.036 0.432 7.74 2.29 13.45
2/1/2021 5:30:00 AM 0.02 32.036 0.432 7.73 2.22 13.44
2/1/2021 5:45:00 AM 0.02 32.036 0.433 7.73 2.22 13.42
2/1/2021 6:00:00 AM 0.02 32.036 0.433 7.72 2.33 13.4
2/1/2021 6:15:00 AM 0.02 32.036 0.433 7.73 2.22 13.4
2/1/2021 6:30:00 AM 0.01 32.018 0.434 7.73 2.25 13.4
2/1/2021 6:45:00 AM 0.01 32.018 0.434 7.72 2.33 13.4
2/1/2021 7:00:00 AM 0.02 32.036 0.435 7.72 2.2 13.37
2/1/2021 7:15:00 AM 0.02 32.036 0.434 7.72 2.19 13.36
2/1/2021 7:30:00 AM 0.02 32.036 0.435 7.71 2.28 13.36
2/1/2021 7:45:00 AM 0.02 32.036 0.436 7.71 3.24 13.35
2/1/2021 8:00:00 AM 0.01 32.018 0.435 7.71 2.63 13.34
2/1/2021 8:15:00 AM 0.02 32.036 0.434 7.71 2.38 13.34
2/1/2021 8:30:00 AM 0.02 32.036 0.434 7.7 2.44 13.35
2/1/2021 8:45:00 AM 0.02 32.036 0.433 7.7 2.23 13.37
2/1/2021 9:00:00 AM 0.01 32.018 0.433 7.71 2.17 13.38
2/1/2021 9:15:00 AM 0.02 32.036 0.433 7.71 2.2 13.43
2/1/2021 9:30:00 AM 0.02 32.036 0.433 7.71 2.12 13.45
2/1/2021 9:45:00 AM 0.02 32.036 0.432 7.72 2.13 13.5
2/1/2021 10:00:00 AM 0.02 32.036 0.432 7.73 2.37 13.56
2/1/2021 10:15:00 AM 0.02 32.036 0.432 7.73 2.15 13.59
2/1/2021 10:30:00 AM 0.02 32.036 0.432 7.74 2.17 13.67
2/1/2021 10:45:00 AM 0.02 32.036 0.432 7.76 2.17 13.74
2/1/2021 11:00:00 AM 0.03 32.054 0.431 7.76 2.2 13.82
2/1/2021 11:15:00 AM 0.03 32.054 0.434 7.79 2.27 13.92
2/1/2021 11:30:00 AM 0.03 32.054 0.432 7.78 2.27 14
2/1/2021 11:45:00 AM 0.03 32.054 0.431 7.81 2.24 14.08
2/1/2021 12:00:00 PM 0.04 32.072 0.43 7.82 2.34 14.16
2/1/2021 12:15:00 PM 0.04 32.072 0.429 7.84 2.31 14.25
2/1/2021 12:30:00 PM 0.04 32.072 0.429 7.83 2.29 14.31
2/1/2021 12:45:00 PM 0.04 32.072 0.428 7.86 2.1 14.34
2/1/2021 1:00:00 PM 0.04 32.072 0.428 7.87 2.12 14.36
2/1/2021 1:15:00 PM 0.03 32.054 0.427 7.86 2.13 14.39
2/1/2021 1:30:00 PM 0.04 32.072 0.427 7.89 2.1 14.42
2/1/2021 1:45:00 PM 0.03 32.054 0.426 7.9 2.14 14.46
2/1/2021 2:00:00 PM 0.04 32.072 0.426 7.9 2.19 14.48
2/1/2021 2:15:00 PM 0.04 32.072 0.426 7.92 2.42 14.51
2/1/2021 2:30:00 PM 0.04 32.072 0.426 7.92 2.12 14.52
2/1/2021 2:45:00 PM 0.04 32.072 0.426 7.93 2.36 14.56
2/1/2021 3:00:00 PM 0.04 32.072 0.425 7.93 2.44 14.56
2/1/2021 3:15:00 PM 0.04 32.072 0.426 7.93 2.3 14.52
2/1/2021 3:30:00 PM 0.03 32.054 0.425 7.93 2.25 14.5
2/1/2021 3:45:00 PM 0.03 32.054 0.425 7.94 2.28 14.5
2/1/2021 4:00:00 PM 0.03 32.054 0.425 7.94 2.37 14.5
2/1/2021 4:15:00 PM 0.03 32.054 0.424 7.94 2.47 14.48
2/1/2021 4:30:00 PM 0.03 32.054 0.423 7.93 2.43 14.44
2/1/2021 4:45:00 PM 0.03 32.054 0.422 7.94 2.25 14.41
2/1/2021 5:00:00 PM 0.03 32.054 0.423 7.92 2.28 14.37
2/1/2021 5:15:00 PM 0.03 32.054 0.422 7.92 2.41 14.34
2/1/2021 5:30:00 PM 0.02 32.036 0.421 7.91 2.59 14.31
2/1/2021 5:45:00 PM 0.02 32.036 0.421 7.91 2.47 14.27
2/1/2021 6:00:00 PM 0.02 32.036 0.421 7.9 2.29 14.23
2/1/2021 6:15:00 PM 0.02 32.036 0.42 7.89 2.27 14.15
2/1/2021 6:30:00 PM 0.02 32.036 0.42 7.88 2.1 14.08
2/1/2021 6:45:00 PM 0.02 32.036 0.421 7.86 2.21 14.03
2/1/2021 7:00:00 PM 0.02 32.036 0.421 7.85 2.23 13.99
2/1/2021 7:15:00 PM 0.02 32.036 0.422 7.84 2.22 13.96
2/1/2021 7:30:00 PM 0.02 32.036 0.424 7.84 2.28 13.91
2/1/2021 7:45:00 PM 0.02 32.036 0.426 7.83 2.23 13.87
2/1/2021 8:00:00 PM 0.02 32.036 0.427 7.83 2.18 13.84
2/1/2021 8:15:00 PM 0.01 32.018 0.428 7.83 2.11 13.82
2/1/2021 8:30:00 PM 0.02 32.036 0.429 7.82 2.22 13.78
2/1/2021 8:45:00 PM 0.02 32.036 0.43 7.81 2.2 13.77
2/1/2021 9:00:00 PM 0.02 32.036 0.43 7.8 2.18 13.74
2/1/2021 9:15:00 PM 0.01 32.018 0.43 7.8 2.29 13.73
2/1/2021 9:30:00 PM 0.02 32.036 0.43 7.79 2.15 13.7
2/1/2021 9:45:00 PM 0.01 32.018 0.429 7.79 2.84 13.69
2/1/2021 10:00:00 PM 0.01 32.018 0.428 7.79 2.17 13.7
2/1/2021 10:15:00 PM 0.02 32.036 0.427 7.78 2.18 13.66
2/1/2021 10:30:00 PM 0.01 32.018 0.427 7.77 2.21 13.66
2/1/2021 10:45:00 PM 0.02 32.036 0.426 7.78 2.24 13.64
2/1/2021 11:00:00 PM 0.02 32.036 0.426 7.77 2.21 13.64
2/1/2021 11:15:00 PM 0.02 32.036 0.426 7.77 2.37 13.63
2/1/2021 11:30:00 PM 0.01 32.018 0.425 7.77 2.17 13.62
2/1/2021 11:45:00 PM 0.02 32.036 0.425 7.77 2.16 13.61
2/2/2021 12:00:00 AM 0.02 32.036 0.425 7.77 2.2 13.6
2/2/2021 12:15:00 AM 0.02 32.036 0.425 7.76 2.23 13.61
2/2/2021 12:30:00 AM 0.02 32.036 0.424 7.76 2.68 13.58
2/2/2021 12:45:00 AM 0.02 32.036 0.423 7.76 2.49 13.57
2/2/2021 1:00:00 AM 0.02 32.036 0.422 7.76 2.29 13.55
2/2/2021 1:15:00 AM 0.02 32.036 0.422 7.75 2.49 13.55
2/2/2021 1:30:00 AM 0.02 32.036 0.421 7.75 2.32 13.54
2/2/2021 1:45:00 AM 0.01 32.018 0.421 7.75 2.26 13.53
2/2/2021 2:00:00 AM 0.02 32.036 0.42 7.75 2.28 13.52
2/2/2021 2:15:00 AM 0.02 32.036 0.42 7.74 2.44 13.5
2/2/2021 2:30:00 AM 0.01 32.018 0.419 7.74 2.18 13.49
2/2/2021 2:45:00 AM 0.01 32.018 0.419 7.74 2.21 13.49
2/2/2021 3:00:00 AM 0.01 32.018 0.419 7.73 2.2 13.48
2/2/2021 3:15:00 AM 0.01 32.018 0.419 7.74 2.16 13.47
2/2/2021 3:30:00 AM 0.01 32.018 0.419 7.73 2.35 13.47
2/2/2021 3:45:00 AM 0.02 32.036 0.419 7.73 2.19 13.45
2/2/2021 4:00:00 AM 0.01 32.018 0.419 7.73 2.27 13.43
2/2/2021 4:15:00 AM 0.01 32.018 0.419 7.73 2.31 13.44
2/2/2021 4:30:00 AM 0.01 32.018 0.419 7.72 2.19 13.42
2/2/2021 4:45:00 AM 0.01 32.018 0.42 7.72 2.25 13.42
2/2/2021 5:00:00 AM 0.01 32.018 0.42 7.72 2.21 13.42
2/2/2021 5:15:00 AM 0.01 32.018 0.42 7.72 2.37 13.42
2/2/2021 5:30:00 AM 0.01 32.018 0.421 7.71 2.28 13.39
2/2/2021 5:45:00 AM 0.01 32.018 0.422 7.72 2.2 13.4
2/2/2021 6:00:00 AM 0.01 32.018 0.422 7.71 2.28 13.39
2/2/2021 6:15:00 AM 0.01 32.018 0.423 7.71 2.18 13.38
2/2/2021 6:30:00 AM 0.01 32.018 0.423 7.71 2.23 13.37
2/2/2021 6:45:00 AM 0.01 32.018 0.422 7.71 2.28 13.37
2/2/2021 7:00:00 AM 0.01 32.018 0.423 7.71 2.12 13.36
2/2/2021 7:15:00 AM 0.01 32.018 0.422 7.71 2.14 13.36
2/2/2021 7:30:00 AM 0.01 32.018 0.421 7.71 2.15 13.35
2/2/2021 7:45:00 AM 0.02 32.036 0.422 7.7 2.13 13.35
2/2/2021 8:00:00 AM 0.01 32.018 0.422 7.7 2.12 13.34
2/2/2021 8:15:00 AM 0.01 32.018 0.421 7.7 2.14 13.34
2/2/2021 8:30:00 AM 0.01 32.018 0.421 7.69 2.12 13.37
2/2/2021 8:45:00 AM 0.02 32.036 0.421 7.7 2.21 13.38
2/2/2021 9:00:00 AM 0.01 32.018 0.421 7.71 2.17 13.43
2/2/2021 9:15:00 AM 0.01 32.018 0.421 7.72 2.12 13.45
2/2/2021 9:30:00 AM 0.02 32.036 0.421 7.72 2.1 13.48
2/2/2021 9:45:00 AM 0.02 32.036 0.42 7.73 2.26 13.54
2/2/2021 10:00:00 AM 0.02 32.036 0.42 7.73 2.16 13.6
2/2/2021 10:15:00 AM 0.02 32.036 0.42 7.74 2.09 13.62
2/2/2021 10:30:00 AM 0.02 32.036 0.42 7.74 2.2 13.65
2/2/2021 10:45:00 AM 0.02 32.036 0.419 7.75 2.08 13.68
2/2/2021 11:00:00 AM 0.02 32.036 0.419 7.77 2.14 13.75
2/2/2021 11:15:00 AM 0.02 32.036 0.418 7.75 2.57 13.79
2/2/2021 11:30:00 AM 0.02 32.036 0.418 7.78 2.37 13.85
2/2/2021 11:45:00 AM 0.02 32.036 0.418 7.8 2.18 13.94
2/2/2021 12:00:00 PM 0.02 32.036 0.417 7.81 2.19 14
2/2/2021 12:15:00 PM 0.03 32.054 0.417 7.82 2.13 14.04
2/2/2021 12:30:00 PM 0.03 32.054 0.416 7.83 2.21 14.09
2/2/2021 12:45:00 PM 0.03 32.054 0.416 7.83 2.2 14.09
2/2/2021 1:00:00 PM 0.03 32.054 0.415 7.84 2.16 14.13
2/2/2021 1:15:00 PM 0.03 32.054 0.415 7.85 2.19 14.17
2/2/2021 1:30:00 PM 0.03 32.054 0.415 7.86 2.12 14.18
2/2/2021 1:45:00 PM 0.03 32.054 0.415 7.87 2.13 14.21
2/2/2021 2:00:00 PM 0.03 32.054 0.415 7.87 2.11 14.21
2/2/2021 2:15:00 PM 0.03 32.054 0.415 7.88 2.1 14.23
2/2/2021 2:30:00 PM 0.03 32.054 0.416 7.88 2.12 14.25
2/2/2021 2:45:00 PM 0.03 32.054 0.416 7.89 2.34 14.25
2/2/2021 3:00:00 PM 0.03 32.054 0.415 7.9 2.11 14.26
2/2/2021 3:15:00 PM 0.03 32.054 0.416 7.89 2.16 14.26
2/2/2021 3:30:00 PM 0.03 32.054 0.415 7.9 2.13 14.26
2/2/2021 3:45:00 PM 0.03 32.054 0.415 7.9 2.19 14.24
2/2/2021 4:00:00 PM 0.02 32.036 0.415 7.91 2.08 14.23
2/2/2021 4:15:00 PM 0.02 32.036 0.414 7.9 2.15 14.22
2/2/2021 4:30:00 PM 0.02 32.036 0.414 7.9 2.19 14.2
2/2/2021 4:45:00 PM 0.02 32.036 0.413 7.9 2.17 14.2
2/2/2021 5:00:00 PM 0.02 32.036 0.413 7.9 2.13 14.17
2/2/2021 5:15:00 PM 0.02 32.036 0.412 7.89 2.12 14.13
2/2/2021 5:30:00 PM 0.02 32.036 0.412 7.88 2.17 14.07
2/2/2021 5:45:00 PM 0.02 32.036 0.411 7.88 2.44 14.02
2/2/2021 6:00:00 PM 0.02 32.036 0.411 7.87 2.6 13.98
2/2/2021 6:15:00 PM 0.02 32.036 0.411 7.86 2.48 13.92
2/2/2021 6:30:00 PM 0.01 32.018 0.41 7.85 2.49 13.88
2/2/2021 6:45:00 PM 0.02 32.036 0.41 7.84 2.31 13.84
2/2/2021 7:00:00 PM 0.02 32.036 0.411 7.83 2.33 13.79
2/2/2021 7:15:00 PM 0.01 32.018 0.411 7.83 2.82 13.77
2/2/2021 7:30:00 PM 0.01 32.018 0.411 7.82 3.1 13.73
2/2/2021 7:45:00 PM 0.02 32.036 0.412 7.81 2.84 13.71
2/2/2021 8:00:00 PM 0.02 32.036 0.412 7.8 2.57 13.68
2/2/2021 8:15:00 PM 0.01 32.018 0.412 7.81 2.4 13.68
2/2/2021 8:30:00 PM 0.01 32.018 0.412 7.8 2.32 13.64
2/2/2021 8:45:00 PM 0.01 32.018 0.412 7.79 2.24 13.62
2/2/2021 9:00:00 PM 0.01 32.018 0.412 7.79 2.96 13.6
2/2/2021 9:15:00 PM 0.01 32.018 0.412 7.78 3.38 13.59
2/2/2021 9:30:00 PM 0.01 32.018 0.412 7.78 3.08 13.57
2/2/2021 9:45:00 PM 0.01 32.018 0.412 7.79 3.1 13.57
2/2/2021 10:00:00 PM 0.01 32.018 0.412 7.78 3.17 13.57
2/2/2021 10:15:00 PM 0.01 32.018 0.411 7.78 2.78 13.55
2/2/2021 10:30:00 PM 0.01 32.018 0.411 7.77 2.61 13.54
2/2/2021 10:45:00 PM 0.01 32.018 0.411 7.77 2.44 13.53
2/2/2021 11:00:00 PM 0.01 32.018 0.407 7.77 2.49 13.52
2/2/2021 11:15:00 PM 0.01 32.018 0.411 7.76 2.77 13.52
2/2/2021 11:30:00 PM 0.01 32.018 0.41 7.76 2.73 13.5
2/2/2021 11:45:00 PM 0.01 32.018 0.411 7.76 2.68 13.49
2/3/2021 12:00:00 AM 0.01 32.018 0.411 7.76 2.58 13.48
2/3/2021 12:15:00 AM 0.01 32.018 0.411 7.75 2.31 13.48
2/3/2021 12:30:00 AM 0.01 32.018 0.411 7.75 2.27 13.47
2/3/2021 12:45:00 AM 0.01 32.018 0.412 7.75 2.39 13.46
2/3/2021 1:00:00 AM 0.01 32.018 0.412 7.75 2.67 13.45
2/3/2021 1:15:00 AM 0.01 32.018 0.412 7.75 2.62 13.44
2/3/2021 1:30:00 AM 0.01 32.018 0.413 7.74 2.44 13.43
2/3/2021 1:45:00 AM 0.01 32.018 0.413 7.74 2.35 13.42
2/3/2021 2:00:00 AM 0.01 32.018 0.413 7.74 2.28 13.41
2/3/2021 2:15:00 AM 0.01 32.018 0.414 7.74 2.19 13.41
2/3/2021 2:30:00 AM 0.02 32.036 0.414 7.73 2.24 13.39
2/3/2021 2:45:00 AM 0.01 32.018 0.414 7.73 2.16 13.41
2/3/2021 3:00:00 AM 0.01 32.018 0.414 7.73 2.17 13.41
2/3/2021 3:15:00 AM 0.01 32.018 0.414 7.73 2.23 13.38
2/3/2021 3:30:00 AM 0.01 32.018 0.414 7.73 2.26 13.38
2/3/2021 3:45:00 AM 0.01 32.018 0.414 7.73 2.23 13.38
2/3/2021 4:00:00 AM 0.01 32.018 0.414 7.73 2.26 13.37
2/3/2021 4:15:00 AM 0.01 32.018 0.414 7.73 2.27 13.39
2/3/2021 4:30:00 AM 0.01 32.018 0.415 7.72 2.29 13.37
2/3/2021 4:45:00 AM 0.01 32.018 0.415 7.72 2.23 13.36
2/3/2021 5:00:00 AM 0.01 32.018 0.415 7.72 2.21 13.36
2/3/2021 5:15:00 AM 0.01 32.018 0.415 7.72 2.17 13.35
2/3/2021 5:30:00 AM 0.01 32.018 0.415 7.72 2.29 13.37
2/3/2021 5:45:00 AM 0.01 32.018 0.416 7.71 3 13.33
2/3/2021 6:00:00 AM 0.01 32.018 0.415 7.72 2.72 13.37
2/3/2021 6:15:00 AM 0.01 32.018 0.416 7.72 2.38 13.35
2/3/2021 6:30:00 AM 0.01 32.018 0.417 7.71 2.27 13.35
2/3/2021 6:45:00 AM 0.01 32.018 0.417 7.72 2.32 13.35
2/3/2021 7:00:00 AM 0.01 32.018 0.417 7.71 2.35 13.35
2/3/2021 7:15:00 AM 0.01 32.018 0.418 7.71 2.28 13.34
2/3/2021 7:30:00 AM 0.01 32.018 0.418 7.71 2.25 13.34
2/3/2021 7:45:00 AM 0.01 32.018 0.418 7.71 2.3 13.34
2/3/2021 8:00:00 AM 0.01 32.018 0.419 7.7 2.35 13.34
2/3/2021 8:15:00 AM 0.01 32.018 0.418 7.71 2.29 13.36
2/3/2021 8:30:00 AM 0.01 32.018 0.418 7.71 2.26 13.37
2/3/2021 8:45:00 AM 0.01 32.018 0.418 7.72 2.39 13.39
2/3/2021 9:00:00 AM 0.01 32.018 0.418 7.71 2.37 13.42
2/3/2021 9:15:00 AM 0.01 32.018 0.418 7.72 2.66 13.47
2/3/2021 9:30:00 AM 0.01 32.018 0.418 7.73 2.37 13.5
2/3/2021 9:45:00 AM 0.01 32.018 0.417 7.73 2.34 13.54
2/3/2021 10:00:00 AM 0.02 32.036 0.417 7.74 2.44 13.58
2/3/2021 10:15:00 AM 0.02 32.036 0.417 7.74 2.33 13.62
2/3/2021 10:30:00 AM 0.02 32.036 0.416 7.76 2.27 13.69
2/3/2021 10:45:00 AM 0.02 32.036 0.416 7.77 2.34 13.77
2/3/2021 11:00:00 AM 0.03 32.054 0.416 7.78 2.27 13.83
2/3/2021 11:15:00 AM 0.03 32.054 0.415 7.79 2.27 13.89
2/3/2021 11:30:00 AM 0.03 32.054 0.415 7.8 2.26 13.96
2/3/2021 11:45:00 AM 0.03 32.054 0.415 7.82 2.23 14.02
2/3/2021 12:00:00 PM 0.03 32.054 0.414 7.83 2.29 14.07
2/3/2021 12:15:00 PM 0.03 32.054 0.414 7.84 2.31 14.11
2/3/2021 12:30:00 PM 0.03 32.054 0.414 7.85 2.29 14.14
2/3/2021 12:45:00 PM 0.04 32.072 0.414 7.86 2.21 14.18
2/3/2021 1:00:00 PM 0.03 32.054 0.413 7.87 2.3 14.21
2/3/2021 1:15:00 PM 0.04 32.072 0.414 7.87 2.4 14.22
2/3/2021 1:30:00 PM 0.04 32.072 0.413 7.89 2.21 14.28
2/3/2021 1:45:00 PM 0.04 32.072 0.416 7.9 2.32 14.3
2/3/2021 2:00:00 PM 0.04 32.072 0.414 7.91 2.3 14.33
2/3/2021 2:15:00 PM 0.04 32.072 0.413 7.91 2.29 14.33
2/3/2021 2:30:00 PM 0.04 32.072 0.413 7.92 2.25 14.35
2/3/2021 2:45:00 PM 0.04 32.072 0.413 7.92 2.17 14.35
2/3/2021 3:00:00 PM 0.04 32.072 0.413 7.93 2.21 14.36
2/3/2021 3:15:00 PM 0.04 32.072 0.413 7.94 2.22 14.38
2/3/2021 3:30:00 PM 0.04 32.072 0.413 7.94 2.24 14.38
2/3/2021 3:45:00 PM 0.04 32.072 0.413 7.94 2.23 14.36
2/3/2021 4:00:00 PM 0.03 32.054 0.413 7.94 2.36 14.36
2/3/2021 4:15:00 PM 0.03 32.054 0.413 7.95 2.32 14.4
2/3/2021 4:30:00 PM 0.03 32.054 0.413 7.96 2.36 14.38
2/3/2021 4:45:00 PM 0.03 32.054 0.413 7.95 2.35 14.36
2/3/2021 5:00:00 PM 0.02 32.036 0.413 7.95 2.36 14.32
2/3/2021 5:15:00 PM 0.02 32.036 0.413 7.94 2.39 14.27
2/3/2021 5:30:00 PM 0.02 32.036 0.412 7.93 2.39 14.22
2/3/2021 5:45:00 PM 0.01 32.018 0.412 7.92 2.27 14.18
2/3/2021 6:00:00 PM 0.01 32.018 0.411 7.9 2.3 14.12
2/3/2021 6:15:00 PM 0.01 32.018 0.411 7.89 2.34 14.05
2/3/2021 6:30:00 PM 0.01 32.018 0.411 7.87 2.57 13.97
2/3/2021 6:45:00 PM 0.01 32.018 0.412 7.84 2.59 13.89
2/3/2021 7:00:00 PM 0.01 32.018 0.413 7.82 2.54 13.83
2/3/2021 7:15:00 PM 0.01 32.018 0.414 7.8 2.55 13.77
2/3/2021 7:30:00 PM 0.01 32.018 0.415 7.77 2.74 13.72
2/3/2021 7:45:00 PM 0.01 32.018 0.415 7.75 2.82 13.66
2/3/2021 8:00:00 PM 0.01 32.018 0.416 7.73 2.84 13.61
2/3/2021 8:15:00 PM 0.01 32.018 0.416 7.72 3.17 13.58
2/3/2021 8:30:00 PM 0.01 32.018 0.417 7.71 3.38 13.53
2/3/2021 8:45:00 PM 0.01 32.018 0.418 7.71 3.39 13.5
2/3/2021 9:00:00 PM 0.01 32.018 0.42 7.7 3.3 13.47
2/3/2021 9:15:00 PM 0.01 32.018 0.422 7.7 3.33 13.46
2/3/2021 9:30:00 PM 0.01 32.018 0.424 7.7 3.43 13.43
2/3/2021 9:45:00 PM 0.01 32.018 0.427 7.71 3.52 13.41
2/3/2021 10:00:00 PM 0.01 32.018 0.43 7.7 3.3 13.4
2/3/2021 10:15:00 PM 0.01 32.018 0.435 7.72 3.13 13.41
2/3/2021 10:30:00 PM 0 32 0.442 7.72 3.27 13.4
2/3/2021 10:45:00 PM 0 32 0.45 7.73 4.13 13.42
2/3/2021 11:00:00 PM 0 32 0.456 7.73 4.06 13.42
2/3/2021 11:15:00 PM 0 32 0.458 7.72 3.48 13.41
2/3/2021 11:30:00 PM 0 32 0.459 7.73 3.3 13.42
2/3/2021 11:45:00 PM 0 32 0.456 7.73 2.94 13.42
2/4/2021 12:00:00 AM 0.01 32.018 0.454 7.72 2.76 13.42
2/4/2021 12:15:00 AM 0.01 32.018 0.45 7.72 2.7 13.41
2/4/2021 12:30:00 AM 0.01 32.018 0.446 7.72 2.64 13.4
2/4/2021 12:45:00 AM 0 32 0.442 7.72 2.91 13.39
2/4/2021 1:00:00 AM 0 32 0.436 7.72 2.92 13.41
2/4/2021 1:15:00 AM 0 32 0.434 7.72 2.8 13.41
2/4/2021 1:30:00 AM 0 32 0.431 7.71 2.74 13.39
2/4/2021 1:45:00 AM 0.01 32.018 0.429 7.71 2.84 13.4
2/4/2021 2:00:00 AM 0 32 0.427 7.71 2.63 13.41
2/4/2021 2:15:00 AM 0 32 0.425 7.71 2.54 13.4
2/4/2021 2:30:00 AM 0 32 0.424 7.71 2.6 13.4
2/4/2021 2:45:00 AM 0 32 0.422 7.71 2.45 13.42
2/4/2021 3:00:00 AM 0 32 0.421 7.7 2.51 13.4
2/4/2021 3:15:00 AM 0 32 0.42 7.68 2.51 13.38
2/4/2021 3:30:00 AM 0 32 0.42 7.7 2.54 13.38
2/4/2021 3:45:00 AM 0 32 0.419 7.69 2.56 13.39
2/4/2021 4:00:00 AM 0 32 0.419 7.69 2.54 13.39
2/4/2021 4:15:00 AM 0 32 0.418 7.69 2.52 13.38
2/4/2021 4:30:00 AM 0 32 0.418 7.69 2.48 13.37
2/4/2021 4:45:00 AM 0 32 0.418 7.69 2.58 13.37
2/4/2021 5:00:00 AM 0.01 32.018 0.418 7.68 2.55 13.37
2/4/2021 5:15:00 AM 0.01 32.018 0.418 7.68 2.62 13.36
2/4/2021 5:30:00 AM 0 32 0.418 7.68 2.58 13.35
2/4/2021 5:45:00 AM 0.01 32.018 0.419 7.67 2.52 13.35
2/4/2021 6:00:00 AM 0 32 0.419 7.68 2.56 13.35
2/4/2021 6:15:00 AM 0.01 32.018 0.419 7.67 2.55 13.35
2/4/2021 6:30:00 AM 0 32 0.42 7.67 2.51 13.34
2/4/2021 6:45:00 AM 0 32 0.42 7.67 2.44 13.35
2/4/2021 7:00:00 AM 0.01 32.018 0.42 7.66 2.48 13.32
2/4/2021 7:15:00 AM 0.01 32.018 0.42 7.66 2.47 13.32
2/4/2021 7:30:00 AM 0.01 32.018 0.42 7.66 2.43 13.32
2/4/2021 7:45:00 AM 0.01 32.018 0.421 7.66 2.48 13.33
2/4/2021 8:00:00 AM 0 32 0.42 7.66 2.41 13.32
2/4/2021 8:15:00 AM 0 32 0.42 7.66 2.43 13.33
2/4/2021 8:30:00 AM 0 32 0.419 7.66 2.44 13.37
2/4/2021 8:45:00 AM 0.01 32.018 0.419 7.67 2.41 13.39
2/4/2021 9:00:00 AM 0.01 32.018 0.419 7.67 2.41 13.44
2/4/2021 9:15:00 AM 0.01 32.018 0.418 7.68 2.46 13.52
2/4/2021 9:30:00 AM 0.01 32.018 0.418 7.68 2.38 13.56
2/4/2021 9:45:00 AM 0.02 32.036 0.418 7.69 2.39 13.63
2/4/2021 10:00:00 AM 0.02 32.036 0.417 7.71 2.41 13.74
2/4/2021 10:15:00 AM 0.03 32.054 0.417 7.72 2.37 13.82
2/4/2021 10:30:00 AM 0.03 32.054 0.417 7.74 2.4 13.93
2/4/2021 10:45:00 AM 0.04 32.072 0.417 7.76 2.38 14.03
2/4/2021 11:00:00 AM 0.04 32.072 0.417 7.78 2.39 14.14
2/4/2021 11:15:00 AM 0.05 32.09 0.417 7.79 2.38 14.24
2/4/2021 11:30:00 AM 0.05 32.09 0.417 7.81 2.35 14.33
2/4/2021 11:45:00 AM 0.05 32.09 0.418 7.83 2.48 14.38
2/4/2021 12:00:00 PM 0.05 32.09 0.418 7.84 2.44 14.43
2/4/2021 12:15:00 PM 0.06 32.108 0.418 7.85 2.49 14.48
2/4/2021 12:30:00 PM 0.06 32.108 0.418 7.87 2.42 14.54
2/4/2021 12:45:00 PM 0.06 32.108 0.418 7.87 2.35 14.55
2/4/2021 1:00:00 PM 0.06 32.108 0.417 7.89 2.39 14.59
2/4/2021 1:15:00 PM 0.05 32.09 0.416 7.9 2.4 14.61
2/4/2021 1:30:00 PM 0.05 32.09 0.416 7.91 2.39 14.64
2/4/2021 1:45:00 PM 0.05 32.09 0.415 7.92 2.34 14.67
2/4/2021 2:00:00 PM 0.05 32.09 0.415 7.93 2.44 14.68
2/4/2021 2:15:00 PM 0.05 32.09 0.416 7.95 2.41 14.7
2/4/2021 2:30:00 PM 0.05 32.09 0.416 7.93 2.37 14.7
2/4/2021 2:45:00 PM 0.05 32.09 0.417 7.96 2.43 14.72
2/4/2021 3:00:00 PM 0.05 32.09 0.418 7.96 2.34 14.72
2/4/2021 3:15:00 PM 0.05 32.09 0.418 7.97 2.35 14.73
2/4/2021 3:30:00 PM 0.05 32.09 0.418 7.98 2.31 14.72
2/4/2021 3:45:00 PM 0.05 32.09 0.418 7.98 2.51 14.71
2/4/2021 4:00:00 PM 0.04 32.072 0.418 7.98 2.5 14.7
2/4/2021 4:15:00 PM 0.04 32.072 0.418 7.98 2.48 14.65
2/4/2021 4:30:00 PM 0.03 32.054 0.418 7.96 2.51 14.61
2/4/2021 4:45:00 PM 0.03 32.054 0.418 7.96 2.51 14.56
2/4/2021 5:00:00 PM 0.03 32.054 0.417 7.94 2.49 14.49
2/4/2021 5:15:00 PM 0.02 32.036 0.417 7.93 2.71 14.43
2/4/2021 5:30:00 PM 0.02 32.036 0.416 7.92 2.61 14.34
2/4/2021 5:45:00 PM 0.01 32.018 0.416 7.91 2.58 14.26
2/4/2021 6:00:00 PM 0.02 32.036 0.417 7.89 2.58 14.17
2/4/2021 6:15:00 PM 0.01 32.018 0.418 7.88 2.55 14.09
2/4/2021 6:30:00 PM 0.01 32.018 0.42 7.86 2.51 14.02
2/4/2021 6:45:00 PM 0.01 32.018 0.42 7.86 2.5 13.96
2/4/2021 7:00:00 PM 0.01 32.018 0.421 7.85 2.53 13.92
2/4/2021 7:15:00 PM 0.01 32.018 0.421 7.84 2.6 13.89
2/4/2021 7:30:00 PM 0.01 32.018 0.42 7.83 2.55 13.86
2/4/2021 7:45:00 PM 0.01 32.018 0.42 7.82 2.52 13.83
2/4/2021 8:00:00 PM 0.01 32.018 0.421 7.82 2.52 13.8
2/4/2021 8:15:00 PM 0 32 0.422 7.81 2.56 13.8
2/4/2021 8:30:00 PM 0 32 0.424 7.8 2.51 13.78
2/4/2021 8:45:00 PM 0 32 0.425 7.79 2.53 13.75
2/4/2021 9:00:00 PM 0 32 0.426 7.8 2.49 13.73
2/4/2021 9:15:00 PM 0 32 0.427 7.79 2.53 13.71
2/4/2021 9:30:00 PM 0 32 0.428 7.78 2.62 13.7
2/4/2021 9:45:00 PM 0.01 32.018 0.429 7.77 3.12 13.67
2/4/2021 10:00:00 PM 0.01 32.018 0.43 7.75 3.3 13.65
2/4/2021 10:15:00 PM 0.01 32.018 0.43 7.77 3 13.63
2/4/2021 10:30:00 PM 0.01 32.018 0.43 7.76 2.85 13.61
2/4/2021 10:45:00 PM 0.01 32.018 0.43 7.76 2.74 13.59
2/4/2021 11:00:00 PM 0.01 32.018 0.43 7.75 2.63 13.58
2/4/2021 11:15:00 PM 0.01 32.018 0.431 7.76 2.49 13.57
2/4/2021 11:30:00 PM 0.01 32.018 0.433 7.75 2.51 13.55
2/4/2021 11:45:00 PM 0 32 0.434 7.75 2.46 13.54
2/5/2021 12:00:00 AM 0.01 32.018 0.435 7.74 2.43 13.52
2/5/2021 12:15:00 AM 0 32 0.435 7.74 2.5 13.52
2/5/2021 12:30:00 AM 0.01 32.018 0.436 7.73 2.46 13.49
2/5/2021 12:45:00 AM 0.01 32.018 0.436 7.73 2.46 13.48
2/5/2021 1:00:00 AM 0.01 32.018 0.436 7.73 2.46 13.47
2/5/2021 1:15:00 AM 0.01 32.018 0.435 7.73 2.55 13.47
2/5/2021 1:30:00 AM 0.01 32.018 0.434 7.73 2.84 13.46
2/5/2021 1:45:00 AM 0 32 0.433 7.73 2.85 13.46
2/5/2021 2:00:00 AM 0.01 32.018 0.431 7.73 2.71 13.45
2/5/2021 2:15:00 AM 0.01 32.018 0.43 7.72 2.63 13.45
2/5/2021 2:30:00 AM 0.01 32.018 0.43 7.72 2.57 13.43
2/5/2021 2:45:00 AM 0.01 32.018 0.429 7.72 2.46 13.42
2/5/2021 3:00:00 AM 0.01 32.018 0.428 7.72 2.42 13.43
2/5/2021 3:15:00 AM 0.01 32.018 0.427 7.72 2.42 13.42
2/5/2021 3:30:00 AM 0.01 32.018 0.427 7.72 2.39 13.41
2/5/2021 3:45:00 AM 0.01 32.018 0.427 7.72 2.45 13.41
2/5/2021 4:00:00 AM 0.01 32.018 0.427 7.72 2.42 13.4
2/5/2021 4:15:00 AM 0.01 32.018 0.427 7.72 2.36 13.41
2/5/2021 4:30:00 AM 0.01 32.018 0.428 7.71 2.37 13.38
2/5/2021 4:45:00 AM 0.01 32.018 0.429 7.71 2.41 13.37
2/5/2021 5:00:00 AM 0.01 32.018 0.43 7.72 2.36 13.37
2/5/2021 5:15:00 AM 0.01 32.018 0.431 7.71 2.37 13.37
2/5/2021 5:30:00 AM 0.01 32.018 0.432 7.71 2.54 13.38
2/5/2021 5:45:00 AM 0.01 32.018 0.433 7.71 2.35 13.36
2/5/2021 6:00:00 AM 0.01 32.018 0.433 7.71 2.39 13.37
2/5/2021 6:15:00 AM 0.01 32.018 0.434 7.71 2.4 13.35
2/5/2021 6:30:00 AM 0.01 32.018 0.434 7.69 2.38 13.34
2/5/2021 6:45:00 AM 0.01 32.018 0.434 7.71 2.49 13.34
2/5/2021 7:00:00 AM 0.01 32.018 0.434 7.7 2.41 13.34
2/5/2021 7:15:00 AM 0.01 32.018 0.434 7.7 2.42 13.32
2/5/2021 7:30:00 AM 0.01 32.018 0.434 7.7 2.58 13.32
2/5/2021 7:45:00 AM 0.01 32.018 0.434 7.7 2.53 13.32
2/5/2021 8:00:00 AM 0.01 32.018 0.434 7.7 2.59 13.33
2/5/2021 8:15:00 AM 0.01 32.018 0.433 7.7 2.45 13.36
2/5/2021 8:30:00 AM 0.01 32.018 0.433 7.71 2.72 13.38
2/5/2021 8:45:00 AM 0.01 32.018 0.433 7.72 2.55 13.44
2/5/2021 9:00:00 AM 0.02 32.036 0.434 7.73 2.61 13.53
2/5/2021 9:15:00 AM 0.02 32.036 0.434 7.75 2.42 13.62
2/5/2021 9:30:00 AM 0.02 32.036 0.433 7.76 2.55 13.71
2/5/2021 9:45:00 AM 0.03 32.054 0.432 7.77 2.42 13.77
2/5/2021 10:00:00 AM 0.04 32.072 0.43 7.79 2.39 13.88
2/5/2021 10:15:00 AM 0.05 32.09 0.429 7.82 2.38 14
2/5/2021 10:30:00 AM 0.06 32.108 0.428 7.83 2.36 14.1
2/5/2021 10:45:00 AM 0.08 32.144 0.427 7.86 2.44 14.21
2/5/2021 11:00:00 AM 0.1 32.18 0.427